Darstellungsparameter: Aktuell verwendete Einstellungen:
Skalierung der Graphiken ... ?
xyx+y,   Skalierungsfaktor:      Skalierung: Modus: x, Faktor: 1
Darstellungszeitraum ... ?
Vom - - bis: - -   Zeitraum: 20.01.2016 - 19.07.2016
Min/Max/Avg-Anzeige ... ?
Zeige MMA aktuell
Zeige MMA Monat
Zeige MMA alles
Zeige --A aktuell
Zeige --A Monat
Zeige --A alles
Keine MMA-Anzeige
MMA:
Keine MMA-Graphiken
MMA-Basis: 20.01.2016 - 19.07.2016
Quicknavigation für Darstellung... ?
Tage:      1T, 2T, 3T, 5T -1T -2T -3T -5T +1T +2T +3T +5T
Wochen: 1W, 2W, 3W -1W -2W -3W +1W +2W +3W
Monate: 1M, 3M, 6M -1M -3M -6M +1M +3M +6M
Jahre:    1J, 3J, 5J, 10J -1J -3J -5J -10J +1J +3J +5J +10J
Nutze für die Darstellung ... ?
Originaldaten oder Mittelwerte auf ...
Stundenbasis Tagesbasis Wochenbasis
Monatsbasis Jahresbasis      Datenbasis: Original-Daten
Darstellen als:
Statistik (Auto) Statistik J:M      Darstellung:
Zur Graphik,    zurück zur Übersicht aller Sensoren.
 
Tabellarische Datenbersicht: ?
 
Sensor: Nr:Datum:Temp:Feuchte:Taupunkt:
Aussen-T/F 1 20-01-2016 00:00:00 -7.6 C 94 % -8.4 C
2 20-01-2016 00:05:00 -7.6 C 94 % -8.4 C
3 20-01-2016 00:10:00 -7.6 C 94 % -8.4 C
4 20-01-2016 00:15:00 -7.6 C 94 % -8.4 C
5 20-01-2016 00:20:00 -7.6 C 94 % -8.4 C
6 20-01-2016 00:25:00 -7.6 C 94 % -8.4 C
7 20-01-2016 00:30:00 -7.6 C 94 % -8.4 C
8 20-01-2016 00:35:00 -7.7 C 94 % -8.49 C
9 20-01-2016 00:40:00 -7.6 C 94 % -8.4 C
10 20-01-2016 00:45:00 -7.4 C 94 % -8.2 C
11 20-01-2016 00:50:00 -7.2 C 94 % -8 C
12 20-01-2016 00:55:00 -7.2 C 94 % -8 C
13 20-01-2016 01:00:00 -7.1 C 94 % -7.9 C
14 20-01-2016 01:05:00 -7 C 94 % -7.8 C
15 20-01-2016 01:10:00 -6.9 C 94 % -7.7 C
16 20-01-2016 01:15:00 -6.8 C 94 % -7.6 C
17 20-01-2016 01:20:00 -6.7 C 94 % -7.5 C
18 20-01-2016 01:25:00 -6.6 C 94 % -7.4 C
19 20-01-2016 01:30:00 -6.5 C 94 % -7.3 C
20 20-01-2016 01:35:00 -6.3 C 95 % -6.97 C
21 20-01-2016 01:40:00 -6.2 C 94 % -7.01 C
22 20-01-2016 01:45:00 -6.3 C 94 % -7.1 C
23 20-01-2016 01:50:00 -6.3 C 94 % -7.1 C
24 20-01-2016 01:55:00 -6.3 C 94 % -7.1 C
25 20-01-2016 02:00:00 -6.3 C 94 % -7.1 C
Sensor: Nr:Datum:Temp:Feuchte:Taupunkt:
Aussen-T/F 26 20-01-2016 02:05:00 -6.2 C 94 % -7.01 C
27 20-01-2016 02:10:00 -6 C 94 % -6.81 C
28 20-01-2016 02:15:00 -5.9 C 94 % -6.71 C
29 20-01-2016 02:20:00 -5.8 C 94 % -6.61 C
30 20-01-2016 02:25:00 -5.8 C 94 % -6.61 C
31 20-01-2016 02:30:00 -5.8 C 94 % -6.61 C
32 20-01-2016 02:35:00 -5.7 C 94 % -6.51 C
33 20-01-2016 02:40:00 -5.6 C 94 % -6.41 C
34 20-01-2016 02:45:00 -5.5 C 94 % -6.31 C
35 20-01-2016 02:50:00 -5.4 C 94 % -6.21 C
36 20-01-2016 02:55:00 -5.3 C 94 % -6.11 C
37 20-01-2016 03:00:00 -5.3 C 94 % -6.11 C
38 20-01-2016 03:05:00 -5.2 C 94 % -6.01 C
39 20-01-2016 03:10:00 -5.2 C 94 % -6.01 C
40 20-01-2016 03:15:00 -5.1 C 94 % -5.91 C
41 20-01-2016 03:20:00 -5.1 C 94 % -5.91 C
42 20-01-2016 03:25:00 -5 C 94 % -5.81 C
43 20-01-2016 03:30:00 -4.9 C 94 % -5.71 C
44 20-01-2016 03:35:00 -4.9 C 94 % -5.71 C
45 20-01-2016 03:40:00 -4.9 C 94 % -5.71 C
46 20-01-2016 03:45:00 -4.8 C 94 % -5.61 C
47 20-01-2016 03:50:00 -4.8 C 94 % -5.61 C
48 20-01-2016 03:55:00 -4.8 C 94 % -5.61 C
49 20-01-2016 04:00:00 -4.7 C 94 % -5.52 C
50 20-01-2016 04:05:00 -4.7 C 94 % -5.52 C
Sensor: Nr:Datum:Temp:Feuchte:Taupunkt:
Aussen-T/F 51 20-01-2016 04:10:00 -4.7 C 94 % -5.52 C
52 20-01-2016 04:15:00 -4.6 C 94 % -5.42 C
53 20-01-2016 04:20:00 -4.6 C 94 % -5.42 C
54 20-01-2016 04:25:00 -4.6 C 94 % -5.42 C
55 20-01-2016 04:30:00 -4.6 C 94 % -5.42 C
56 20-01-2016 04:35:00 -4.5 C 94 % -5.32 C
57 20-01-2016 04:40:00 -4.4 C 94 % -5.22 C
58 20-01-2016 04:45:00 -4.4 C 94 % -5.22 C
59 20-01-2016 04:50:00 -4.4 C 94 % -5.22 C
60 20-01-2016 04:55:00 -4.3 C 94 % -5.12 C
61 20-01-2016 05:00:00 -4.3 C 94 % -5.12 C
62 20-01-2016 05:05:00 -4.3 C 94 % -5.12 C
63 20-01-2016 05:10:00 -4.3 C 94 % -5.12 C
64 20-01-2016 05:15:00 -4.3 C 94 % -5.12 C
65 20-01-2016 05:20:00 -4.2 C 94 % -5.02 C
66 20-01-2016 05:25:00 -4.2 C 94 % -5.02 C
67 20-01-2016 05:30:00 -4.2 C 94 % -5.02 C
68 20-01-2016 05:35:00 -4.2 C 94 % -5.02 C
69 20-01-2016 05:40:00 -4.1 C 94 % -4.92 C
70 20-01-2016 05:45:00 -4.1 C 94 % -4.92 C
71 20-01-2016 05:50:00 -4.1 C 94 % -4.92 C
72 20-01-2016 05:55:00 -4.1 C 94 % -4.92 C
73 20-01-2016 06:00:00 -4.1 C 94 % -4.92 C
74 20-01-2016 06:05:00 -4 C 94 % -4.82 C
75 20-01-2016 06:10:00 -4 C 94 % -4.82 C
Sensor: Nr:Datum:Temp:Feuchte:Taupunkt:
Aussen-T/F 76 20-01-2016 06:15:00 -4 C 94 % -4.82 C
77 20-01-2016 06:20:00 -3.9 C 94 % -4.72 C
78 20-01-2016 06:25:00 -3.9 C 94 % -4.72 C
79 20-01-2016 06:30:00 -3.9 C 94 % -4.72 C
80 20-01-2016 06:35:00 -3.9 C 94 % -4.72 C
81 20-01-2016 06:40:00 -3.8 C 94 % -4.62 C
82 20-01-2016 06:45:00 -3.8 C 94 % -4.62 C
83 20-01-2016 06:50:00 -3.8 C 94 % -4.62 C
84 20-01-2016 06:55:00 -3.8 C 94 % -4.62 C
85 20-01-2016 07:00:00 -3.7 C 94 % -4.52 C
86 20-01-2016 07:05:00 -3.7 C 94 % -4.52 C
87 20-01-2016 07:10:00 -3.7 C 94 % -4.52 C
88 20-01-2016 07:15:00 -3.7 C 94 % -4.52 C
89 20-01-2016 07:20:00 -3.7 C 94 % -4.52 C
90 20-01-2016 07:25:00 -3.7 C 94 % -4.52 C
91 20-01-2016 07:30:00 -3.7 C 94 % -4.52 C
92 20-01-2016 07:35:00 -3.7 C 94 % -4.52 C
93 20-01-2016 07:40:00 -3.6 C 94 % -4.42 C
94 20-01-2016 07:45:00 -3.6 C 94 % -4.42 C
95 20-01-2016 07:50:00 -3.6 C 94 % -4.42 C
96 20-01-2016 07:55:00 -3.6 C 94 % -4.42 C
97 20-01-2016 08:00:00 -3.6 C 94 % -4.42 C
98 20-01-2016 08:05:00 -3.5 C 94 % -4.32 C
99 20-01-2016 08:10:00 -3.5 C 94 % -4.32 C
100 20-01-2016 08:15:00 -3.5 C 94 % -4.32 C
Sensor: Nr:Datum:Temp:Feuchte:Taupunkt:
Aussen-T/F 101 20-01-2016 08:20:00 -3.5 C 94 % -4.32 C
102 20-01-2016 08:25:00 -3.4 C 94 % -4.22 C
103 20-01-2016 08:30:00 -3.4 C 94 % -4.22 C
104 20-01-2016 08:35:00 -3.4 C 94 % -4.22 C
105 20-01-2016 08:40:00 -3.4 C 94 % -4.22 C
106 20-01-2016 08:45:00 -3.4 C 94 % -4.22 C
107 20-01-2016 08:50:00 -3.3 C 94 % -4.13 C
108 20-01-2016 08:55:00 -3.3 C 94 % -4.13 C
109 20-01-2016 09:00:00 -3.3 C 94 % -4.13 C
110 20-01-2016 09:05:00 -3.2 C 94 % -4.03 C
111 20-01-2016 09:10:00 -3.2 C 94 % -4.03 C
112 20-01-2016 09:15:00 -3.1 C 94 % -3.93 C
113 20-01-2016 09:20:00 -2.9 C 94 % -3.73 C
114 20-01-2016 09:25:00 -2.8 C 94 % -3.63 C
115 20-01-2016 09:30:00 -2.8 C 93 % -3.77 C
116 20-01-2016 09:35:00 -2.7 C 94 % -3.53 C
117 20-01-2016 09:40:00 -2.6 C 93 % -3.57 C
118 20-01-2016 09:45:00 -2.5 C 93 % -3.47 C
119 20-01-2016 09:50:00 -2.4 C 93 % -3.37 C
120 20-01-2016 09:55:00 -2.3 C 93 % -3.28 C
121 20-01-2016 10:00:00 -2.3 C 93 % -3.28 C
122 20-01-2016 10:05:00 -2.2 C 93 % -3.18 C
123 20-01-2016 10:10:00 -2.1 C 92 % -3.22 C
124 20-01-2016 10:15:00 -2 C 92 % -3.12 C
125 20-01-2016 10:20:00 -1.8 C 92 % -2.92 C
Sensor: Nr:Datum:Temp:Feuchte:Taupunkt:
Aussen-T/F 126 20-01-2016 10:25:00 -1.8 C 92 % -2.92 C
127 20-01-2016 10:30:00 -1.7 C 92 % -2.83 C
128 20-01-2016 10:35:00 -1.6 C 91 % -2.87 C
129 20-01-2016 10:40:00 -1.4 C 91 % -2.68 C
130 20-01-2016 10:45:00 -1.4 C 91 % -2.68 C
131 20-01-2016 10:50:00 -1.3 C 91 % -2.58 C
132 20-01-2016 10:55:00 -1.3 C 91 % -2.58 C
133 20-01-2016 11:00:00 -1.2 C 90 % -2.63 C
134 20-01-2016 11:05:00 -1.1 C 90 % -2.53 C
135 20-01-2016 11:10:00 -1 C 90 % -2.43 C
136 20-01-2016 11:15:00 -0.9 C 90 % -2.33 C
137 20-01-2016 11:20:00 -0.8 C 90 % -2.23 C
138 20-01-2016 11:25:00 -0.7 C 90 % -2.13 C
139 20-01-2016 11:30:00 -0.6 C 89 % -2.18 C
140 20-01-2016 11:35:00 -0.5 C 89 % -2.09 C
141 20-01-2016 11:40:00 -0.4 C 89 % -1.99 C
142 20-01-2016 11:45:00 -0.3 C 89 % -1.89 C
143 20-01-2016 11:50:00 -0.3 C 89 % -1.89 C
144 20-01-2016 11:55:00 -0.2 C 89 % -1.79 C
145 20-01-2016 12:00:00 -0.1 C 89 % -1.69 C
146 20-01-2016 12:05:00 0 C 88 % -1.74 C
147 20-01-2016 12:10:00 0.1 C 88 % -1.65 C
148 20-01-2016 12:15:00 0.1 C 88 % -1.65 C
149 20-01-2016 12:20:00 0.2 C 88 % -1.55 C
150 20-01-2016 12:25:00 0.3 C 88 % -1.45 C
Sensor: Nr:Datum:Temp:Feuchte:Taupunkt:
Aussen-T/F 151 20-01-2016 12:30:00 0.3 C 88 % -1.45 C
152 20-01-2016 12:35:00 0.4 C 87 % -1.5 C
153 20-01-2016 12:40:00 0.4 C 87 % -1.5 C
154 20-01-2016 12:45:00 0.4 C 87 % -1.5 C
155 20-01-2016 12:50:00 0.4 C 87 % -1.5 C
156 20-01-2016 12:55:00 0.4 C 88 % -1.35 C
157 20-01-2016 13:00:00 0.5 C 88 % -1.25 C
158 20-01-2016 13:05:00 0.6 C 88 % -1.15 C
159 20-01-2016 13:10:00 0.7 C 87 % -1.21 C
160 20-01-2016 13:15:00 0.7 C 87 % -1.21 C
161 20-01-2016 13:20:00 0.8 C 87 % -1.11 C
162 20-01-2016 13:25:00 0.8 C 87 % -1.11 C
163 20-01-2016 13:30:00 0.9 C 87 % -1.01 C
164 20-01-2016 13:35:00 0.9 C 87 % -1.01 C
165 20-01-2016 13:40:00 1 C 87 % -0.91 C
166 20-01-2016 13:45:00 1.1 C 87 % -0.82 C
167 20-01-2016 13:50:00 1.2 C 87 % -0.72 C
168 20-01-2016 13:55:00 1.2 C 86 % -0.88 C
169 20-01-2016 14:00:00 1.2 C 86 % -0.88 C
170 20-01-2016 14:05:00 1.3 C 86 % -0.78 C
171 20-01-2016 14:10:00 1.3 C 86 % -0.78 C
172 20-01-2016 14:15:00 1.3 C 86 % -0.78 C
173 20-01-2016 14:20:00 1.3 C 86 % -0.78 C
174 20-01-2016 14:25:00 1.4 C 86 % -0.68 C
175 20-01-2016 14:30:00 1.4 C 86 % -0.68 C
Sensor: Nr:Datum:Temp:Feuchte:Taupunkt:
Aussen-T/F 176 20-01-2016 14:35:00 1.4 C 86 % -0.68 C
177 20-01-2016 14:40:00 1.5 C 86 % -0.58 C
178 20-01-2016 14:45:00 1.6 C 86 % -0.48 C
179 20-01-2016 14:50:00 1.6 C 86 % -0.48 C
180 20-01-2016 14:55:00 1.7 C 86 % -0.38 C
181 20-01-2016 15:00:00 1.7 C 86 % -0.38 C
182 20-01-2016 15:05:00 1.7 C 85 % -0.54 C
183 20-01-2016 15:10:00 1.7 C 85 % -0.54 C
184 20-01-2016 15:15:00 1.7 C 86 % -0.38 C
185 20-01-2016 15:20:00 1.7 C 86 % -0.38 C
186 20-01-2016 15:25:00 1.7 C 86 % -0.38 C
187 20-01-2016 15:30:00 1.7 C 86 % -0.38 C
188 20-01-2016 15:35:00 1.6 C 86 % -0.48 C
189 20-01-2016 15:40:00 1.6 C 86 % -0.48 C
190 20-01-2016 15:45:00 1.6 C 86 % -0.48 C
191 20-01-2016 15:50:00 1.6 C 86 % -0.48 C
192 20-01-2016 15:55:00 1.6 C 87 % -0.32 C
193 20-01-2016 16:00:00 1.6 C 87 % -0.32 C
194 20-01-2016 16:05:00 1.6 C 88 % -0.17 C
195 20-01-2016 16:10:00 1.5 C 87 % -0.42 C
196 20-01-2016 16:15:00 1.5 C 87 % -0.42 C
197 20-01-2016 16:20:00 1.5 C 87 % -0.42 C
198 20-01-2016 16:25:00 1.5 C 88 % -0.27 C
199 20-01-2016 16:30:00 1.4 C 88 % -0.36 C
200 20-01-2016 16:35:00 1.4 C 88 % -0.36 C
Sensor: Nr:Datum:Temp:Feuchte:Taupunkt:
Aussen-T/F 201 20-01-2016 16:40:00 1.4 C 89 % -0.21 C
202 20-01-2016 16:45:00 1.3 C 88 % -0.46 C
203 20-01-2016 16:50:00 1.3 C 88 % -0.46 C
204 20-01-2016 16:55:00 1.3 C 88 % -0.46 C
205 20-01-2016 17:00:00 1.3 C 88 % -0.46 C
206 20-01-2016 17:05:00 1.3 C 88 % -0.46 C
207 20-01-2016 17:10:00 1.2 C 88 % -0.56 C
208 20-01-2016 17:15:00 1.1 C 89 % -0.51 C
209 20-01-2016 17:20:00 1.1 C 89 % -0.51 C
210 20-01-2016 17:25:00 1 C 90 % -0.45 C
211 20-01-2016 17:30:00 0.9 C 90 % -0.55 C
212 20-01-2016 17:35:00 0.9 C 90 % -0.55 C
213 20-01-2016 17:40:00 0.9 C 90 % -0.55 C
214 20-01-2016 17:45:00 0.9 C 90 % -0.55 C
215 20-01-2016 17:50:00 0.9 C 90 % -0.55 C
216 20-01-2016 17:55:00 0.9 C 90 % -0.55 C
217 20-01-2016 18:00:00 0.9 C 90 % -0.55 C
218 20-01-2016 18:05:00 0.9 C 90 % -0.55 C
219 20-01-2016 18:10:00 0.9 C 90 % -0.55 C
220 20-01-2016 18:15:00 0.8 C 90 % -0.65 C
221 20-01-2016 18:20:00 0.8 C 91 % -0.5 C
222 20-01-2016 18:25:00 0.8 C 91 % -0.5 C
223 20-01-2016 18:30:00 0.8 C 91 % -0.5 C
224 20-01-2016 18:35:00 0.8 C 91 % -0.5 C
225 20-01-2016 18:40:00 0.8 C 91 % -0.5 C
Sensor: Nr:Datum:Temp:Feuchte:Taupunkt:
Aussen-T/F 226 20-01-2016 18:45:00 0.8 C 91 % -0.5 C
227 20-01-2016 18:50:00 0.9 C 91 % -0.4 C
228 20-01-2016 18:55:00 0.9 C 90 % -0.55 C
229 20-01-2016 19:00:00 0.9 C 90 % -0.55 C
230 20-01-2016 19:05:00 0.9 C 91 % -0.4 C
231 20-01-2016 19:10:00 0.9 C 91 % -0.4 C
232 20-01-2016 19:15:00 0.9 C 91 % -0.4 C
233 20-01-2016 19:20:00 0.8 C 91 % -0.5 C
234 20-01-2016 19:25:00 0.8 C 91 % -0.5 C
235 20-01-2016 19:30:00 0.8 C 91 % -0.5 C
236 20-01-2016 19:35:00 0.8 C 92 % -0.35 C
237 20-01-2016 19:40:00 0.8 C 92 % -0.35 C
238 20-01-2016 19:45:00 0.8 C 91 % -0.5 C
239 20-01-2016 19:50:00 0.8 C 91 % -0.5 C
240 20-01-2016 19:55:00 0.9 C 91 % -0.4 C
241 20-01-2016 20:00:00 0.9 C 90 % -0.55 C
242 20-01-2016 20:05:00 0.9 C 90 % -0.55 C
243 20-01-2016 20:10:00 0.9 C 90 % -0.55 C
244 20-01-2016 20:15:00 0.9 C 91 % -0.4 C
245 20-01-2016 20:20:00 0.9 C 91 % -0.4 C
246 20-01-2016 20:25:00 0.9 C 91 % -0.4 C
247 20-01-2016 20:30:00 0.9 C 90 % -0.55 C
248 20-01-2016 20:35:00 0.9 C 90 % -0.55 C
249 20-01-2016 20:40:00 0.9 C 90 % -0.55 C
250 20-01-2016 20:45:00 0.9 C 90 % -0.55 C
Sensor: Nr:Datum:Temp:Feuchte:Taupunkt:
Aussen-T/F 251 20-01-2016 20:50:00 0.9 C 90 % -0.55 C
252 20-01-2016 20:55:00 0.9 C 90 % -0.55 C
253 20-01-2016 21:00:00 0.9 C 90 % -0.55 C
254 20-01-2016 21:05:00 0.9 C 90 % -0.55 C
255 20-01-2016 21:10:00 0.9 C 90 % -0.55 C
256 20-01-2016 21:15:00 0.9 C 90 % -0.55 C
257 20-01-2016 21:20:00 0.9 C 91 % -0.4 C
258 20-01-2016 21:25:00 0.9 C 91 % -0.4 C
259 20-01-2016 21:30:00 0.9 C 91 % -0.4 C
260 20-01-2016 21:35:00 0.9 C 91 % -0.4 C
261 20-01-2016 21:40:00 0.8 C 92 % -0.35 C
262 20-01-2016 21:45:00 0.8 C 92 % -0.35 C
263 20-01-2016 21:50:00 0.7 C 92 % -0.45 C
264 20-01-2016 21:55:00 0.7 C 92 % -0.45 C
265 20-01-2016 22:00:00 0.7 C 93 % -0.3 C
266 20-01-2016 22:05:00 0.6 C 93 % -0.4 C
267 20-01-2016 22:10:00 0.6 C 93 % -0.4 C
268 20-01-2016 22:15:00 0.6 C 93 % -0.4 C
269 20-01-2016 22:20:00 0.5 C 93 % -0.5 C
270 20-01-2016 22:25:00 0.5 C 93 % -0.5 C
271 20-01-2016 22:30:00 0.5 C 93 % -0.5 C
272 20-01-2016 22:35:00 0.5 C 94 % -0.35 C
273 20-01-2016 22:40:00 0.4 C 94 % -0.45 C
274 20-01-2016 22:45:00 0.4 C 94 % -0.45 C
275 20-01-2016 22:50:00 0.5 C 94 % -0.35 C
Sensor: Nr:Datum:Temp:Feuchte:Taupunkt:
Aussen-T/F 276 20-01-2016 22:55:00 0.5 C 94 % -0.35 C
277 20-01-2016 23:00:00 0.5 C 94 % -0.35 C
278 20-01-2016 23:05:00 0.4 C 94 % -0.45 C
279 20-01-2016 23:10:00 0.4 C 94 % -0.45 C
280 20-01-2016 23:15:00 0.4 C 94 % -0.45 C
281 20-01-2016 23:20:00 0.4 C 94 % -0.45 C
282 20-01-2016 23:25:00 0.4 C 94 % -0.45 C
283 20-01-2016 23:30:00 0.4 C 94 % -0.45 C
284 20-01-2016 23:35:00 0.4 C 94 % -0.45 C
285 20-01-2016 23:40:00 0.4 C 94 % -0.45 C
286 20-01-2016 23:45:00 0.4 C 94 % -0.45 C
287 20-01-2016 23:50:00 0.4 C 94 % -0.45 C
288 20-01-2016 23:55:00 0.4 C 94 % -0.45 C
289 21-01-2016 00:00:00 0.4 C 94 % -0.45 C
290 21-01-2016 00:05:00 0.4 C 94 % -0.45 C
291 21-01-2016 00:10:00 0.4 C 94 % -0.45 C
292 21-01-2016 00:15:00 0.4 C 94 % -0.45 C
293 21-01-2016 00:20:00 0.4 C 94 % -0.45 C
294 21-01-2016 00:25:00 0.4 C 94 % -0.45 C
295 21-01-2016 00:30:00 0.4 C 94 % -0.45 C
296 21-01-2016 00:35:00 0.4 C 94 % -0.45 C
297 21-01-2016 00:40:00 0.4 C 94 % -0.45 C
298 21-01-2016 00:45:00 0.4 C 94 % -0.45 C
299 21-01-2016 00:50:00 0.4 C 94 % -0.45 C
300 21-01-2016 00:55:00 0.4 C 94 % -0.45 C
Sensor: Nr:Datum:Temp:Feuchte:Taupunkt:
Aussen-T/F 301 21-01-2016 01:00:00 0.4 C 94 % -0.45 C
302 21-01-2016 01:05:00 0.4 C 94 % -0.45 C
303 21-01-2016 01:10:00 0.4 C 94 % -0.45 C
304 21-01-2016 01:15:00 0.4 C 94 % -0.45 C
305 21-01-2016 01:20:00 0.4 C 94 % -0.45 C
306 21-01-2016 01:25:00 0.4 C 94 % -0.45 C
307 21-01-2016 01:30:00 0.4 C 94 % -0.45 C
308 21-01-2016 01:35:00 0.4 C 94 % -0.45 C
309 21-01-2016 01:40:00 0.4 C 94 % -0.45 C
310 21-01-2016 01:45:00 0.4 C 94 % -0.45 C
311 21-01-2016 01:50:00 0.4 C 94 % -0.45 C
312 21-01-2016 01:55:00 0.4 C 95 % -0.31 C
313 21-01-2016 02:00:00 0.4 C 95 % -0.31 C
314 21-01-2016 02:05:00 0.4 C 95 % -0.31 C
315 21-01-2016 02:10:00 0.4 C 95 % -0.31 C
316 21-01-2016 02:15:00 0.4 C 95 % -0.31 C
317 21-01-2016 02:20:00 0.4 C 95 % -0.31 C
318 21-01-2016 02:25:00 0.4 C 95 % -0.31 C
319 21-01-2016 02:30:00 0.4 C 95 % -0.31 C
320 21-01-2016 02:35:00 0.4 C 95 % -0.31 C
321 21-01-2016 02:40:00 0.4 C 95 % -0.31 C
322 21-01-2016 02:45:00 0.4 C 95 % -0.31 C
323 21-01-2016 02:50:00 0.4 C 95 % -0.31 C
324 21-01-2016 02:55:00 0.4 C 95 % -0.31 C
325 21-01-2016 03:00:00 0.4 C 95 % -0.31 C
Sensor: Nr:Datum:Temp:Feuchte:Taupunkt:
Aussen-T/F 326 21-01-2016 03:05:00 0.4 C 95 % -0.31 C
327 21-01-2016 03:10:00 0.4 C 95 % -0.31 C
328 21-01-2016 03:15:00 0.4 C 95 % -0.31 C
329 21-01-2016 03:20:00 0.4 C 95 % -0.31 C
330 21-01-2016 03:25:00 0.4 C 95 % -0.31 C
331 21-01-2016 03:30:00 0.4 C 95 % -0.31 C
332 21-01-2016 03:35:00 0.4 C 95 % -0.31 C
333 21-01-2016 03:40:00 0.4 C 95 % -0.31 C
334 21-01-2016 03:45:00 0.4 C 95 % -0.31 C
335 21-01-2016 03:50:00 0.4 C 95 % -0.31 C
336 21-01-2016 03:55:00 0.4 C 95 % -0.31 C
337 21-01-2016 04:00:00 0.4 C 95 % -0.31 C
338 21-01-2016 04:05:00 0.4 C 95 % -0.31 C
339 21-01-2016 04:10:00 0.4 C 95 % -0.31 C
340 21-01-2016 04:15:00 0.4 C 95 % -0.31 C
341 21-01-2016 04:20:00 0.4 C 95 % -0.31 C
342 21-01-2016 04:25:00 0.4 C 95 % -0.31 C
343 21-01-2016 04:30:00 0.4 C 95 % -0.31 C
344 21-01-2016 04:35:00 0.4 C 95 % -0.31 C
345 21-01-2016 04:40:00 0.4 C 95 % -0.31 C
346 21-01-2016 04:45:00 0.4 C 95 % -0.31 C
347 21-01-2016 04:50:00 0.4 C 95 % -0.31 C
348 21-01-2016 04:55:00 0.4 C 95 % -0.31 C
349 21-01-2016 05:00:00 0.4 C 95 % -0.31 C
350 21-01-2016 05:05:00 0.4 C 95 % -0.31 C
Sensor: Nr:Datum:Temp:Feuchte:Taupunkt:
Aussen-T/F 351 21-01-2016 05:10:00 0.4 C 95 % -0.31 C
352 21-01-2016 05:15:00 0.4 C 95 % -0.31 C
353 21-01-2016 05:20:00 0.4 C 95 % -0.31 C
354 21-01-2016 05:25:00 0.4 C 95 % -0.31 C
355 21-01-2016 05:30:00 0.4 C 95 % -0.31 C
356 21-01-2016 05:35:00 0.4 C 95 % -0.31 C
357 21-01-2016 05:40:00 0.4 C 95 % -0.31 C
358 21-01-2016 05:45:00 0.4 C 95 % -0.31 C
359 21-01-2016 05:50:00 0.4 C 95 % -0.31 C
360 21-01-2016 05:55:00 0.2 C 95 % -0.5 C
361 21-01-2016 06:00:00 0 C 95 % -0.7 C
362 21-01-2016 06:05:00 -0.2 C 95 % -0.9 C
363 21-01-2016 06:10:00 -0.2 C 95 % -0.9 C
364 21-01-2016 06:15:00 -0.3 C 95 % -1 C
365 21-01-2016 06:20:00 -0.3 C 95 % -1 C
366 21-01-2016 06:25:00 -0.3 C 95 % -1 C
367 21-01-2016 06:30:00 -0.2 C 95 % -0.9 C
368 21-01-2016 06:35:00 -0.2 C 96 % -0.76 C
369 21-01-2016 06:40:00 -0.2 C 95 % -0.9 C
370 21-01-2016 06:45:00 -0.2 C 95 % -0.9 C
371 21-01-2016 06:50:00 -0.2 C 96 % -0.76 C
372 21-01-2016 06:55:00 -0.1 C 96 % -0.66 C
373 21-01-2016 07:00:00 0 C 96 % -0.56 C
374 21-01-2016 07:05:00 0.1 C 96 % -0.46 C
375 21-01-2016 07:10:00 0.1 C 96 % -0.46 C
Sensor: Nr:Datum:Temp:Feuchte:Taupunkt:
Aussen-T/F 376 21-01-2016 07:15:00 0.1 C 96 % -0.46 C
377 21-01-2016 07:20:00 0.1 C 96 % -0.46 C
378 21-01-2016 07:25:00 0.1 C 96 % -0.46 C
379 21-01-2016 07:30:00 0.1 C 96 % -0.46 C
380 21-01-2016 07:35:00 0.2 C 96 % -0.36 C
381 21-01-2016 07:40:00 0.1 C 96 % -0.46 C
382 21-01-2016 07:45:00 -0.1 C 96 % -0.66 C
383 21-01-2016 07:50:00 -0.1 C 95 % -0.8 C
384 21-01-2016 07:55:00 -0.2 C 95 % -0.9 C
385 21-01-2016 08:00:00 -0.3 C 96 % -0.86 C
386 21-01-2016 08:05:00 -0.3 C 96 % -0.86 C
387 21-01-2016 08:10:00 -0.4 C 96 % -0.96 C
388 21-01-2016 08:15:00 -0.4 C 95 % -1.1 C
389 21-01-2016 08:20:00 -0.5 C 96 % -1.06 C
390 21-01-2016 08:25:00 -0.5 C 96 % -1.06 C
391 21-01-2016 08:30:00 -0.6 C 96 % -1.16 C
392 21-01-2016 08:35:00 -0.6 C 96 % -1.16 C
393 21-01-2016 08:40:00 -0.7 C 96 % -1.26 C
394 21-01-2016 08:45:00 -0.7 C 96 % -1.26 C
395 21-01-2016 08:50:00 -0.6 C 96 % -1.16 C
396 21-01-2016 08:55:00 -0.6 C 96 % -1.16 C
397 21-01-2016 09:00:00 -0.4 C 96 % -0.96 C
398 21-01-2016 09:05:00 -0.3 C 96 % -0.86 C
399 21-01-2016 09:10:00 -0.2 C 96 % -0.76 C
400 21-01-2016 09:15:00 -0.2 C 96 % -0.76 C
Sensor: Nr:Datum:Temp:Feuchte:Taupunkt:
Aussen-T/F 401 21-01-2016 09:20:00 -0.1 C 96 % -0.66 C
402 21-01-2016 09:25:00 -0.1 C 96 % -0.66 C
403 21-01-2016 09:30:00 0.1 C 96 % -0.46 C
404 21-01-2016 09:35:00 0.1 C 96 % -0.46 C
405 21-01-2016 09:40:00 0.2 C 96 % -0.36 C
406 21-01-2016 09:45:00 0.2 C 96 % -0.36 C
407 21-01-2016 09:50:00 0.3 C 96 % -0.26 C
408 21-01-2016 09:55:00 0.4 C 96 % -0.16 C
409 21-01-2016 10:00:00 0.4 C 96 % -0.16 C
410 21-01-2016 10:05:00 0.5 C 96 % -0.06 C
411 21-01-2016 10:10:00 0.6 C 96 % 0.04 C
412 21-01-2016 10:15:00 0.6 C 96 % 0.04 C
413 21-01-2016 10:20:00 0.7 C 96 % 0.14 C
414 21-01-2016 10:25:00 0.7 C 96 % 0.14 C
415 21-01-2016 10:30:00 0.8 C 96 % 0.24 C
416 21-01-2016 10:35:00 0.9 C 96 % 0.34 C
417 21-01-2016 10:40:00 0.9 C 96 % 0.34 C
418 21-01-2016 10:45:00 1 C 96 % 0.44 C
419 21-01-2016 10:50:00 1.1 C 96 % 0.54 C
420 21-01-2016 10:55:00 1.1 C 96 % 0.54 C
421 21-01-2016 11:00:00 1.1 C 96 % 0.54 C
422 21-01-2016 11:05:00 1.2 C 96 % 0.63 C
423 21-01-2016 11:10:00 1.2 C 96 % 0.63 C
424 21-01-2016 11:15:00 1.3 C 96 % 0.73 C
425 21-01-2016 11:20:00 1.3 C 95 % 0.59 C
Sensor: Nr:Datum:Temp:Feuchte:Taupunkt:
Aussen-T/F 426 21-01-2016 11:25:00 1.4 C 95 % 0.69 C
427 21-01-2016 11:30:00 1.5 C 95 % 0.79 C
428 21-01-2016 11:35:00 1.6 C 95 % 0.89 C
429 21-01-2016 11:40:00 1.6 C 95 % 0.89 C
430 21-01-2016 11:45:00 1.6 C 95 % 0.89 C
431 21-01-2016 11:50:00 1.6 C 95 % 0.89 C
432 21-01-2016 11:55:00 1.7 C 94 % 0.84 C
433 21-01-2016 12:00:00 1.7 C 94 % 0.84 C
434 21-01-2016 12:05:00 1.7 C 94 % 0.84 C
435 21-01-2016 12:10:00 1.8 C 94 % 0.94 C
436 21-01-2016 12:15:00 1.8 C 93 % 0.79 C
437 21-01-2016 12:20:00 1.9 C 93 % 0.89 C
438 21-01-2016 12:25:00 1.9 C 93 % 0.89 C
439 21-01-2016 12:30:00 2 C 93 % 0.99 C
440 21-01-2016 12:35:00 2.1 C 93 % 1.09 C
441 21-01-2016 12:40:00 2.1 C 92 % 0.94 C
442 21-01-2016 12:45:00 2.2 C 93 % 1.19 C
443 21-01-2016 12:50:00 2.2 C 93 % 1.19 C
444 21-01-2016 12:55:00 2.3 C 93 % 1.29 C
445 21-01-2016 13:00:00 2.3 C 93 % 1.29 C
446 21-01-2016 13:05:00 2.3 C 92 % 1.14 C
447 21-01-2016 13:10:00 2.3 C 92 % 1.14 C
448 21-01-2016 13:15:00 2.4 C 92 % 1.24 C
449 21-01-2016 13:20:00 2.4 C 91 % 1.08 C
450 21-01-2016 13:25:00 2.4 C 91 % 1.08 C
Sensor: Nr:Datum:Temp:Feuchte:Taupunkt:
Aussen-T/F 451 21-01-2016 13:30:00 2.5 C 91 % 1.18 C
452 21-01-2016 13:35:00 2.6 C 91 % 1.28 C
453 21-01-2016 13:40:00 2.7 C 91 % 1.38 C
454 21-01-2016 13:45:00 2.7 C 91 % 1.38 C
455 21-01-2016 13:50:00 2.7 C 90 % 1.23 C
456 21-01-2016 13:55:00 2.7 C 90 % 1.23 C
457 21-01-2016 14:00:00 2.7 C 90 % 1.23 C
458 21-01-2016 14:05:00 2.8 C 90 % 1.33 C
459 21-01-2016 14:10:00 2.8 C 90 % 1.33 C
460 21-01-2016 14:15:00 2.8 C 89 % 1.17 C
461 21-01-2016 14:20:00 2.8 C 90 % 1.33 C
462 21-01-2016 14:25:00 2.8 C 90 % 1.33 C
463 21-01-2016 14:30:00 2.9 C 91 % 1.58 C
464 21-01-2016 14:35:00 2.9 C 91 % 1.58 C
465 21-01-2016 14:40:00 2.9 C 91 % 1.58 C
466 21-01-2016 14:45:00 2.9 C 91 % 1.58 C
467 21-01-2016 14:50:00 2.9 C 91 % 1.58 C
468 21-01-2016 14:55:00 2.9 C 91 % 1.58 C
469 21-01-2016 15:00:00 2.8 C 91 % 1.48 C
470 21-01-2016 15:05:00 2.8 C 91 % 1.48 C
471 21-01-2016 15:10:00 2.8 C 91 % 1.48 C
472 21-01-2016 15:15:00 2.7 C 91 % 1.38 C
473 21-01-2016 15:20:00 2.7 C 91 % 1.38 C
474 21-01-2016 15:25:00 2.7 C 91 % 1.38 C
475 21-01-2016 15:30:00 2.6 C 91 % 1.28 C
Sensor: Nr:Datum:Temp:Feuchte:Taupunkt:
Aussen-T/F 476 21-01-2016 15:35:00 2.6 C 92 % 1.43 C
477 21-01-2016 15:40:00 2.6 C 91 % 1.28 C
478 21-01-2016 15:45:00 2.5 C 91 % 1.18 C
479 21-01-2016 15:50:00 2.4 C 91 % 1.08 C
480 21-01-2016 15:55:00 2.4 C 91 % 1.08 C
481 21-01-2016 16:00:00 2.3 C 91 % 0.99 C
482 21-01-2016 16:05:00 2.3 C 91 % 0.99 C
483 21-01-2016 16:10:00 2.2 C 90 % 0.73 C
484 21-01-2016 16:15:00 2.2 C 91 % 0.89 C
485 21-01-2016 16:20:00 2.1 C 90 % 0.64 C
486 21-01-2016 16:25:00 2 C 89 % 0.38 C
487 21-01-2016 16:30:00 1.9 C 89 % 0.28 C
488 21-01-2016 16:35:00 1.9 C 89 % 0.28 C
489 21-01-2016 16:40:00 1.8 C 89 % 0.19 C
490 21-01-2016 16:45:00 1.8 C 89 % 0.19 C
491 21-01-2016 16:50:00 1.8 C 87 % -0.13 C
492 21-01-2016 16:55:00 1.8 C 87 % -0.13 C
493 21-01-2016 17:00:00 1.8 C 87 % -0.13 C
494 21-01-2016 17:05:00 1.8 C 87 % -0.13 C
495 21-01-2016 17:10:00 1.8 C 87 % -0.13 C
496 21-01-2016 17:15:00 1.7 C 87 % -0.23 C
497 21-01-2016 17:20:00 1.7 C 87 % -0.23 C
498 21-01-2016 17:25:00 1.6 C 86 % -0.48 C
499 21-01-2016 17:30:00 1.6 C 86 % -0.48 C
500 21-01-2016 17:35:00 1.5 C 86 % -0.58 C
Sensor: Nr:Datum:Temp:Feuchte:Taupunkt:
Aussen-T/F 501 21-01-2016 17:40:00 1.5 C 87 % -0.42 C
502 21-01-2016 17:45:00 1.5 C 87 % -0.42 C
503 21-01-2016 17:50:00 1.4 C 87 % -0.52 C
504 21-01-2016 17:55:00 1.4 C 87 % -0.52 C
505 21-01-2016 18:00:00 1.4 C 87 % -0.52 C
506 21-01-2016 18:05:00 1.3 C 88 % -0.46 C
507 21-01-2016 18:10:00 1.2 C 87 % -0.72 C
508 21-01-2016 18:15:00 1.2 C 88 % -0.56 C
509 21-01-2016 18:20:00 1.1 C 88 % -0.66 C
510 21-01-2016 18:25:00 1 C 88 % -0.76 C
511 21-01-2016 18:30:00 0.9 C 89 % -0.7 C
512 21-01-2016 18:35:00 0.9 C 89 % -0.7 C
513 21-01-2016 18:40:00 0.8 C 89 % -0.8 C
514 21-01-2016 18:45:00 0.8 C 89 % -0.8 C
515 21-01-2016 18:50:00 0.9 C 89 % -0.7 C
516 21-01-2016 18:55:00 0.9 C 89 % -0.7 C
517 21-01-2016 19:00:00 0.9 C 89 % -0.7 C
518 21-01-2016 19:05:00 0.8 C 89 % -0.8 C
519 21-01-2016 19:10:00 0.8 C 89 % -0.8 C
520 21-01-2016 19:15:00 0.7 C 90 % -0.75 C
521 21-01-2016 19:20:00 0.6 C 89 % -1 C
522 21-01-2016 19:25:00 0.4 C 90 % -1.04 C
523 21-01-2016 19:30:00 0.3 C 90 % -1.14 C
524 21-01-2016 19:35:00 0.2 C 90 % -1.24 C
525 21-01-2016 19:40:00 0.1 C 91 % -1.19 C
Sensor: Nr:Datum:Temp:Feuchte:Taupunkt:
Aussen-T/F 526 21-01-2016 19:45:00 -0.1 C 91 % -1.39 C
527 21-01-2016 19:50:00 -0.2 C 91 % -1.49 C
528 21-01-2016 19:55:00 -0.2 C 91 % -1.49 C
529 21-01-2016 20:00:00 -0.3 C 91 % -1.59 C
530 21-01-2016 20:05:00 -0.4 C 92 % -1.54 C
531 21-01-2016 20:10:00 -0.4 C 92 % -1.54 C
532 21-01-2016 20:15:00 -0.5 C 92 % -1.64 C
533 21-01-2016 20:20:00 -0.6 C 92 % -1.74 C
534 21-01-2016 20:25:00 -0.6 C 92 % -1.74 C
535 21-01-2016 20:30:00 -0.6 C 92 % -1.74 C
536 21-01-2016 20:35:00 -0.6 C 92 % -1.74 C
537 21-01-2016 20:40:00 -0.7 C 92 % -1.83 C
538 21-01-2016 20:45:00 -0.7 C 92 % -1.83 C
539 21-01-2016 20:50:00 -0.7 C 92 % -1.83 C
540 21-01-2016 20:55:00 -0.6 C 93 % -1.59 C
541 21-01-2016 21:00:00 -0.5 C 93 % -1.49 C
542 21-01-2016 21:05:00 -0.4 C 93 % -1.39 C
543 21-01-2016 21:10:00 -0.3 C 93 % -1.29 C
544 21-01-2016 21:15:00 -0.2 C 93 % -1.19 C
545 21-01-2016 21:20:00 -0.1 C 93 % -1.09 C
546 21-01-2016 21:25:00 -0.1 C 92 % -1.24 C
547 21-01-2016 21:30:00 -0.1 C 92 % -1.24 C
548 21-01-2016 21:35:00 -0.1 C 92 % -1.24 C
549 21-01-2016 21:40:00 -0.1 C 92 % -1.24 C
550 21-01-2016 21:45:00 -0.1 C 92 % -1.24 C
Sensor: Nr:Datum:Temp:Feuchte:Taupunkt:
Aussen-T/F 551 21-01-2016 21:50:00 -0.1 C 92 % -1.24 C
552 21-01-2016 21:55:00 -0.1 C 92 % -1.24 C
553 21-01-2016 22:00:00 -0.1 C 92 % -1.24 C
554 21-01-2016 22:05:00 -0.2 C 91 % -1.49 C
555 21-01-2016 22:10:00 -0.2 C 91 % -1.49 C
556 21-01-2016 22:15:00 -0.3 C 91 % -1.59 C
557 21-01-2016 22:20:00 -0.4 C 91 % -1.69 C
558 21-01-2016 22:25:00 -0.4 C 92 % -1.54 C
559 21-01-2016 22:30:00 -0.4 C 92 % -1.54 C
560 21-01-2016 22:35:00 -0.6 C 91 % -1.88 C
561 21-01-2016 22:40:00 -0.7 C 91 % -1.98 C
562 21-01-2016 22:45:00 -0.9 C 91 % -2.18 C
563 21-01-2016 22:50:00 -1 C 91 % -2.28 C
564 21-01-2016 22:55:00 -1.1 C 92 % -2.23 C
565 21-01-2016 23:00:00 -1.2 C 92 % -2.33 C
566 21-01-2016 23:05:00 -1.3 C 92 % -2.43 C
567 21-01-2016 23:10:00 -1.3 C 93 % -2.28 C
568 21-01-2016 23:15:00 -1.3 C 93 % -2.28 C
569 21-01-2016 23:20:00 -1.3 C 93 % -2.28 C
570 21-01-2016 23:25:00 -1.4 C 92 % -2.53 C
571 21-01-2016 23:30:00 -1.6 C 92 % -2.73 C
572 21-01-2016 23:35:00 -1.7 C 93 % -2.68 C
573 21-01-2016 23:40:00 -1.8 C 93 % -2.78 C
574 21-01-2016 23:45:00 -1.9 C 93 % -2.88 C
575 21-01-2016 23:50:00 -1.9 C 93 % -2.88 C
Sensor: Nr:Datum:Temp:Feuchte:Taupunkt:
Aussen-T/F 576 21-01-2016 23:55:00 -2 C 93 % -2.98 C
577 22-01-2016 00:00:00 -2.1 C 93 % -3.08 C
578 22-01-2016 00:05:00 -2.1 C 93 % -3.08 C
579 22-01-2016 00:10:00 -2.2 C 93 % -3.18 C
580 22-01-2016 00:15:00 -2.2 C 93 % -3.18 C
581 22-01-2016 00:20:00 -2.3 C 93 % -3.28 C
582 22-01-2016 00:25:00 -2.3 C 94 % -3.13 C
583 22-01-2016 00:30:00 -2.4 C 93 % -3.37 C
584 22-01-2016 00:35:00 -2.4 C 94 % -3.23 C
585 22-01-2016 00:40:00 -2.5 C 94 % -3.33 C
586 22-01-2016 00:45:00 -2.6 C 94 % -3.43 C
587 22-01-2016 00:50:00 -2.7 C 94 % -3.53 C
588 22-01-2016 00:55:00 -2.7 C 94 % -3.53 C
589 22-01-2016 01:00:00 -2.8 C 94 % -3.63 C
590 22-01-2016 01:05:00 -2.8 C 94 % -3.63 C
591 22-01-2016 01:10:00 -2.9 C 94 % -3.73 C
592 22-01-2016 01:15:00 -3 C 94 % -3.83 C
593 22-01-2016 01:20:00 -3.1 C 94 % -3.93 C
594 22-01-2016 01:25:00 -3.1 C 94 % -3.93 C
595 22-01-2016 01:30:00 -3.1 C 94 % -3.93 C
596 22-01-2016 01:35:00 -3 C 94 % -3.83 C
597 22-01-2016 01:40:00 -2.9 C 95 % -3.59 C
598 22-01-2016 01:45:00 -2.9 C 95 % -3.59 C
599 22-01-2016 01:50:00 -2.9 C 95 % -3.59 C
600 22-01-2016 01:55:00 -2.9 C 95 % -3.59 C
Sensor: Nr:Datum:Temp:Feuchte:Taupunkt:
Aussen-T/F 601 22-01-2016 02:00:00 -2.9 C 95 % -3.59 C
602 22-01-2016 02:05:00 -2.9 C 95 % -3.59 C
603 22-01-2016 02:10:00 -3 C 94 % -3.83 C
604 22-01-2016 02:15:00 -3.1 C 94 % -3.93 C
605 22-01-2016 02:20:00 -3.1 C 94 % -3.93 C
606 22-01-2016 02:25:00 -3.2 C 95 % -3.88 C
607 22-01-2016 02:30:00 -3.2 C 95 % -3.88 C
608 22-01-2016 02:35:00 -3.3 C 95 % -3.98 C
609 22-01-2016 02:40:00 -3.3 C 94 % -4.13 C
610 22-01-2016 02:45:00 -3.3 C 94 % -4.13 C
611 22-01-2016 02:50:00 -3.4 C 94 % -4.22 C
612 22-01-2016 02:55:00 -3.5 C 95 % -4.18 C
613 22-01-2016 03:00:00 -3.6 C 94 % -4.42 C
614 22-01-2016 03:05:00 -3.6 C 95 % -4.28 C
615 22-01-2016 03:10:00 -3.7 C 94 % -4.52 C
616 22-01-2016 03:15:00 -3.8 C 94 % -4.62 C
617 22-01-2016 03:20:00 -3.8 C 94 % -4.62 C
618 22-01-2016 03:25:00 -3.9 C 94 % -4.72 C
619 22-01-2016 03:30:00 -3.9 C 94 % -4.72 C
620 22-01-2016 03:35:00 -4 C 94 % -4.82 C
621 22-01-2016 03:40:00 -4.1 C 95 % -4.78 C
622 22-01-2016 03:45:00 -4.1 C 95 % -4.78 C
623 22-01-2016 03:50:00 -4.1 C 95 % -4.78 C
624 22-01-2016 03:55:00 -4.1 C 94 % -4.92 C
625 22-01-2016 04:00:00 -4.1 C 95 % -4.78 C
Sensor: Nr:Datum:Temp:Feuchte:Taupunkt:
Aussen-T/F 626 22-01-2016 04:05:00 -4.1 C 95 % -4.78 C
627 22-01-2016 04:10:00 -4.1 C 95 % -4.78 C
628 22-01-2016 04:15:00 -4 C 95 % -4.68 C
629 22-01-2016 04:20:00 -3.9 C 95 % -4.58 C
630 22-01-2016 04:25:00 -3.8 C 95 % -4.48 C
631 22-01-2016 04:30:00 -3.8 C 95 % -4.48 C
632 22-01-2016 04:35:00 -3.7 C 95 % -4.38 C
633 22-01-2016 04:40:00 -3.7 C 95 % -4.38 C
634 22-01-2016 04:45:00 -3.6 C 95 % -4.28 C
635 22-01-2016 04:50:00 -3.7 C 95 % -4.38 C
636 22-01-2016 04:55:00 -3.8 C 95 % -4.48 C
637 22-01-2016 05:00:00 -3.8 C 95 % -4.48 C
638 22-01-2016 05:05:00 -3.8 C 95 % -4.48 C
639 22-01-2016 05:10:00 -3.8 C 95 % -4.48 C
640 22-01-2016 05:15:00 -3.8 C 95 % -4.48 C
641 22-01-2016 05:20:00 -3.8 C 95 % -4.48 C
642 22-01-2016 05:25:00 -3.8 C 95 % -4.48 C
643 22-01-2016 05:30:00 -3.7 C 95 % -4.38 C
644 22-01-2016 05:35:00 -3.7 C 95 % -4.38 C
645 22-01-2016 05:40:00 -3.8 C 95 % -4.48 C
646 22-01-2016 05:45:00 -3.8 C 95 % -4.48 C
647 22-01-2016 05:50:00 -3.8 C 95 % -4.48 C
648 22-01-2016 05:55:00 -3.7 C 95 % -4.38 C
649 22-01-2016 06:00:00 -3.7 C 95 % -4.38 C
650 22-01-2016 06:05:00 -3.7 C 95 % -4.38 C
Sensor: Nr:Datum:Temp:Feuchte:Taupunkt:
Aussen-T/F 651 22-01-2016 06:10:00 -3.7 C 95 % -4.38 C
652 22-01-2016 06:15:00 -3.7 C 95 % -4.38 C
653 22-01-2016 06:20:00 -3.7 C 95 % -4.38 C
654 22-01-2016 06:25:00 -3.7 C 95 % -4.38 C
655 22-01-2016 06:30:00 -3.7 C 95 % -4.38 C
656 22-01-2016 06:35:00 -3.7 C 95 % -4.38 C
657 22-01-2016 06:40:00 -3.7 C 95 % -4.38 C
658 22-01-2016 06:45:00 -3.7 C 95 % -4.38 C
659 22-01-2016 06:50:00 -3.7 C 95 % -4.38 C
660 22-01-2016 06:55:00 -3.7 C 95 % -4.38 C
661 22-01-2016 07:00:00 -3.7 C 95 % -4.38 C
662 22-01-2016 07:05:00 -3.6 C 95 % -4.28 C
663 22-01-2016 07:10:00 -3.6 C 95 % -4.28 C
664 22-01-2016 07:15:00 -3.5 C 95 % -4.18 C
665 22-01-2016 07:20:00 -3.5 C 95 % -4.18 C
666 22-01-2016 07:25:00 -3.5 C 95 % -4.18 C
667 22-01-2016 07:30:00 -3.4 C 94 % -4.22 C
668 22-01-2016 07:35:00 -3.4 C 94 % -4.22 C
669 22-01-2016 07:40:00 -3.4 C 94 % -4.22 C
670 22-01-2016 07:45:00 -3.4 C 94 % -4.22 C
671 22-01-2016 07:50:00 -3.4 C 94 % -4.22 C
672 22-01-2016 07:55:00 -3.4 C 94 % -4.22 C
673 22-01-2016 08:00:00 -3.4 C 94 % -4.22 C
674 22-01-2016 08:05:00 -3.4 C 94 % -4.22 C
675 22-01-2016 08:10:00 -3.4 C 94 % -4.22 C
Sensor: Nr:Datum:Temp:Feuchte:Taupunkt:
Aussen-T/F 676 22-01-2016 08:15:00 -3.4 C 94 % -4.22 C
677 22-01-2016 08:20:00 -3.4 C 94 % -4.22 C
678 22-01-2016 08:25:00 -3.4 C 94 % -4.22 C
679 22-01-2016 08:30:00 -3.4 C 94 % -4.22 C
680 22-01-2016 08:35:00 -3.4 C 94 % -4.22 C
681 22-01-2016 08:40:00 -3.4 C 94 % -4.22 C
682 22-01-2016 08:45:00 -3.5 C 94 % -4.32 C
683 22-01-2016 08:50:00 -3.5 C 94 % -4.32 C
684 22-01-2016 08:55:00 -3.5 C 94 % -4.32 C
685 22-01-2016 09:00:00 -3.5 C 94 % -4.32 C
686 22-01-2016 09:05:00 -3.5 C 94 % -4.32 C
687 22-01-2016 09:10:00 -3.5 C 94 % -4.32 C
688 22-01-2016 09:15:00 -3.5 C 94 % -4.32 C
689 22-01-2016 09:20:00 -3.5 C 94 % -4.32 C
690 22-01-2016 09:25:00 -3.4 C 94 % -4.22 C
691 22-01-2016 09:30:00 -3.4 C 94 % -4.22 C
692 22-01-2016 09:35:00 -3.4 C 93 % -4.37 C
693 22-01-2016 09:40:00 -3.3 C 93 % -4.27 C
694 22-01-2016 09:45:00 -3.3 C 93 % -4.27 C
695 22-01-2016 09:50:00 -3.3 C 93 % -4.27 C
696 22-01-2016 09:55:00 -3.2 C 93 % -4.17 C
697 22-01-2016 10:00:00 -3.2 C 93 % -4.17 C
698 22-01-2016 10:05:00 -3.1 C 93 % -4.07 C
699 22-01-2016 10:10:00 -3.1 C 93 % -4.07 C
700 22-01-2016 10:15:00 -3 C 93 % -3.97 C
Sensor: Nr:Datum:Temp:Feuchte:Taupunkt:
Aussen-T/F 701 22-01-2016 10:20:00 -3 C 93 % -3.97 C
702 22-01-2016 10:25:00 -2.9 C 93 % -3.87 C
703 22-01-2016 10:30:00 -2.8 C 93 % -3.77 C
704 22-01-2016 10:35:00 -2.8 C 93 % -3.77 C
705 22-01-2016 10:40:00 -2.7 C 93 % -3.67 C
706 22-01-2016 10:45:00 -2.7 C 92 % -3.82 C
707 22-01-2016 10:50:00 -2.6 C 92 % -3.72 C
708 22-01-2016 10:55:00 -2.5 C 92 % -3.62 C
709 22-01-2016 11:00:00 -2.4 C 91 % -3.66 C
710 22-01-2016 11:05:00 -2.4 C 91 % -3.66 C
711 22-01-2016 11:10:00 -2.3 C 91 % -3.57 C
712 22-01-2016 11:15:00 -2.3 C 91 % -3.57 C
713 22-01-2016 11:20:00 -2.2 C 91 % -3.47 C
714 22-01-2016 11:25:00 -2.2 C 91 % -3.47 C
715 22-01-2016 11:30:00 -2.2 C 91 % -3.47 C
716 22-01-2016 11:35:00 -2.1 C 91 % -3.37 C
717 22-01-2016 11:40:00 -2.1 C 91 % -3.37 C
718 22-01-2016 11:45:00 -2.1 C 91 % -3.37 C
719 22-01-2016 11:50:00 -2.1 C 91 % -3.37 C
720 22-01-2016 11:55:00 -1.9 C 91 % -3.17 C
721 22-01-2016 12:00:00 -1.9 C 90 % -3.32 C
722 22-01-2016 12:05:00 -1.8 C 91 % -3.07 C
723 22-01-2016 12:10:00 -1.8 C 91 % -3.07 C
724 22-01-2016 12:15:00 -1.8 C 91 % -3.07 C
725 22-01-2016 12:20:00 -1.7 C 91 % -2.97 C
Sensor: Nr:Datum:Temp:Feuchte:Taupunkt:
Aussen-T/F 726 22-01-2016 12:25:00 -1.7 C 90 % -3.12 C
727 22-01-2016 12:30:00 -1.7 C 90 % -3.12 C
728 22-01-2016 12:35:00 -1.6 C 90 % -3.02 C
729 22-01-2016 12:40:00 -1.6 C 89 % -3.17 C
730 22-01-2016 12:45:00 -1.4 C 89 % -2.97 C
731 22-01-2016 12:50:00 -1.4 C 88 % -3.13 C
732 22-01-2016 12:55:00 -1.3 C 88 % -3.03 C
733 22-01-2016 13:00:00 -1.2 C 88 % -2.93 C
734 22-01-2016 13:05:00 -1.2 C 88 % -2.93 C
735 22-01-2016 13:10:00 -1.2 C 88 % -2.93 C
736 22-01-2016 13:15:00 -1.2 C 88 % -2.93 C
737 22-01-2016 13:20:00 -1.2 C 88 % -2.93 C
738 22-01-2016 13:25:00 -1.2 C 88 % -2.93 C
739 22-01-2016 13:30:00 -1.2 C 88 % -2.93 C
740 22-01-2016 13:35:00 -1.1 C 88 % -2.83 C
741 22-01-2016 13:40:00 -1.1 C 88 % -2.83 C
742 22-01-2016 13:45:00 -1.1 C 88 % -2.83 C
743 22-01-2016 13:50:00 -1 C 88 % -2.73 C
744 22-01-2016 13:55:00 -0.9 C 88 % -2.63 C
745 22-01-2016 14:00:00 -0.9 C 87 % -2.79 C
746 22-01-2016 14:05:00 -0.9 C 87 % -2.79 C
747 22-01-2016 14:10:00 -0.9 C 87 % -2.79 C
748 22-01-2016 14:15:00 -0.8 C 87 % -2.69 C
749 22-01-2016 14:20:00 -0.8 C 86 % -2.84 C
750 22-01-2016 14:25:00 -0.8 C 86 % -2.84 C
Sensor: Nr:Datum:Temp:Feuchte:Taupunkt:
Aussen-T/F 751 22-01-2016 14:30:00 -0.7 C 86 % -2.74 C
752 22-01-2016 14:35:00 -0.7 C 86 % -2.74 C
753 22-01-2016 14:40:00 -0.6 C 85 % -2.8 C
754 22-01-2016 14:45:00 -0.6 C 85 % -2.8 C
755 22-01-2016 14:50:00 -0.5 C 86 % -2.55 C
756 22-01-2016 14:55:00 -0.5 C 86 % -2.55 C
757 22-01-2016 15:00:00 -0.4 C 85 % -2.61 C
758 22-01-2016 15:05:00 -0.4 C 86 % -2.45 C
759 22-01-2016 15:10:00 -0.4 C 85 % -2.61 C
760 22-01-2016 15:15:00 -0.4 C 85 % -2.61 C
761 22-01-2016 15:20:00 -0.5 C 85 % -2.71 C
762 22-01-2016 15:25:00 -0.6 C 85 % -2.8 C
763 22-01-2016 15:30:00 -0.6 C 85 % -2.8 C
764 22-01-2016 15:35:00 -0.7 C 85 % -2.9 C
765 22-01-2016 15:40:00 -0.7 C 86 % -2.74 C
766 22-01-2016 15:45:00 -0.8 C 85 % -3 C
767 22-01-2016 15:50:00 -0.8 C 85 % -3 C
768 22-01-2016 15:55:00 -0.8 C 86 % -2.84 C
769 22-01-2016 16:00:00 -0.8 C 86 % -2.84 C
770 22-01-2016 16:05:00 -0.9 C 86 % -2.94 C
771 22-01-2016 16:10:00 -0.9 C 86 % -2.94 C
772 22-01-2016 16:15:00 -0.9 C 86 % -2.94 C
773 22-01-2016 16:20:00 -1 C 86 % -3.04 C
774 22-01-2016 16:25:00 -1.1 C 86 % -3.14 C
775 22-01-2016 16:30:00 -1.1 C 87 % -2.98 C
Sensor: Nr:Datum:Temp:Feuchte:Taupunkt:
Aussen-T/F 776 22-01-2016 16:35:00 -1.1 C 87 % -2.98 C
777 22-01-2016 16:40:00 -1.2 C 86 % -3.24 C
778 22-01-2016 16:45:00 -1.2 C 87 % -3.08 C
779 22-01-2016 16:50:00 -1.2 C 87 % -3.08 C
780 22-01-2016 16:55:00 -1.3 C 87 % -3.18 C
781 22-01-2016 17:00:00 -1.4 C 87 % -3.28 C
782 22-01-2016 17:05:00 -1.5 C 88 % -3.22 C
783 22-01-2016 17:10:00 -1.6 C 88 % -3.32 C
784 22-01-2016 17:15:00 -1.7 C 88 % -3.42 C
785 22-01-2016 17:20:00 -1.8 C 88 % -3.52 C
786 22-01-2016 17:25:00 -1.9 C 89 % -3.47 C
787 22-01-2016 17:30:00 -1.9 C 89 % -3.47 C
788 22-01-2016 17:35:00 -1.9 C 89 % -3.47 C
789 22-01-2016 17:40:00 -1.8 C 89 % -3.37 C
790 22-01-2016 17:45:00 -1.8 C 89 % -3.37 C
791 22-01-2016 17:50:00 -1.7 C 89 % -3.27 C
792 22-01-2016 17:55:00 -1.6 C 89 % -3.17 C
793 22-01-2016 18:00:00 -1.6 C 89 % -3.17 C
794 22-01-2016 18:05:00 -1.6 C 89 % -3.17 C
795 22-01-2016 18:10:00 -1.5 C 89 % -3.07 C
796 22-01-2016 18:15:00 -1.5 C 89 % -3.07 C
797 22-01-2016 18:20:00 -1.5 C 89 % -3.07 C
798 22-01-2016 18:25:00 -1.5 C 89 % -3.07 C
799 22-01-2016 18:30:00 -1.5 C 89 % -3.07 C
800 22-01-2016 18:35:00 -1.5 C 89 % -3.07 C
Sensor: Nr:Datum:Temp:Feuchte:Taupunkt:
Aussen-T/F 801 22-01-2016 18:40:00 -1.5 C 89 % -3.07 C
802 22-01-2016 18:45:00 -1.6 C 89 % -3.17 C
803 22-01-2016 18:50:00 -1.6 C 89 % -3.17 C
804 22-01-2016 18:55:00 -1.6 C 90 % -3.02 C
805 22-01-2016 19:00:00 -1.7 C 90 % -3.12 C
806 22-01-2016 19:05:00 -1.7 C 90 % -3.12 C
807 22-01-2016 19:10:00 -1.7 C 90 % -3.12 C
808 22-01-2016 19:15:00 -1.8 C 91 % -3.07 C
809 22-01-2016 19:20:00 -1.8 C 91 % -3.07 C
810 22-01-2016 19:25:00 -1.8 C 91 % -3.07 C
811 22-01-2016 19:30:00 -1.8 C 91 % -3.07 C
812 22-01-2016 19:35:00 -1.7 C 92 % -2.83 C
813 22-01-2016 19:40:00 -1.7 C 92 % -2.83 C
814 22-01-2016 19:45:00 -1.7 C 92 % -2.83 C
815 22-01-2016 19:50:00 -1.7 C 92 % -2.83 C
816 22-01-2016 19:55:00 -1.6 C 92 % -2.73 C
817 22-01-2016 20:00:00 -1.6 C 92 % -2.73 C
818 22-01-2016 20:05:00 -1.6 C 92 % -2.73 C
819 22-01-2016 20:10:00 -1.6 C 92 % -2.73 C
820 22-01-2016 20:15:00 -1.6 C 92 % -2.73 C
821 22-01-2016 20:20:00 -1.5 C 92 % -2.63 C
822 22-01-2016 20:25:00 -1.4 C 92 % -2.53 C
823 22-01-2016 20:30:00 -1.4 C 92 % -2.53 C
824 22-01-2016 20:35:00 -1.3 C 92 % -2.43 C
825 22-01-2016 20:40:00 -1.3 C 92 % -2.43 C
Sensor: Nr:Datum:Temp:Feuchte:Taupunkt:
Aussen-T/F 826 22-01-2016 20:45:00 -1.2 C 92 % -2.33 C
827 22-01-2016 20:50:00 -1.2 C 92 % -2.33 C
828 22-01-2016 20:55:00 -1.1 C 92 % -2.23 C
829 22-01-2016 21:00:00 -1.1 C 92 % -2.23 C
830 22-01-2016 21:05:00 -0.9 C 92 % -2.03 C
831 22-01-2016 21:10:00 -0.9 C 92 % -2.03 C
832 22-01-2016 21:15:00 -0.8 C 92 % -1.93 C
833 22-01-2016 21:20:00 -0.8 C 93 % -1.79 C
834 22-01-2016 21:25:00 -0.7 C 93 % -1.69 C
835 22-01-2016 21:30:00 -0.6 C 93 % -1.59 C
836 22-01-2016 21:35:00 -0.5 C 93 % -1.49 C
837 22-01-2016 21:40:00 -0.4 C 93 % -1.39 C
838 22-01-2016 21:45:00 -0.3 C 93 % -1.29 C
839 22-01-2016 21:50:00 -0.3 C 93 % -1.29 C
840 22-01-2016 21:55:00 -0.2 C 94 % -1.05 C
841 22-01-2016 22:00:00 -0.1 C 94 % -0.95 C
842 22-01-2016 22:05:00 0 C 94 % -0.85 C
843 22-01-2016 22:10:00 0 C 94 % -0.85 C
844 22-01-2016 22:15:00 0.1 C 94 % -0.75 C
845 22-01-2016 22:20:00 0.1 C 94 % -0.75 C
846 22-01-2016 22:25:00 0.1 C 94 % -0.75 C
847 22-01-2016 22:30:00 0.2 C 94 % -0.65 C
848 22-01-2016 22:35:00 0.3 C 95 % -0.4 C
849 22-01-2016 22:40:00 0.3 C 95 % -0.4 C
850 22-01-2016 22:45:00 0.3 C 95 % -0.4 C
Sensor: Nr:Datum:Temp:Feuchte:Taupunkt:
Aussen-T/F 851 22-01-2016 22:50:00 0.3 C 95 % -0.4 C
852 22-01-2016 22:55:00 0.4 C 95 % -0.31 C
853 22-01-2016 23:00:00 0.4 C 95 % -0.31 C
854 22-01-2016 23:05:00 0.4 C 95 % -0.31 C
855 22-01-2016 23:10:00 0.4 C 95 % -0.31 C
856 22-01-2016 23:15:00 0.4 C 95 % -0.31 C
857 22-01-2016 23:20:00 0.4 C 95 % -0.31 C
858 22-01-2016 23:25:00 0.5 C 95 % -0.21 C
859 22-01-2016 23:30:00 0.6 C 95 % -0.11 C
860 22-01-2016 23:35:00 0.6 C 95 % -0.11 C
861 22-01-2016 23:40:00 0.6 C 95 % -0.11 C
862 22-01-2016 23:45:00 0.6 C 95 % -0.11 C
863 22-01-2016 23:50:00 0.6 C 95 % -0.11 C
864 22-01-2016 23:55:00 0.7 C 95 % -0.01 C
865 23-01-2016 00:00:00 0.7 C 95 % -0.01 C
866 23-01-2016 00:05:00 0.7 C 95 % -0.01 C
867 23-01-2016 00:10:00 0.7 C 95 % -0.01 C
868 23-01-2016 00:15:00 0.7 C 96 % 0.14 C
869 23-01-2016 00:20:00 0.7 C 95 % -0.01 C
870 23-01-2016 00:25:00 0.7 C 96 % 0.14 C
871 23-01-2016 00:30:00 0.8 C 96 % 0.24 C
872 23-01-2016 00:35:00 0.8 C 96 % 0.24 C
873 23-01-2016 00:40:00 0.8 C 96 % 0.24 C
874 23-01-2016 00:45:00 0.8 C 96 % 0.24 C
875 23-01-2016 00:50:00 0.8 C 96 % 0.24 C
Sensor: Nr:Datum:Temp:Feuchte:Taupunkt:
Aussen-T/F 876 23-01-2016 00:55:00 0.8 C 96 % 0.24 C
877 23-01-2016 01:00:00 0.8 C 96 % 0.24 C
878 23-01-2016 01:05:00 0.8 C 96 % 0.24 C
879 23-01-2016 01:10:00 0.8 C 96 % 0.24 C
880 23-01-2016 01:15:00 0.8 C 96 % 0.24 C
881 23-01-2016 01:20:00 0.8 C 96 % 0.24 C
882 23-01-2016 01:25:00 0.8 C 96 % 0.24 C
883 23-01-2016 01:30:00 0.8 C 96 % 0.24 C
884 23-01-2016 01:35:00 0.8 C 96 % 0.24 C
885 23-01-2016 01:40:00 0.8 C 96 % 0.24 C
886 23-01-2016 01:45:00 0.8 C 96 % 0.24 C
887 23-01-2016 01:50:00 0.8 C 96 % 0.24 C
888 23-01-2016 01:55:00 1 C 96 % 0.44 C
889 23-01-2016 02:00:00 1.1 C 96 % 0.54 C
890 23-01-2016 02:05:00 1.2 C 96 % 0.63 C
891 23-01-2016 02:10:00 1.3 C 96 % 0.73 C
892 23-01-2016 02:15:00 1.5 C 96 % 0.93 C
893 23-01-2016 02:20:00 1.5 C 97 % 1.08 C
894 23-01-2016 02:25:00 1.6 C 96 % 1.03 C
895 23-01-2016 02:30:00 1.7 C 96 % 1.13 C
896 23-01-2016 02:35:00 1.7 C 96 % 1.13 C
897 23-01-2016 02:40:00 1.8 C 97 % 1.38 C
898 23-01-2016 02:45:00 1.9 C 97 % 1.48 C
899 23-01-2016 02:50:00 2 C 96 % 1.43 C
900 23-01-2016 02:55:00 2.1 C 96 % 1.53 C
Sensor: Nr:Datum:Temp:Feuchte:Taupunkt:
Aussen-T/F 901 23-01-2016 03:00:00 2.1 C 96 % 1.53 C
902 23-01-2016 03:05:00 2.2 C 96 % 1.63 C
903 23-01-2016 03:10:00 2.2 C 96 % 1.63 C
904 23-01-2016 03:15:00 2.3 C 96 % 1.73 C
905 23-01-2016 03:20:00 2.3 C 96 % 1.73 C
906 23-01-2016 03:25:00 2.3 C 96 % 1.73 C
907 23-01-2016 03:30:00 2.2 C 96 % 1.63 C
908 23-01-2016 03:35:00 2.3 C 96 % 1.73 C
909 23-01-2016 03:40:00 2.3 C 96 % 1.73 C
910 23-01-2016 03:45:00 2.4 C 96 % 1.83 C
911 23-01-2016 03:50:00 2.6 C 97 % 2.17 C
912 23-01-2016 03:55:00 2.6 C 96 % 2.03 C
913 23-01-2016 04:00:00 2.6 C 96 % 2.03 C
914 23-01-2016 04:05:00 2.5 C 96 % 1.93 C
915 23-01-2016 04:10:00 2.6 C 96 % 2.03 C
916 23-01-2016 04:15:00 2.6 C 96 % 2.03 C
917 23-01-2016 04:20:00 2.6 C 96 % 2.03 C
918 23-01-2016 04:25:00 2.7 C 96 % 2.13 C
919 23-01-2016 04:30:00 2.8 C 96 % 2.23 C
920 23-01-2016 04:35:00 2.7 C 96 % 2.13 C
921 23-01-2016 04:40:00 2.7 C 96 % 2.13 C
922 23-01-2016 04:45:00 2.8 C 96 % 2.23 C
923 23-01-2016 04:50:00 2.7 C 96 % 2.13 C
924 23-01-2016 04:55:00 2.8 C 96 % 2.23 C
925 23-01-2016 05:00:00 2.8 C 96 % 2.23 C
Sensor: Nr:Datum:Temp:Feuchte:Taupunkt:
Aussen-T/F 926 23-01-2016 05:05:00 2.7 C 96 % 2.13 C
927 23-01-2016 05:10:00 2.7 C 96 % 2.13 C
928 23-01-2016 05:15:00 2.8 C 96 % 2.23 C
929 23-01-2016 05:20:00 2.7 C 96 % 2.13 C
930 23-01-2016 05:25:00 2.8 C 96 % 2.23 C
931 23-01-2016 05:30:00 2.8 C 96 % 2.23 C
932 23-01-2016 05:35:00 2.9 C 96 % 2.33 C
933 23-01-2016 05:40:00 2.9 C 96 % 2.33 C
934 23-01-2016 05:45:00 2.9 C 96 % 2.33 C
935 23-01-2016 05:50:00 3 C 96 % 2.43 C
936 23-01-2016 05:55:00 3 C 96 % 2.43 C
937 23-01-2016 06:00:00 3 C 96 % 2.43 C
938 23-01-2016 06:05:00 3.1 C 96 % 2.53 C
939 23-01-2016 06:10:00 3.1 C 96 % 2.53 C
940 23-01-2016 06:15:00 3.2 C 96 % 2.63 C
941 23-01-2016 06:20:00 3.2 C 96 % 2.63 C
942 23-01-2016 06:25:00 3.2 C 96 % 2.63 C
943 23-01-2016 06:30:00 3.2 C 96 % 2.63 C
944 23-01-2016 06:35:00 3.1 C 96 % 2.53 C
945 23-01-2016 06:40:00 3 C 96 % 2.43 C
946 23-01-2016 06:45:00 3.1 C 96 % 2.53 C
947 23-01-2016 06:50:00 3.3 C 96 % 2.72 C
948 23-01-2016 06:55:00 3.4 C 96 % 2.82 C
949 23-01-2016 07:00:00 3.4 C 96 % 2.82 C
950 23-01-2016 07:05:00 3.4 C 96 % 2.82 C
Sensor: Nr:Datum:Temp:Feuchte:Taupunkt:
Aussen-T/F 951 23-01-2016 07:10:00 3.4 C 96 % 2.82 C
952 23-01-2016 07:15:00 3.4 C 96 % 2.82 C
953 23-01-2016 07:20:00 3.4 C 96 % 2.82 C
954 23-01-2016 07:25:00 3.5 C 96 % 2.92 C
955 23-01-2016 07:30:00 3.4 C 96 % 2.82 C
956 23-01-2016 07:35:00 3.5 C 96 % 2.92 C
957 23-01-2016 07:40:00 3.5 C 96 % 2.92 C
958 23-01-2016 07:45:00 3.6 C 96 % 3.02 C
959 23-01-2016 07:50:00 3.5 C 96 % 2.92 C
960 23-01-2016 07:55:00 3.4 C 96 % 2.82 C
961 23-01-2016 08:00:00 3.4 C 96 % 2.82 C
962 23-01-2016 08:05:00 3.4 C 96 % 2.82 C
963 23-01-2016 08:10:00 3.3 C 96 % 2.72 C
964 23-01-2016 08:15:00 3.3 C 96 % 2.72 C
965 23-01-2016 08:20:00 3.3 C 96 % 2.72 C
966 23-01-2016 08:25:00 3.3 C 96 % 2.72 C
967 23-01-2016 08:30:00 3.4 C 96 % 2.82 C
968 23-01-2016 08:35:00 3.4 C 96 % 2.82 C
969 23-01-2016 08:40:00 3.4 C 96 % 2.82 C
970 23-01-2016 08:45:00 3.4 C 96 % 2.82 C
971 23-01-2016 08:50:00 3.4 C 96 % 2.82 C
972 23-01-2016 08:55:00 3.5 C 96 % 2.92 C
973 23-01-2016 09:00:00 3.6 C 96 % 3.02 C
974 23-01-2016 09:05:00 3.7 C 96 % 3.12 C
975 23-01-2016 09:10:00 3.6 C 96 % 3.02 C
Sensor: Nr:Datum:Temp:Feuchte:Taupunkt:
Aussen-T/F 976 23-01-2016 09:15:00 3.6 C 96 % 3.02 C
977 23-01-2016 09:20:00 3.7 C 96 % 3.12 C
978 23-01-2016 09:25:00 3.7 C 96 % 3.12 C
979 23-01-2016 09:30:00 3.7 C 96 % 3.12 C
980 23-01-2016 09:35:00 3.8 C 96 % 3.22 C
981 23-01-2016 09:40:00 4 C 96 % 3.42 C
982 23-01-2016 09:45:00 4.1 C 96 % 3.52 C
983 23-01-2016 09:50:00 4.2 C 96 % 3.62 C
984 23-01-2016 09:55:00 4.2 C 96 % 3.62 C
985 23-01-2016 10:00:00 4.2 C 96 % 3.62 C
986 23-01-2016 10:05:00 4.3 C 96 % 3.72 C
987 23-01-2016 10:10:00 4.4 C 96 % 3.82 C
988 23-01-2016 10:15:00 4.3 C 95 % 3.57 C
989 23-01-2016 10:20:00 4.4 C 95 % 3.67 C
990 23-01-2016 10:25:00 4.6 C 96 % 4.02 C
991 23-01-2016 10:30:00 4.7 C 96 % 4.12 C
992 23-01-2016 10:35:00 4.7 C 95 % 3.97 C
993 23-01-2016 10:40:00 4.8 C 95 % 4.07 C
994 23-01-2016 10:45:00 4.8 C 95 % 4.07 C
995 23-01-2016 10:50:00 4.8 C 95 % 4.07 C
996 23-01-2016 10:55:00 4.7 C 95 % 3.97 C
997 23-01-2016 11:00:00 4.6 C 95 % 3.87 C
998 23-01-2016 11:05:00 4.7 C 95 % 3.97 C
999 23-01-2016 11:10:00 4.7 C 95 % 3.97 C
1000 23-01-2016 11:15:00 4.8 C 95 % 4.07 C
Sensor: Nr:Datum:Temp:Feuchte:Taupunkt:
Aussen-T/F 1001 23-01-2016 11:20:00 4.8 C 95 % 4.07 C
1002 23-01-2016 11:25:00 5 C 95 % 4.27 C
1003 23-01-2016 11:30:00 5.1 C 95 % 4.37 C
1004 23-01-2016 11:35:00 5.2 C 95 % 4.47 C
1005 23-01-2016 11:40:00 5.3 C 95 % 4.57 C
1006 23-01-2016 11:45:00 5.4 C 95 % 4.66 C
1007 23-01-2016 11:50:00 5.4 C 95 % 4.66 C
1008 23-01-2016 11:55:00 5.5 C 95 % 4.76 C
1009 23-01-2016 12:00:00 5.5 C 95 % 4.76 C
1010 23-01-2016 12:05:00 5.6 C 94 % 4.71 C
1011 23-01-2016 12:10:00 5.5 C 94 % 4.61 C
1012 23-01-2016 12:15:00 5.6 C 94 % 4.71 C
1013 23-01-2016 12:20:00 5.6 C 94 % 4.71 C
1014 23-01-2016 12:25:00 5.7 C 94 % 4.81 C
1015 23-01-2016 12:30:00 5.7 C 94 % 4.81 C
1016 23-01-2016 12:35:00 5.8 C 94 % 4.91 C
1017 23-01-2016 12:40:00 5.9 C 94 % 5.01 C
1018 23-01-2016 12:45:00 5.9 C 94 % 5.01 C
1019 23-01-2016 12:50:00 5.9 C 94 % 5.01 C
1020 23-01-2016 12:55:00 5.9 C 94 % 5.01 C
1021 23-01-2016 13:00:00 6 C 94 % 5.11 C
1022 23-01-2016 13:05:00 6.1 C 94 % 5.21 C
1023 23-01-2016 13:10:00 6.2 C 94 % 5.31 C
1024 23-01-2016 13:15:00 6.3 C 94 % 5.41 C
1025 23-01-2016 13:20:00 6.4 C 93 % 5.35 C
Sensor: Nr:Datum:Temp:Feuchte:Taupunkt:
Aussen-T/F 1026 23-01-2016 13:25:00 6.6 C 93 % 5.55 C
1027 23-01-2016 13:30:00 6.6 C 92 % 5.4 C
1028 23-01-2016 13:35:00 6.7 C 92 % 5.49 C
1029 23-01-2016 13:40:00 6.7 C 92 % 5.49 C
1030 23-01-2016 13:45:00 6.8 C 92 % 5.59 C
1031 23-01-2016 13:50:00 6.8 C 92 % 5.59 C
1032 23-01-2016 13:55:00 6.9 C 91 % 5.54 C
1033 23-01-2016 14:00:00 6.9 C 91 % 5.54 C
1034 23-01-2016 14:05:00 7 C 91 % 5.63 C
1035 23-01-2016 14:10:00 7.1 C 90 % 5.57 C
1036 23-01-2016 14:15:00 7.1 C 90 % 5.57 C
1037 23-01-2016 14:20:00 7.2 C 90 % 5.67 C
1038 23-01-2016 14:25:00 7.2 C 90 % 5.67 C
1039 23-01-2016 14:30:00 7.1 C 90 % 5.57 C
1040 23-01-2016 14:35:00 7.1 C 90 % 5.57 C
1041 23-01-2016 14:40:00 7 C 90 % 5.48 C
1042 23-01-2016 14:45:00 7 C 90 % 5.48 C
1043 23-01-2016 14:50:00 7 C 90 % 5.48 C
1044 23-01-2016 14:55:00 7 C 90 % 5.48 C
1045 23-01-2016 15:00:00 7 C 90 % 5.48 C
1046 23-01-2016 15:05:00 7 C 90 % 5.48 C
1047 23-01-2016 15:10:00 7 C 90 % 5.48 C
1048 23-01-2016 15:15:00 7 C 90 % 5.48 C
1049 23-01-2016 15:20:00 7 C 90 % 5.48 C
1050 23-01-2016 15:25:00 7 C 90 % 5.48 C
Sensor: Nr:Datum:Temp:Feuchte:Taupunkt:
Aussen-T/F 1051 23-01-2016 15:30:00 6.9 C 90 % 5.38 C
1052 23-01-2016 15:35:00 6.9 C 90 % 5.38 C
1053 23-01-2016 15:40:00 6.9 C 91 % 5.54 C
1054 23-01-2016 15:45:00 6.8 C 91 % 5.44 C
1055 23-01-2016 15:50:00 6.8 C 91 % 5.44 C
1056 23-01-2016 15:55:00 6.7 C 91 % 5.34 C
1057 23-01-2016 16:00:00 6.6 C 91 % 5.24 C
1058 23-01-2016 16:05:00 6.4 C 91 % 5.04 C
1059 23-01-2016 16:10:00 6.3 C 91 % 4.94 C
1060 23-01-2016 16:15:00 6.3 C 92 % 5.1 C
1061 23-01-2016 16:20:00 6.3 C 92 % 5.1 C
1062 23-01-2016 16:25:00 6.2 C 92 % 5 C
1063 23-01-2016 16:30:00 6.1 C 92 % 4.9 C
1064 23-01-2016 16:35:00 6 C 92 % 4.8 C
1065 23-01-2016 16:40:00 5.9 C 92 % 4.7 C
1066 23-01-2016 16:45:00 5.9 C 92 % 4.7 C
1067 23-01-2016 16:50:00 5.8 C 92 % 4.6 C
1068 23-01-2016 16:55:00 5.8 C 93 % 4.76 C
1069 23-01-2016 17:00:00 5.7 C 93 % 4.66 C
1070 23-01-2016 17:05:00 5.6 C 92 % 4.41 C
1071 23-01-2016 17:10:00 5.4 C 93 % 4.36 C
1072 23-01-2016 17:15:00 5.3 C 93 % 4.26 C
1073 23-01-2016 17:20:00 5.3 C 93 % 4.26 C
1074 23-01-2016 17:25:00 5.2 C 93 % 4.16 C
1075 23-01-2016 17:30:00 5.2 C 94 % 4.32 C
Sensor: Nr:Datum:Temp:Feuchte:Taupunkt:
Aussen-T/F 1076 23-01-2016 17:35:00 5.2 C 94 % 4.32 C
1077 23-01-2016 17:40:00 5.2 C 94 % 4.32 C
1078 23-01-2016 17:45:00 5.2 C 94 % 4.32 C
1079 23-01-2016 17:50:00 5.2 C 94 % 4.32 C
1080 23-01-2016 17:55:00 5.2 C 94 % 4.32 C
1081 23-01-2016 18:00:00 5.1 C 94 % 4.22 C
1082 23-01-2016 18:05:00 5 C 94 % 4.12 C
1083 23-01-2016 18:10:00 4.9 C 94 % 4.02 C
1084 23-01-2016 18:15:00 4.9 C 94 % 4.02 C
1085 23-01-2016 18:20:00 4.9 C 95 % 4.17 C
1086 23-01-2016 18:25:00 4.9 C 95 % 4.17 C
1087 23-01-2016 18:30:00 4.9 C 95 % 4.17 C
1088 23-01-2016 18:35:00 4.9 C 95 % 4.17 C
1089 23-01-2016 18:40:00 4.9 C 95 % 4.17 C
1090 23-01-2016 18:45:00 4.9 C 95 % 4.17 C
1091 23-01-2016 18:50:00 4.9 C 95 % 4.17 C
1092 23-01-2016 18:55:00 4.9 C 95 % 4.17 C
1093 23-01-2016 19:00:00 4.8 C 95 % 4.07 C
1094 23-01-2016 19:05:00 4.8 C 95 % 4.07 C
1095 23-01-2016 19:10:00 4.8 C 95 % 4.07 C
1096 23-01-2016 19:15:00 4.8 C 95 % 4.07 C
1097 23-01-2016 19:20:00 4.8 C 95 % 4.07 C
1098 23-01-2016 19:25:00 4.8 C 95 % 4.07 C
1099 23-01-2016 19:30:00 4.8 C 95 % 4.07 C
1100 23-01-2016 19:35:00 4.8 C 95 % 4.07 C
Sensor: Nr:Datum:Temp:Feuchte:Taupunkt:
Aussen-T/F 1101 23-01-2016 19:40:00 4.8 C 95 % 4.07 C
1102 23-01-2016 19:45:00 4.8 C 95 % 4.07 C
1103 23-01-2016 19:50:00 4.8 C 95 % 4.07 C
1104 23-01-2016 19:55:00 4.8 C 95 % 4.07 C
1105 23-01-2016 20:00:00 4.8 C 95 % 4.07 C
1106 23-01-2016 20:05:00 4.8 C 95 % 4.07 C
1107 23-01-2016 20:10:00 4.7 C 95 % 3.97 C
1108 23-01-2016 20:15:00 4.7 C 95 % 3.97 C
1109 23-01-2016 20:20:00 4.8 C 95 % 4.07 C
1110 23-01-2016 20:25:00 4.8 C 95 % 4.07 C
1111 23-01-2016 20:30:00 4.9 C 95 % 4.17 C
1112 23-01-2016 20:35:00 4.8 C 95 % 4.07 C
1113 23-01-2016 20:40:00 4.8 C 95 % 4.07 C
1114 23-01-2016 20:45:00 4.8 C 95 % 4.07 C
1115 23-01-2016 20:50:00 4.8 C 95 % 4.07 C
1116 23-01-2016 20:55:00 4.7 C 95 % 3.97 C
1117 23-01-2016 21:00:00 4.7 C 95 % 3.97 C
1118 23-01-2016 21:05:00 4.6 C 95 % 3.87 C
1119 23-01-2016 21:10:00 4.6 C 95 % 3.87 C
1120 23-01-2016 21:15:00 4.6 C 95 % 3.87 C
1121 23-01-2016 21:20:00 4.6 C 95 % 3.87 C
1122 23-01-2016 21:25:00 4.6 C 95 % 3.87 C
1123 23-01-2016 21:30:00 4.6 C 95 % 3.87 C
1124 23-01-2016 21:35:00 4.6 C 95 % 3.87 C
1125 23-01-2016 21:40:00 4.6 C 95 % 3.87 C
Sensor: Nr:Datum:Temp:Feuchte:Taupunkt:
Aussen-T/F 1126 23-01-2016 21:45:00 4.6 C 95 % 3.87 C
1127 23-01-2016 21:50:00 4.5 C 95 % 3.77 C
1128 23-01-2016 21:55:00 4.4 C 95 % 3.67 C
1129 23-01-2016 22:00:00 4.4 C 95 % 3.67 C
1130 23-01-2016 22:05:00 4.4 C 95 % 3.67 C
1131 23-01-2016 22:10:00 4.4 C 95 % 3.67 C
1132 23-01-2016 22:15:00 4.4 C 95 % 3.67 C
1133 23-01-2016 22:20:00 4.4 C 96 % 3.82 C
1134 23-01-2016 22:25:00 4.4 C 96 % 3.82 C
1135 23-01-2016 22:30:00 4.4 C 96 % 3.82 C
1136 23-01-2016 22:35:00 4.3 C 95 % 3.57 C
1137 23-01-2016 22:40:00 4.3 C 95 % 3.57 C
1138 23-01-2016 22:45:00 4.3 C 95 % 3.57 C
1139 23-01-2016 22:50:00 4.3 C 95 % 3.57 C
1140 23-01-2016 22:55:00 4.3 C 95 % 3.57 C
1141 23-01-2016 23:00:00 4.2 C 96 % 3.62 C
1142 23-01-2016 23:05:00 4.3 C 96 % 3.72 C
1143 23-01-2016 23:10:00 4.3 C 96 % 3.72 C
1144 23-01-2016 23:15:00 4.3 C 96 % 3.72 C
1145 23-01-2016 23:20:00 4.3 C 96 % 3.72 C
1146 23-01-2016 23:25:00 4.2 C 96 % 3.62 C
1147 23-01-2016 23:30:00 4.2 C 96 % 3.62 C
1148 23-01-2016 23:35:00 4.2 C 96 % 3.62 C
1149 23-01-2016 23:40:00 4.2 C 96 % 3.62 C
1150 23-01-2016 23:45:00 4.2 C 96 % 3.62 C
Sensor: Nr:Datum:Temp:Feuchte:Taupunkt:
Aussen-T/F 1151 23-01-2016 23:50:00 4.2 C 96 % 3.62 C
1152 23-01-2016 23:55:00 4.2 C 96 % 3.62 C
1153 24-01-2016 00:00:00 4.2 C 96 % 3.62 C
1154 24-01-2016 00:05:00 4.2 C 96 % 3.62 C
1155 24-01-2016 00:10:00 4.2 C 96 % 3.62 C
1156 24-01-2016 00:15:00 4.2 C 96 % 3.62 C
1157 24-01-2016 00:20:00 4.2 C 96 % 3.62 C
1158 24-01-2016 00:25:00 4.2 C 96 % 3.62 C
1159 24-01-2016 00:30:00 4.1 C 96 % 3.52 C
1160 24-01-2016 00:35:00 4.2 C 96 % 3.62 C
1161 24-01-2016 00:40:00 4.2 C 96 % 3.62 C
1162 24-01-2016 00:45:00 4.2 C 96 % 3.62 C
1163 24-01-2016 00:50:00 4.3 C 96 % 3.72 C
1164 24-01-2016 00:55:00 4.3 C 96 % 3.72 C
1165 24-01-2016 01:00:00 4.3 C 96 % 3.72 C
1166 24-01-2016 01:05:00 4.3 C 96 % 3.72 C
1167 24-01-2016 01:10:00 4.4 C 96 % 3.82 C
1168 24-01-2016 01:15:00 4.6 C 96 % 4.02 C
1169 24-01-2016 01:20:00 4.6 C 95 % 3.87 C
1170 24-01-2016 01:25:00 4.6 C 95 % 3.87 C
1171 24-01-2016 01:30:00 4.5 C 95 % 3.77 C
1172 24-01-2016 01:35:00 4.4 C 94 % 3.52 C
1173 24-01-2016 01:40:00 4.3 C 94 % 3.42 C
1174 24-01-2016 01:45:00 4.4 C 94 % 3.52 C
1175 24-01-2016 01:50:00 4.4 C 94 % 3.52 C
Sensor: Nr:Datum:Temp:Feuchte:Taupunkt:
Aussen-T/F 1176 24-01-2016 01:55:00 4.5 C 94 % 3.62 C
1177 24-01-2016 02:00:00 4.5 C 94 % 3.62 C
1178 24-01-2016 02:05:00 4.4 C 93 % 3.37 C
1179 24-01-2016 02:10:00 4.3 C 94 % 3.42 C
1180 24-01-2016 02:15:00 4.3 C 94 % 3.42 C
1181 24-01-2016 02:20:00 4.3 C 94 % 3.42 C
1182 24-01-2016 02:25:00 4.2 C 94 % 3.32 C
1183 24-01-2016 02:30:00 4.1 C 93 % 3.07 C
1184 24-01-2016 02:35:00 4.1 C 94 % 3.22 C
1185 24-01-2016 02:40:00 4.1 C 94 % 3.22 C
1186 24-01-2016 02:45:00 4.1 C 94 % 3.22 C
1187 24-01-2016 02:50:00 4.1 C 94 % 3.22 C
1188 24-01-2016 02:55:00 4.1 C 94 % 3.22 C
1189 24-01-2016 03:00:00 4.1 C 94 % 3.22 C
1190 24-01-2016 03:05:00 4.1 C 94 % 3.22 C
1191 24-01-2016 03:10:00 4.1 C 94 % 3.22 C
1192 24-01-2016 03:15:00 3.9 C 93 % 2.87 C
1193 24-01-2016 03:20:00 3.8 C 93 % 2.77 C
1194 24-01-2016 03:25:00 3.7 C 93 % 2.68 C
1195 24-01-2016 03:30:00 3.5 C 93 % 2.48 C
1196 24-01-2016 03:35:00 3.4 C 93 % 2.38 C
1197 24-01-2016 03:40:00 3.4 C 94 % 2.53 C
1198 24-01-2016 03:45:00 3.4 C 94 % 2.53 C
1199 24-01-2016 03:50:00 3.4 C 94 % 2.53 C
1200 24-01-2016 03:55:00 3.4 C 94 % 2.53 C
Sensor: Nr:Datum:Temp:Feuchte:Taupunkt:
Aussen-T/F 1201 24-01-2016 04:00:00 3.3 C 94 % 2.43 C
1202 24-01-2016 04:05:00 3.3 C 94 % 2.43 C
1203 24-01-2016 04:10:00 3.3 C 94 % 2.43 C
1204 24-01-2016 04:15:00 3.2 C 94 % 2.33 C
1205 24-01-2016 04:20:00 3.2 C 94 % 2.33 C
1206 24-01-2016 04:25:00 3.2 C 94 % 2.33 C
1207 24-01-2016 04:30:00 3.1 C 95 % 2.38 C
1208 24-01-2016 04:35:00 3.1 C 94 % 2.23 C
1209 24-01-2016 04:40:00 3.1 C 95 % 2.38 C
1210 24-01-2016 04:45:00 3.1 C 95 % 2.38 C
1211 24-01-2016 04:50:00 3.1 C 95 % 2.38 C
1212 24-01-2016 04:55:00 3.1 C 95 % 2.38 C
1213 24-01-2016 05:00:00 3.1 C 95 % 2.38 C
1214 24-01-2016 05:05:00 3.1 C 95 % 2.38 C
1215 24-01-2016 05:10:00 3.2 C 95 % 2.48 C
1216 24-01-2016 05:15:00 3.2 C 95 % 2.48 C
1217 24-01-2016 05:20:00 3.2 C 95 % 2.48 C
1218 24-01-2016 05:25:00 3.2 C 95 % 2.48 C
1219 24-01-2016 05:30:00 3.2 C 95 % 2.48 C
1220 24-01-2016 05:35:00 3.2 C 95 % 2.48 C
1221 24-01-2016 05:40:00 3.2 C 95 % 2.48 C
1222 24-01-2016 05:45:00 3.1 C 95 % 2.38 C
1223 24-01-2016 05:50:00 3.1 C 95 % 2.38 C
1224 24-01-2016 05:55:00 3.1 C 95 % 2.38 C
1225 24-01-2016 06:00:00 3 C 95 % 2.28 C
Sensor: Nr:Datum:Temp:Feuchte:Taupunkt:
Aussen-T/F 1226 24-01-2016 06:05:00 2.9 C 95 % 2.18 C
1227 24-01-2016 06:10:00 2.8 C 95 % 2.08 C
1228 24-01-2016 06:15:00 2.8 C 95 % 2.08 C
1229 24-01-2016 06:20:00 2.8 C 95 % 2.08 C
1230 24-01-2016 06:25:00 2.8 C 95 % 2.08 C
1231 24-01-2016 06:30:00 2.8 C 96 % 2.23 C
1232 24-01-2016 06:35:00 2.8 C 95 % 2.08 C
1233 24-01-2016 06:40:00 2.7 C 95 % 1.98 C
1234 24-01-2016 06:45:00 2.7 C 95 % 1.98 C
1235 24-01-2016 06:50:00 2.6 C 95 % 1.88 C
1236 24-01-2016 06:55:00 2.6 C 95 % 1.88 C
1237 24-01-2016 07:00:00 2.5 C 95 % 1.78 C
1238 24-01-2016 07:05:00 2.6 C 96 % 2.03 C
1239 24-01-2016 07:10:00 2.6 C 96 % 2.03 C
1240 24-01-2016 07:15:00 2.7 C 96 % 2.13 C
1241 24-01-2016 07:20:00 2.7 C 96 % 2.13 C
1242 24-01-2016 07:25:00 2.7 C 96 % 2.13 C
1243 24-01-2016 07:30:00 2.7 C 96 % 2.13 C
1244 24-01-2016 07:35:00 2.7 C 96 % 2.13 C
1245 24-01-2016 07:40:00 2.7 C 96 % 2.13 C
1246 24-01-2016 07:45:00 2.7 C 96 % 2.13 C
1247 24-01-2016 07:50:00 2.7 C 96 % 2.13 C
1248 24-01-2016 07:55:00 2.7 C 96 % 2.13 C
1249 24-01-2016 08:00:00 2.6 C 96 % 2.03 C
1250 24-01-2016 08:05:00 2.6 C 96 % 2.03 C
Sensor: Nr:Datum:Temp:Feuchte:Taupunkt:
Aussen-T/F 1251 24-01-2016 08:10:00 2.6 C 96 % 2.03 C
1252 24-01-2016 08:15:00 2.4 C 96 % 1.83 C
1253 24-01-2016 08:20:00 2.4 C 96 % 1.83 C
1254 24-01-2016 08:25:00 2.4 C 96 % 1.83 C
1255 24-01-2016 08:30:00 2.6 C 96 % 2.03 C
1256 24-01-2016 08:35:00 2.6 C 96 % 2.03 C
1257 24-01-2016 08:40:00 2.7 C 96 % 2.13 C
1258 24-01-2016 08:45:00 2.8 C 96 % 2.23 C
1259 24-01-2016 08:50:00 2.8 C 96 % 2.23 C
1260 24-01-2016 08:55:00 2.9 C 96 % 2.33 C
1261 24-01-2016 09:00:00 2.9 C 96 % 2.33 C
1262 24-01-2016 09:05:00 2.9 C 96 % 2.33 C
1263 24-01-2016 09:10:00 2.9 C 96 % 2.33 C
1264 24-01-2016 09:15:00 2.9 C 96 % 2.33 C
1265 24-01-2016 09:20:00 3 C 96 % 2.43 C
1266 24-01-2016 09:25:00 3.1 C 96 % 2.53 C
1267 24-01-2016 09:30:00 3.1 C 97 % 2.67 C
1268 24-01-2016 09:35:00 3.3 C 97 % 2.87 C
1269 24-01-2016 09:40:00 3.4 C 97 % 2.97 C
1270 24-01-2016 09:45:00 3.4 C 97 % 2.97 C
1271 24-01-2016 09:50:00 3.6 C 97 % 3.17 C
1272 24-01-2016 09:55:00 3.7 C 97 % 3.27 C
1273 24-01-2016 10:00:00 3.7 C 97 % 3.27 C
1274 24-01-2016 10:05:00 3.7 C 96 % 3.12 C
1275 24-01-2016 10:10:00 3.8 C 97 % 3.37 C
Sensor: Nr:Datum:Temp:Feuchte:Taupunkt:
Aussen-T/F 1276 24-01-2016 10:15:00 3.9 C 97 % 3.47 C
1277 24-01-2016 10:20:00 3.9 C 96 % 3.32 C
1278 24-01-2016 10:25:00 3.9 C 96 % 3.32 C
1279 24-01-2016 10:30:00 4 C 96 % 3.42 C
1280 24-01-2016 10:35:00 4.1 C 96 % 3.52 C
1281 24-01-2016 10:40:00 4.1 C 96 % 3.52 C
1282 24-01-2016 10:45:00 4.2 C 96 % 3.62 C
1283 24-01-2016 10:50:00 4.3 C 96 % 3.72 C
1284 24-01-2016 10:55:00 4.4 C 96 % 3.82 C
1285 24-01-2016 11:00:00 4.6 C 96 % 4.02 C
1286 24-01-2016 11:05:00 4.8 C 96 % 4.22 C
1287 24-01-2016 11:10:00 4.9 C 96 % 4.32 C
1288 24-01-2016 11:15:00 5 C 95 % 4.27 C
1289 24-01-2016 11:20:00 5.2 C 95 % 4.47 C
1290 24-01-2016 11:25:00 5.3 C 95 % 4.57 C
1291 24-01-2016 11:30:00 5.5 C 94 % 4.61 C
1292 24-01-2016 11:35:00 5.6 C 93 % 4.56 C
1293 24-01-2016 11:40:00 5.7 C 93 % 4.66 C
1294 24-01-2016 11:45:00 5.9 C 92 % 4.7 C
1295 24-01-2016 11:50:00 6 C 91 % 4.65 C
1296 24-01-2016 11:55:00 6.2 C 91 % 4.84 C
1297 24-01-2016 12:00:00 6.2 C 90 % 4.69 C
1298 24-01-2016 12:05:00 6.4 C 90 % 4.88 C
1299 24-01-2016 12:10:00 6.6 C 90 % 5.08 C
1300 24-01-2016 12:15:00 6.7 C 89 % 5.02 C
Sensor: Nr:Datum:Temp:Feuchte:Taupunkt:
Aussen-T/F 1301 24-01-2016 12:20:00 6.9 C 89 % 5.22 C
1302 24-01-2016 12:25:00 7 C 88 % 5.15 C
1303 24-01-2016 12:30:00 7.1 C 88 % 5.25 C
1304 24-01-2016 12:35:00 7.2 C 89 % 5.51 C
1305 24-01-2016 12:40:00 7.2 C 90 % 5.67 C
1306 24-01-2016 12:45:00 7.3 C 91 % 5.93 C
1307 24-01-2016 12:50:00 7.3 C 91 % 5.93 C
1308 24-01-2016 12:55:00 7.3 C 91 % 5.93 C
1309 24-01-2016 13:00:00 7.2 C 91 % 5.83 C
1310 24-01-2016 13:05:00 7.2 C 92 % 5.99 C
1311 24-01-2016 13:10:00 7.2 C 92 % 5.99 C
1312 24-01-2016 13:15:00 7.2 C 92 % 5.99 C
1313 24-01-2016 13:20:00 7.2 C 92 % 5.99 C
1314 24-01-2016 13:25:00 7.2 C 92 % 5.99 C
1315 24-01-2016 13:30:00 7.2 C 92 % 5.99 C
1316 24-01-2016 13:35:00 7.2 C 92 % 5.99 C
1317 24-01-2016 13:40:00 7.2 C 92 % 5.99 C
1318 24-01-2016 13:45:00 7.3 C 92 % 6.09 C
1319 24-01-2016 13:50:00 7.3 C 92 % 6.09 C
1320 24-01-2016 13:55:00 7.3 C 92 % 6.09 C
1321 24-01-2016 14:00:00 7.3 C 92 % 6.09 C
1322 24-01-2016 14:05:00 7.4 C 91 % 6.03 C
1323 24-01-2016 14:10:00 7.4 C 91 % 6.03 C
1324 24-01-2016 14:15:00 7.4 C 91 % 6.03 C
1325 24-01-2016 14:20:00 7.5 C 90 % 5.97 C
Sensor: Nr:Datum:Temp:Feuchte:Taupunkt:
Aussen-T/F 1326 24-01-2016 14:25:00 7.6 C 90 % 6.07 C
1327 24-01-2016 14:30:00 7.6 C 90 % 6.07 C
1328 24-01-2016 14:35:00 7.6 C 89 % 5.91 C
1329 24-01-2016 14:40:00 7.6 C 89 % 5.91 C
1330 24-01-2016 14:45:00 7.6 C 89 % 5.91 C
1331 24-01-2016 14:50:00 7.6 C 89 % 5.91 C
1332 24-01-2016 14:55:00 7.7 C 90 % 6.17 C
1333 24-01-2016 15:00:00 7.7 C 90 % 6.17 C
1334 24-01-2016 15:05:00 7.6 C 90 % 6.07 C
1335 24-01-2016 15:10:00 7.6 C 90 % 6.07 C
1336 24-01-2016 15:15:00 7.6 C 90 % 6.07 C
1337 24-01-2016 15:20:00 7.6 C 90 % 6.07 C
1338 24-01-2016 15:25:00 7.6 C 90 % 6.07 C
1339 24-01-2016 15:30:00 7.6 C 90 % 6.07 C
1340 24-01-2016 15:35:00 7.6 C 90 % 6.07 C
1341 24-01-2016 15:40:00 7.6 C 90 % 6.07 C
1342 24-01-2016 15:45:00 7.6 C 90 % 6.07 C
1343 24-01-2016 15:50:00 7.6 C 90 % 6.07 C
1344 24-01-2016 15:55:00 7.5 C 90 % 5.97 C
1345 24-01-2016 16:00:00 7.5 C 90 % 5.97 C
1346 24-01-2016 16:05:00 7.5 C 90 % 5.97 C
1347 24-01-2016 16:10:00 7.5 C 90 % 5.97 C
1348 24-01-2016 16:15:00 7.5 C 90 % 5.97 C
1349 24-01-2016 16:20:00 7.5 C 90 % 5.97 C
1350 24-01-2016 16:25:00 7.5 C 90 % 5.97 C
Sensor: Nr:Datum:Temp:Feuchte:Taupunkt:
Aussen-T/F 1351 24-01-2016 16:30:00 7.5 C 90 % 5.97 C
1352 24-01-2016 16:35:00 7.4 C 90 % 5.87 C
1353 24-01-2016 16:40:00 7.4 C 90 % 5.87 C
1354 24-01-2016 16:45:00 7.4 C 90 % 5.87 C
1355 24-01-2016 16:50:00 7.4 C 90 % 5.87 C
1356 24-01-2016 16:55:00 7.4 C 90 % 5.87 C
1357 24-01-2016 17:00:00 7.3 C 91 % 5.93 C
1358 24-01-2016 17:05:00 7.3 C 91 % 5.93 C
1359 24-01-2016 17:10:00 7.3 C 92 % 6.09 C
1360 24-01-2016 17:15:00 7.2 C 92 % 5.99 C
1361 24-01-2016 17:20:00 7.2 C 92 % 5.99 C
1362 24-01-2016 17:25:00 7.1 C 93 % 6.05 C
1363 24-01-2016 17:30:00 7 C 93 % 5.95 C
1364 24-01-2016 17:35:00 6.9 C 94 % 6 C
1365 24-01-2016 17:40:00 6.8 C 94 % 5.9 C
1366 24-01-2016 17:45:00 6.8 C 94 % 5.9 C
1367 24-01-2016 17:50:00 6.8 C 94 % 5.9 C
1368 24-01-2016 17:55:00 6.7 C 94 % 5.8 C
1369 24-01-2016 18:00:00 6.7 C 95 % 5.96 C
1370 24-01-2016 18:05:00 6.7 C 95 % 5.96 C
1371 24-01-2016 18:10:00 6.7 C 95 % 5.96 C
1372 24-01-2016 18:15:00 6.7 C 95 % 5.96 C
1373 24-01-2016 18:20:00 6.6 C 95 % 5.86 C
1374 24-01-2016 18:25:00 6.6 C 95 % 5.86 C
1375 24-01-2016 18:30:00 6.6 C 95 % 5.86 C
Sensor: Nr:Datum:Temp:Feuchte:Taupunkt:
Aussen-T/F 1376 24-01-2016 18:35:00 6.6 C 95 % 5.86 C
1377 24-01-2016 18:40:00 6.6 C 95 % 5.86 C
1378 24-01-2016 18:45:00 6.6 C 95 % 5.86 C
1379 24-01-2016 18:50:00 6.6 C 95 % 5.86 C
1380 24-01-2016 18:55:00 6.6 C 95 % 5.86 C
1381 24-01-2016 19:00:00 6.6 C 95 % 5.86 C
1382 24-01-2016 19:05:00 6.6 C 95 % 5.86 C
1383 24-01-2016 19:10:00 6.6 C 95 % 5.86 C
1384 24-01-2016 19:15:00 6.6 C 95 % 5.86 C
1385 24-01-2016 19:20:00 6.6 C 95 % 5.86 C
1386 24-01-2016 19:25:00 6.6 C 95 % 5.86 C
1387 24-01-2016 19:30:00 6.6 C 95 % 5.86 C
1388 24-01-2016 19:35:00 6.6 C 95 % 5.86 C
1389 24-01-2016 19:40:00 6.6 C 95 % 5.86 C
1390 24-01-2016 19:45:00 6.6 C 95 % 5.86 C
1391 24-01-2016 19:50:00 6.6 C 95 % 5.86 C
1392 24-01-2016 19:55:00 6.6 C 95 % 5.86 C
1393 24-01-2016 20:00:00 6.7 C 95 % 5.96 C
1394 24-01-2016 20:05:00 6.7 C 95 % 5.96 C
1395 24-01-2016 20:10:00 6.7 C 95 % 5.96 C
1396 24-01-2016 20:15:00 6.8 C 95 % 6.06 C
1397 24-01-2016 20:20:00 6.8 C 95 % 6.06 C
1398 24-01-2016 20:25:00 6.8 C 95 % 6.06 C
1399 24-01-2016 20:30:00 6.8 C 95 % 6.06 C
1400 24-01-2016 20:35:00 6.9 C 95 % 6.16 C
Sensor: Nr:Datum:Temp:Feuchte:Taupunkt:
Aussen-T/F 1401 24-01-2016 20:40:00 6.9 C 95 % 6.16 C
1402 24-01-2016 20:45:00 6.9 C 95 % 6.16 C
1403 24-01-2016 20:50:00 7 C 94 % 6.1 C
1404 24-01-2016 20:55:00 7 C 94 % 6.1 C
1405 24-01-2016 21:00:00 7 C 94 % 6.1 C
1406 24-01-2016 21:05:00 6.9 C 94 % 6 C
1407 24-01-2016 21:10:00 7 C 94 % 6.1 C
1408 24-01-2016 21:15:00 7 C 94 % 6.1 C
1409 24-01-2016 21:20:00 7 C 94 % 6.1 C
1410 24-01-2016 21:25:00 7.1 C 94 % 6.2 C
1411 24-01-2016 21:30:00 7.1 C 94 % 6.2 C
1412 24-01-2016 21:35:00 7.1 C 94 % 6.2 C
1413 24-01-2016 21:40:00 7.1 C 94 % 6.2 C
1414 24-01-2016 21:45:00 7.1 C 94 % 6.2 C
1415 24-01-2016 21:50:00 7.2 C 94 % 6.3 C
1416 24-01-2016 21:55:00 7.2 C 94 % 6.3 C
1417 24-01-2016 22:00:00 7.3 C 94 % 6.4 C
1418 24-01-2016 22:05:00 7.3 C 93 % 6.25 C
1419 24-01-2016 22:10:00 7.3 C 93 % 6.25 C
1420 24-01-2016 22:15:00 7.3 C 93 % 6.25 C
1421 24-01-2016 22:20:00 7.3 C 93 % 6.25 C
1422 24-01-2016 22:25:00 7.3 C 93 % 6.25 C
1423 24-01-2016 22:30:00 7.3 C 93 % 6.25 C
1424 24-01-2016 22:35:00 7.3 C 93 % 6.25 C
1425 24-01-2016 22:40:00 7.2 C 93 % 6.15 C
Sensor: Nr:Datum:Temp:Feuchte:Taupunkt:
Aussen-T/F 1426 24-01-2016 22:45:00 7.2 C 93 % 6.15 C
1427 24-01-2016 22:50:00 7.2 C 93 % 6.15 C
1428 24-01-2016 22:55:00 7.2 C 93 % 6.15 C
1429 24-01-2016 23:00:00 7.2 C 93 % 6.15 C
1430 24-01-2016 23:05:00 7.2 C 93 % 6.15 C
1431 24-01-2016 23:10:00 7.3 C 93 % 6.25 C
1432 24-01-2016 23:15:00 7.3 C 93 % 6.25 C
1433 24-01-2016 23:20:00 7.3 C 93 % 6.25 C
1434 24-01-2016 23:25:00 7.3 C 93 % 6.25 C
1435 24-01-2016 23:30:00 7.3 C 93 % 6.25 C
1436 24-01-2016 23:35:00 7.3 C 93 % 6.25 C
1437 24-01-2016 23:40:00 7.3 C 93 % 6.25 C
1438 24-01-2016 23:45:00 7.3 C 93 % 6.25 C
1439 24-01-2016 23:50:00 7.3 C 94 % 6.4 C
1440 24-01-2016 23:55:00 7.3 C 93 % 6.25 C
1441 25-01-2016 00:00:00 7.3 C 94 % 6.4 C
1442 25-01-2016 00:05:00 7.3 C 93 % 6.25 C
1443 25-01-2016 00:10:00 7.3 C 93 % 6.25 C
1444 25-01-2016 00:15:00 7.3 C 93 % 6.25 C
1445 25-01-2016 00:20:00 7.3 C 93 % 6.25 C
1446 25-01-2016 00:25:00 7.3 C 94 % 6.4 C
1447 25-01-2016 00:30:00 7.3 C 94 % 6.4 C
1448 25-01-2016 00:35:00 7.2 C 94 % 6.3 C
1449 25-01-2016 00:40:00 7.2 C 94 % 6.3 C
1450 25-01-2016 00:45:00 7.2 C 94 % 6.3 C
Sensor: Nr:Datum:Temp:Feuchte:Taupunkt:
Aussen-T/F 1451 25-01-2016 00:50:00 7.1 C 94 % 6.2 C
1452 25-01-2016 00:55:00 7.1 C 95 % 6.35 C
1453 25-01-2016 01:00:00 7.1 C 95 % 6.35 C
1454 25-01-2016 01:05:00 7.1 C 95 % 6.35 C
1455 25-01-2016 01:10:00 7.1 C 95 % 6.35 C
1456 25-01-2016 01:15:00 7.2 C 95 % 6.45 C
1457 25-01-2016 01:20:00 7.2 C 95 % 6.45 C
1458 25-01-2016 01:25:00 7.2 C 95 % 6.45 C
1459 25-01-2016 01:30:00 7.2 C 95 % 6.45 C
1460 25-01-2016 01:35:00 7.3 C 95 % 6.55 C
1461 25-01-2016 01:40:00 7.2 C 95 % 6.45 C
1462 25-01-2016 01:45:00 7.1 C 95 % 6.35 C
1463 25-01-2016 01:50:00 7.1 C 95 % 6.35 C
1464 25-01-2016 01:55:00 7 C 95 % 6.26 C
1465 25-01-2016 02:00:00 7 C 95 % 6.26 C
1466 25-01-2016 02:05:00 7 C 95 % 6.26 C
1467 25-01-2016 02:10:00 7 C 95 % 6.26 C
1468 25-01-2016 02:15:00 7 C 95 % 6.26 C
1469 25-01-2016 02:20:00 7 C 95 % 6.26 C
1470 25-01-2016 02:25:00 7 C 95 % 6.26 C
1471 25-01-2016 02:30:00 7 C 95 % 6.26 C
1472 25-01-2016 02:35:00 7 C 95 % 6.26 C
1473 25-01-2016 02:40:00 6.9 C 95 % 6.16 C
1474 25-01-2016 02:45:00 6.9 C 95 % 6.16 C
1475 25-01-2016 02:50:00 6.9 C 95 % 6.16 C
Sensor: Nr:Datum:Temp:Feuchte:Taupunkt:
Aussen-T/F 1476 25-01-2016 02:55:00 6.9 C 96 % 6.31 C
1477 25-01-2016 03:00:00 6.9 C 96 % 6.31 C
1478 25-01-2016 03:05:00 6.9 C 96 % 6.31 C
1479 25-01-2016 03:10:00 6.9 C 96 % 6.31 C
1480 25-01-2016 03:15:00 7 C 96 % 6.41 C
1481 25-01-2016 03:20:00 7 C 96 % 6.41 C
1482 25-01-2016 03:25:00 7.1 C 96 % 6.51 C
1483 25-01-2016 03:30:00 7.1 C 96 % 6.51 C
1484 25-01-2016 03:35:00 7.1 C 96 % 6.51 C
1485 25-01-2016 03:40:00 7.1 C 96 % 6.51 C
1486 25-01-2016 03:45:00 7.1 C 96 % 6.51 C
1487 25-01-2016 03:50:00 7.2 C 96 % 6.61 C
1488 25-01-2016 03:55:00 7.2 C 96 % 6.61 C
1489 25-01-2016 04:00:00 7.2 C 95 % 6.45 C
1490 25-01-2016 04:05:00 7.3 C 95 % 6.55 C
1491 25-01-2016 04:10:00 7.3 C 95 % 6.55 C
1492 25-01-2016 04:15:00 7.3 C 95 % 6.55 C
1493 25-01-2016 04:20:00 7.3 C 95 % 6.55 C
1494 25-01-2016 04:25:00 7.3 C 95 % 6.55 C
1495 25-01-2016 04:30:00 7.3 C 95 % 6.55 C
1496 25-01-2016 04:35:00 7.4 C 95 % 6.65 C
1497 25-01-2016 04:40:00 7.4 C 95 % 6.65 C
1498 25-01-2016 04:45:00 7.4 C 95 % 6.65 C
1499 25-01-2016 04:50:00 7.4 C 95 % 6.65 C
1500 25-01-2016 04:55:00 7.4 C 95 % 6.65 C
Sensor: Nr:Datum:Temp:Feuchte:Taupunkt:
Aussen-T/F 1501 25-01-2016 05:00:00 7.4 C 95 % 6.65 C
1502 25-01-2016 05:05:00 7.4 C 95 % 6.65 C
1503 25-01-2016 05:10:00 7.4 C 95 % 6.65 C
1504 25-01-2016 05:15:00 7.4 C 95 % 6.65 C
1505 25-01-2016 05:20:00 7.4 C 95 % 6.65 C
1506 25-01-2016 05:25:00 7.4 C 95 % 6.65 C
1507 25-01-2016 05:30:00 7.4 C 95 % 6.65 C
1508 25-01-2016 05:35:00 7.4 C 95 % 6.65 C
1509 25-01-2016 05:40:00 7.4 C 95 % 6.65 C
1510 25-01-2016 05:45:00 7.4 C 95 % 6.65 C
1511 25-01-2016 05:50:00 7.4 C 95 % 6.65 C
1512 25-01-2016 05:55:00 7.3 C 95 % 6.55 C
1513 25-01-2016 06:00:00 7.3 C 95 % 6.55 C
1514 25-01-2016 06:05:00 7.3 C 95 % 6.55 C
1515 25-01-2016 06:10:00 7.3 C 95 % 6.55 C
1516 25-01-2016 06:15:00 7.3 C 95 % 6.55 C
1517 25-01-2016 06:20:00 7.3 C 95 % 6.55 C
1518 25-01-2016 06:25:00 7.3 C 95 % 6.55 C
1519 25-01-2016 06:30:00 7.3 C 95 % 6.55 C
1520 25-01-2016 06:35:00 7.3 C 95 % 6.55 C
1521 25-01-2016 06:40:00 7.3 C 95 % 6.55 C
1522 25-01-2016 06:45:00 7.2 C 95 % 6.45 C
1523 25-01-2016 06:50:00 7.2 C 95 % 6.45 C
1524 25-01-2016 06:55:00 7.2 C 95 % 6.45 C
1525 25-01-2016 07:00:00 7.2 C 95 % 6.45 C
Sensor: Nr:Datum:Temp:Feuchte:Taupunkt:
Aussen-T/F 1526 25-01-2016 07:05:00 7.2 C 95 % 6.45 C
1527 25-01-2016 07:10:00 7.2 C 95 % 6.45 C
1528 25-01-2016 07:15:00 7.2 C 95 % 6.45 C
1529 25-01-2016 07:20:00 7.2 C 95 % 6.45 C
1530 25-01-2016 07:25:00 7.2 C 95 % 6.45 C
1531 25-01-2016 07:30:00 7.2 C 95 % 6.45 C
1532 25-01-2016 07:35:00 7.2 C 95 % 6.45 C
1533 25-01-2016 07:40:00 7.2 C 95 % 6.45 C
1534 25-01-2016 07:45:00 7.2 C 95 % 6.45 C
1535 25-01-2016 07:50:00 7.2 C 95 % 6.45 C
1536 25-01-2016 07:55:00 7.2 C 95 % 6.45 C
1537 25-01-2016 08:00:00 7.2 C 96 % 6.61 C
1538 25-01-2016 08:05:00 7.2 C 96 % 6.61 C
1539 25-01-2016 08:10:00 7.2 C 96 % 6.61 C
1540 25-01-2016 08:15:00 7.2 C 96 % 6.61 C
1541 25-01-2016 08:20:00 7.2 C 96 % 6.61 C
1542 25-01-2016 08:25:00 7.2 C 96 % 6.61 C
1543 25-01-2016 08:30:00 7.2 C 96 % 6.61 C
1544 25-01-2016 08:35:00 7.2 C 96 % 6.61 C
1545 25-01-2016 08:40:00 7.2 C 96 % 6.61 C
1546 25-01-2016 08:45:00 7.2 C 96 % 6.61 C
1547 25-01-2016 08:50:00 7.2 C 96 % 6.61 C
1548 25-01-2016 08:55:00 7.2 C 96 % 6.61 C
1549 25-01-2016 09:00:00 7.3 C 96 % 6.71 C
1550 25-01-2016 09:05:00 7.3 C 96 % 6.71 C
Sensor: Nr:Datum:Temp:Feuchte:Taupunkt:
Aussen-T/F 1551 25-01-2016 09:10:00 7.3 C 96 % 6.71 C
1552 25-01-2016 09:15:00 7.3 C 96 % 6.71 C
1553 25-01-2016 09:20:00 7.2 C 96 % 6.61 C
1554 25-01-2016 09:25:00 7.2 C 96 % 6.61 C
1555 25-01-2016 09:30:00 7.2 C 96 % 6.61 C
1556 25-01-2016 09:35:00 7.2 C 96 % 6.61 C
1557 25-01-2016 09:40:00 7.2 C 96 % 6.61 C
1558 25-01-2016 09:45:00 7.2 C 96 % 6.61 C
1559 25-01-2016 09:50:00 7.3 C 96 % 6.71 C
1560 25-01-2016 09:55:00 7.3 C 96 % 6.71 C
1561 25-01-2016 10:00:00 7.3 C 96 % 6.71 C
1562 25-01-2016 10:05:00 7.4 C 96 % 6.8 C
1563 25-01-2016 10:10:00 7.4 C 96 % 6.8 C
1564 25-01-2016 10:15:00 7.4 C 96 % 6.8 C
1565 25-01-2016 10:20:00 7.4 C 96 % 6.8 C
1566 25-01-2016 10:25:00 7.5 C 96 % 6.9 C
1567 25-01-2016 10:30:00 7.6 C 96 % 7 C
1568 25-01-2016 10:35:00 7.6 C 96 % 7 C
1569 25-01-2016 10:40:00 7.7 C 96 % 7.1 C
1570 25-01-2016 10:45:00 7.8 C 96 % 7.2 C
1571 25-01-2016 10:50:00 7.8 C 96 % 7.2 C
1572 25-01-2016 10:55:00 7.9 C 96 % 7.3 C
1573 25-01-2016 11:00:00 7.9 C 95 % 7.15 C
1574 25-01-2016 11:05:00 8.1 C 95 % 7.35 C
1575 25-01-2016 11:10:00 8.1 C 95 % 7.35 C
Sensor: Nr:Datum:Temp:Feuchte:Taupunkt:
Aussen-T/F 1576 25-01-2016 11:15:00 8.2 C 95 % 7.45 C
1577 25-01-2016 11:20:00 8.3 C 95 % 7.55 C
1578 25-01-2016 11:25:00 8.4 C 95 % 7.65 C
1579 25-01-2016 11:30:00 8.5 C 95 % 7.75 C
1580 25-01-2016 11:35:00 8.6 C 95 % 7.85 C
1581 25-01-2016 11:40:00 8.8 C 95 % 8.04 C
1582 25-01-2016 11:45:00 8.9 C 95 % 8.14 C
1583 25-01-2016 11:50:00 9.1 C 95 % 8.34 C
1584 25-01-2016 11:55:00 9.4 C 95 % 8.64 C
1585 25-01-2016 12:00:00 9.6 C 94 % 8.68 C
1586 25-01-2016 12:05:00 9.7 C 94 % 8.78 C
1587 25-01-2016 12:10:00 9.7 C 93 % 8.62 C
1588 25-01-2016 12:15:00 9.6 C 93 % 8.53 C
1589 25-01-2016 12:20:00 9.6 C 93 % 8.53 C
1590 25-01-2016 12:25:00 9.6 C 93 % 8.53 C
1591 25-01-2016 12:30:00 9.5 C 93 % 8.43 C
1592 25-01-2016 12:35:00 9.5 C 93 % 8.43 C
1593 25-01-2016 12:40:00 9.4 C 94 % 8.48 C
1594 25-01-2016 12:45:00 9.4 C 94 % 8.48 C
1595 25-01-2016 12:50:00 9.3 C 94 % 8.39 C
1596 25-01-2016 12:55:00 9.4 C 94 % 8.48 C
1597 25-01-2016 13:00:00 9.6 C 94 % 8.68 C
1598 25-01-2016 13:05:00 9.7 C 94 % 8.78 C
1599 25-01-2016 13:10:00 9.7 C 94 % 8.78 C
1600 25-01-2016 13:15:00 9.7 C 93 % 8.62 C
Sensor: Nr:Datum:Temp:Feuchte:Taupunkt:
Aussen-T/F 1601 25-01-2016 13:20:00 9.8 C 94 % 8.88 C
1602 25-01-2016 13:25:00 9.9 C 93 % 8.82 C
1603 25-01-2016 13:30:00 10.1 C 92 % 8.86 C
1604 25-01-2016 13:35:00 10.1 C 91 % 8.7 C
1605 25-01-2016 13:40:00 10.1 C 91 % 8.7 C
1606 25-01-2016 13:45:00 10 C 92 % 8.76 C
1607 25-01-2016 13:50:00 10 C 91 % 8.6 C
1608 25-01-2016 13:55:00 10 C 91 % 8.6 C
1609 25-01-2016 14:00:00 10 C 91 % 8.6 C
1610 25-01-2016 14:05:00 10 C 91 % 8.6 C
1611 25-01-2016 14:10:00 9.9 C 91 % 8.5 C
1612 25-01-2016 14:15:00 9.9 C 91 % 8.5 C
1613 25-01-2016 14:20:00 9.9 C 91 % 8.5 C
1614 25-01-2016 14:25:00 9.9 C 91 % 8.5 C
1615 25-01-2016 14:30:00 10.3 C 88 % 8.4 C
1616 25-01-2016 14:35:00 10.5 C 88 % 8.6 C
1617 25-01-2016 14:40:00 10.5 C 88 % 8.6 C
1618 25-01-2016 14:45:00 10.4 C 88 % 8.5 C
1619 25-01-2016 14:50:00 10.3 C 89 % 8.57 C
1620 25-01-2016 14:55:00 10.2 C 89 % 8.47 C
1621 25-01-2016 15:00:00 10.1 C 89 % 8.37 C
1622 25-01-2016 15:05:00 10.1 C 89 % 8.37 C
1623 25-01-2016 15:10:00 10 C 89 % 8.27 C
1624 25-01-2016 15:15:00 9.9 C 90 % 8.34 C
1625 25-01-2016 15:20:00 9.9 C 90 % 8.34 C
Sensor: Nr:Datum:Temp:Feuchte:Taupunkt:
Aussen-T/F 1626 25-01-2016 15:25:00 9.8 C 90 % 8.24 C
1627 25-01-2016 15:30:00 9.8 C 90 % 8.24 C
1628 25-01-2016 15:35:00 9.8 C 90 % 8.24 C
1629 25-01-2016 15:40:00 9.7 C 90 % 8.14 C
1630 25-01-2016 15:45:00 9.7 C 90 % 8.14 C
1631 25-01-2016 15:50:00 9.6 C 90 % 8.04 C
1632 25-01-2016 15:55:00 9.5 C 90 % 7.94 C
1633 25-01-2016 16:00:00 9.4 C 90 % 7.85 C
1634 25-01-2016 16:05:00 9.3 C 90 % 7.75 C
1635 25-01-2016 16:10:00 9.3 C 90 % 7.75 C
1636 25-01-2016 16:15:00 9.3 C 90 % 7.75 C
1637 25-01-2016 16:20:00 9.3 C 90 % 7.75 C
1638 25-01-2016 16:25:00 9.2 C 90 % 7.65 C
1639 25-01-2016 16:30:00 9.2 C 90 % 7.65 C
1640 25-01-2016 16:35:00 9.1 C 90 % 7.55 C
1641 25-01-2016 16:40:00 8.9 C 90 % 7.35 C
1642 25-01-2016 16:45:00 8.8 C 90 % 7.25 C
1643 25-01-2016 16:50:00 8.7 C 90 % 7.15 C
1644 25-01-2016 16:55:00 8.7 C 90 % 7.15 C
1645 25-01-2016 17:00:00 8.5 C 90 % 6.96 C
1646 25-01-2016 17:05:00 8.4 C 90 % 6.86 C
1647 25-01-2016 17:10:00 8.3 C 90 % 6.76 C
1648 25-01-2016 17:15:00 8.2 C 90 % 6.66 C
1649 25-01-2016 17:20:00 8.1 C 91 % 6.72 C
1650 25-01-2016 17:25:00 7.9 C 91 % 6.52 C
Sensor: Nr:Datum:Temp:Feuchte:Taupunkt:
Aussen-T/F 1651 25-01-2016 17:30:00 7.8 C 91 % 6.43 C
1652 25-01-2016 17:35:00 7.7 C 91 % 6.33 C
1653 25-01-2016 17:40:00 7.6 C 91 % 6.23 C
1654 25-01-2016 17:45:00 7.6 C 92 % 6.39 C
1655 25-01-2016 17:50:00 7.5 C 91 % 6.13 C
1656 25-01-2016 17:55:00 7.4 C 92 % 6.19 C
1657 25-01-2016 18:00:00 7.3 C 92 % 6.09 C
1658 25-01-2016 18:05:00 7.3 C 92 % 6.09 C
1659 25-01-2016 18:10:00 7.3 C 92 % 6.09 C
1660 25-01-2016 18:15:00 7.2 C 92 % 5.99 C
1661 25-01-2016 18:20:00 7.2 C 92 % 5.99 C
1662 25-01-2016 18:25:00 7.1 C 92 % 5.89 C
1663 25-01-2016 18:30:00 7 C 92 % 5.79 C
1664 25-01-2016 18:35:00 6.9 C 92 % 5.69 C
1665 25-01-2016 18:40:00 6.9 C 92 % 5.69 C
1666 25-01-2016 18:45:00 6.8 C 92 % 5.59 C
1667 25-01-2016 18:50:00 6.7 C 92 % 5.49 C
1668 25-01-2016 18:55:00 6.7 C 93 % 5.65 C
1669 25-01-2016 19:00:00 6.7 C 92 % 5.49 C
1670 25-01-2016 19:05:00 6.6 C 92 % 5.4 C
1671 25-01-2016 19:10:00 6.4 C 92 % 5.2 C
1672 25-01-2016 19:15:00 6.3 C 92 % 5.1 C
1673 25-01-2016 19:20:00 6.3 C 92 % 5.1 C
1674 25-01-2016 19:25:00 6.2 C 92 % 5 C
1675 25-01-2016 19:30:00 6.1 C 92 % 4.9 C
Sensor: Nr:Datum:Temp:Feuchte:Taupunkt:
Aussen-T/F 1676 25-01-2016 19:35:00 6 C 91 % 4.65 C
1677 25-01-2016 19:40:00 5.7 C 91 % 4.35 C
1678 25-01-2016 19:45:00 5.5 C 92 % 4.31 C
1679 25-01-2016 19:50:00 5.4 C 93 % 4.36 C
1680 25-01-2016 19:55:00 5.4 C 93 % 4.36 C
1681 25-01-2016 20:00:00 5.4 C 93 % 4.36 C
1682 25-01-2016 20:05:00 5.5 C 93 % 4.46 C
1683 25-01-2016 20:10:00 5.6 C 93 % 4.56 C
1684 25-01-2016 20:15:00 5.6 C 93 % 4.56 C
1685 25-01-2016 20:20:00 5.5 C 93 % 4.46 C
1686 25-01-2016 20:25:00 5.4 C 93 % 4.36 C
1687 25-01-2016 20:30:00 5.3 C 93 % 4.26 C
1688 25-01-2016 20:35:00 5.2 C 92 % 4.01 C
1689 25-01-2016 20:40:00 5.2 C 93 % 4.16 C
1690 25-01-2016 20:45:00 5.1 C 93 % 4.06 C
1691 25-01-2016 20:50:00 5 C 93 % 3.96 C
1692 25-01-2016 20:55:00 4.9 C 93 % 3.87 C
1693 25-01-2016 21:00:00 4.8 C 94 % 3.92 C
1694 25-01-2016 21:05:00 5.1 C 94 % 4.22 C
1695 25-01-2016 21:10:00 5.1 C 94 % 4.22 C
1696 25-01-2016 21:15:00 5.1 C 93 % 4.06 C
1697 25-01-2016 21:20:00 5.1 C 93 % 4.06 C
1698 25-01-2016 21:25:00 4.9 C 93 % 3.87 C
1699 25-01-2016 21:30:00 4.8 C 92 % 3.61 C
1700 25-01-2016 21:35:00 4.7 C 93 % 3.67 C
Sensor: Nr:Datum:Temp:Feuchte:Taupunkt:
Aussen-T/F 1701 25-01-2016 21:40:00 4.6 C 93 % 3.57 C
1702 25-01-2016 21:45:00 4.8 C 94 % 3.92 C
1703 25-01-2016 21:50:00 5.1 C 95 % 4.37 C
1704 25-01-2016 21:55:00 5.2 C 95 % 4.47 C
1705 25-01-2016 22:00:00 5.3 C 94 % 4.41 C
1706 25-01-2016 22:05:00 5.2 C 93 % 4.16 C
1707 25-01-2016 22:10:00 5.2 C 92 % 4.01 C
1708 25-01-2016 22:15:00 5.2 C 92 % 4.01 C
1709 25-01-2016 22:20:00 5.2 C 92 % 4.01 C
1710 25-01-2016 22:25:00 5.2 C 92 % 4.01 C
1711 25-01-2016 22:30:00 5.3 C 92 % 4.11 C
1712 25-01-2016 22:35:00 5.3 C 92 % 4.11 C
1713 25-01-2016 22:40:00 5.4 C 93 % 4.36 C
1714 25-01-2016 22:45:00 5.7 C 92 % 4.5 C
1715 25-01-2016 22:50:00 5.9 C 90 % 4.39 C
1716 25-01-2016 22:55:00 5.9 C 90 % 4.39 C
1717 25-01-2016 23:00:00 5.9 C 89 % 4.23 C
1718 25-01-2016 23:05:00 6.1 C 90 % 4.59 C
1719 25-01-2016 23:10:00 6.2 C 90 % 4.69 C
1720 25-01-2016 23:15:00 6.5 C 89 % 4.82 C
1721 25-01-2016 23:20:00 7.1 C 87 % 5.09 C
1722 25-01-2016 23:25:00 7.5 C 85 % 5.15 C
1723 25-01-2016 23:30:00 7.8 C 83 % 5.1 C
1724 25-01-2016 23:35:00 7.8 C 83 % 5.1 C
1725 25-01-2016 23:40:00 7.3 C 85 % 4.95 C
Sensor: Nr:Datum:Temp:Feuchte:Taupunkt:
Aussen-T/F 1726 25-01-2016 23:45:00 7.2 C 87 % 5.19 C
1727 25-01-2016 23:50:00 7.1 C 88 % 5.25 C
1728 25-01-2016 23:55:00 7.1 C 89 % 5.41 C
1729 26-01-2016 00:00:00 7.1 C 88 % 5.25 C
1730 26-01-2016 00:05:00 7.2 C 88 % 5.35 C
1731 26-01-2016 00:10:00 7.4 C 87 % 5.38 C
1732 26-01-2016 00:15:00 7.6 C 87 % 5.58 C
1733 26-01-2016 00:20:00 7.6 C 87 % 5.58 C
1734 26-01-2016 00:25:00 7.7 C 86 % 5.51 C
1735 26-01-2016 00:30:00 7.7 C 86 % 5.51 C
1736 26-01-2016 00:35:00 7.7 C 86 % 5.51 C
1737 26-01-2016 00:40:00 7.7 C 87 % 5.68 C
1738 26-01-2016 00:45:00 7.7 C 87 % 5.68 C
1739 26-01-2016 00:50:00 7.7 C 87 % 5.68 C
1740 26-01-2016 00:55:00 7.8 C 86 % 5.61 C
1741 26-01-2016 01:00:00 7.9 C 86 % 5.71 C
1742 26-01-2016 01:05:00 8.1 C 85 % 5.73 C
1743 26-01-2016 01:10:00 8.2 C 84 % 5.66 C
1744 26-01-2016 01:15:00 8.3 C 84 % 5.76 C
1745 26-01-2016 01:20:00 8.4 C 83 % 5.69 C
1746 26-01-2016 01:25:00 8.4 C 83 % 5.69 C
1747 26-01-2016 01:30:00 8.4 C 84 % 5.86 C
1748 26-01-2016 01:35:00 8.5 C 83 % 5.78 C
1749 26-01-2016 01:40:00 8.6 C 82 % 5.71 C
1750 26-01-2016 01:45:00 8.8 C 82 % 5.9 C
Sensor: Nr:Datum:Temp:Feuchte:Taupunkt:
Aussen-T/F 1751 26-01-2016 01:50:00 8.9 C 82 % 6 C
1752 26-01-2016 01:55:00 8.9 C 81 % 5.82 C
1753 26-01-2016 02:00:00 8.9 C 81 % 5.82 C
1754 26-01-2016 02:05:00 8.9 C 81 % 5.82 C
1755 26-01-2016 02:10:00 8.7 C 81 % 5.63 C
1756 26-01-2016 02:15:00 8.6 C 81 % 5.53 C
1757 26-01-2016 02:20:00 8.4 C 82 % 5.51 C
1758 26-01-2016 02:25:00 8.2 C 84 % 5.66 C
1759 26-01-2016 02:30:00 8 C 84 % 5.47 C
1760 26-01-2016 02:35:00 7.8 C 85 % 5.44 C
1761 26-01-2016 02:40:00 7.7 C 85 % 5.34 C
1762 26-01-2016 02:45:00 7.6 C 85 % 5.24 C
1763 26-01-2016 02:50:00 7.4 C 85 % 5.05 C
1764 26-01-2016 02:55:00 7.4 C 85 % 5.05 C
1765 26-01-2016 03:00:00 7.4 C 86 % 5.22 C
1766 26-01-2016 03:05:00 7.4 C 86 % 5.22 C
1767 26-01-2016 03:10:00 7.6 C 85 % 5.24 C
1768 26-01-2016 03:15:00 7.7 C 85 % 5.34 C
1769 26-01-2016 03:20:00 7.7 C 84 % 5.17 C
1770 26-01-2016 03:25:00 7.8 C 85 % 5.44 C
1771 26-01-2016 03:30:00 7.9 C 84 % 5.37 C
1772 26-01-2016 03:35:00 7.9 C 84 % 5.37 C
1773 26-01-2016 03:40:00 8 C 84 % 5.47 C
1774 26-01-2016 03:45:00 7.9 C 84 % 5.37 C
1775 26-01-2016 03:50:00 8 C 84 % 5.47 C
Sensor: Nr:Datum:Temp:Feuchte:Taupunkt:
Aussen-T/F 1776 26-01-2016 03:55:00 8.1 C 84 % 5.56 C
1777 26-01-2016 04:00:00 8.1 C 84 % 5.56 C
1778 26-01-2016 04:05:00 8.1 C 84 % 5.56 C
1779 26-01-2016 04:10:00 8.1 C 84 % 5.56 C
1780 26-01-2016 04:15:00 8.2 C 84 % 5.66 C
1781 26-01-2016 04:20:00 8.2 C 83 % 5.49 C
1782 26-01-2016 04:25:00 8.2 C 83 % 5.49 C
1783 26-01-2016 04:30:00 8.2 C 84 % 5.66 C
1784 26-01-2016 04:35:00 8.2 C 84 % 5.66 C
1785 26-01-2016 04:40:00 8 C 84 % 5.47 C
1786 26-01-2016 04:45:00 7.8 C 85 % 5.44 C
1787 26-01-2016 04:50:00 7.6 C 85 % 5.24 C
1788 26-01-2016 04:55:00 7.3 C 86 % 5.12 C
1789 26-01-2016 05:00:00 7.3 C 87 % 5.28 C
1790 26-01-2016 05:05:00 7.3 C 87 % 5.28 C
1791 26-01-2016 05:10:00 7.4 C 87 % 5.38 C
1792 26-01-2016 05:15:00 7.6 C 87 % 5.58 C
1793 26-01-2016 05:20:00 7.8 C 86 % 5.61 C
1794 26-01-2016 05:25:00 7.9 C 86 % 5.71 C
1795 26-01-2016 05:30:00 8.1 C 86 % 5.9 C
1796 26-01-2016 05:35:00 8.2 C 86 % 6 C
1797 26-01-2016 05:40:00 8.3 C 86 % 6.1 C
1798 26-01-2016 05:45:00 8.3 C 86 % 6.1 C
1799 26-01-2016 05:50:00 8.2 C 86 % 6 C
1800 26-01-2016 05:55:00 8.1 C 86 % 5.9 C
Sensor: Nr:Datum:Temp:Feuchte:Taupunkt:
Aussen-T/F 1801 26-01-2016 06:00:00 8.1 C 88 % 6.24 C
1802 26-01-2016 06:05:00 8 C 88 % 6.14 C
1803 26-01-2016 06:10:00 7.9 C 89 % 6.2 C
1804 26-01-2016 06:15:00 7.9 C 89 % 6.2 C
1805 26-01-2016 06:20:00 7.8 C 88 % 5.94 C
1806 26-01-2016 06:25:00 7.7 C 89 % 6 C
1807 26-01-2016 06:30:00 7.6 C 89 % 5.91 C
1808 26-01-2016 06:35:00 7.4 C 90 % 5.87 C
1809 26-01-2016 06:40:00 7.4 C 90 % 5.87 C
1810 26-01-2016 06:45:00 7.3 C 90 % 5.77 C
1811 26-01-2016 06:50:00 7.3 C 90 % 5.77 C
1812 26-01-2016 06:55:00 7.4 C 90 % 5.87 C
1813 26-01-2016 07:00:00 7.5 C 90 % 5.97 C
1814 26-01-2016 07:05:00 7.6 C 90 % 6.07 C
1815 26-01-2016 07:10:00 7.6 C 90 % 6.07 C
1816 26-01-2016 07:15:00 7.6 C 90 % 6.07 C
1817 26-01-2016 07:20:00 7.6 C 90 % 6.07 C
1818 26-01-2016 07:25:00 7.7 C 91 % 6.33 C
1819 26-01-2016 07:30:00 7.7 C 91 % 6.33 C
1820 26-01-2016 07:35:00 7.8 C 91 % 6.43 C
1821 26-01-2016 07:40:00 7.9 C 91 % 6.52 C
1822 26-01-2016 07:45:00 8 C 91 % 6.62 C
1823 26-01-2016 07:50:00 8.1 C 91 % 6.72 C
1824 26-01-2016 07:55:00 8.2 C 91 % 6.82 C
1825 26-01-2016 08:00:00 8.2 C 91 % 6.82 C
Sensor: Nr:Datum:Temp:Feuchte:Taupunkt:
Aussen-T/F 1826 26-01-2016 08:05:00 8.2 C 91 % 6.82 C
1827 26-01-2016 08:10:00 8.2 C 90 % 6.66 C
1828 26-01-2016 08:15:00 8.2 C 90 % 6.66 C
1829 26-01-2016 08:20:00 8.2 C 90 % 6.66 C
1830 26-01-2016 08:25:00 8.2 C 90 % 6.66 C
1831 26-01-2016 08:30:00 8.2 C 90 % 6.66 C
1832 26-01-2016 08:35:00 8.2 C 90 % 6.66 C
1833 26-01-2016 08:40:00 8.2 C 90 % 6.66 C
1834 26-01-2016 08:45:00 8.2 C 90 % 6.66 C
1835 26-01-2016 08:50:00 8.2 C 90 % 6.66 C
1836 26-01-2016 08:55:00 8.2 C 91 % 6.82 C
1837 26-01-2016 09:00:00 8.3 C 91 % 6.92 C
1838 26-01-2016 09:05:00 8.3 C 91 % 6.92 C
1839 26-01-2016 09:10:00 8.3 C 92 % 7.08 C
1840 26-01-2016 09:15:00 8.3 C 92 % 7.08 C
1841 26-01-2016 09:20:00 8.4 C 92 % 7.18 C
1842 26-01-2016 09:25:00 8.4 C 92 % 7.18 C
1843 26-01-2016 09:30:00 8.4 C 91 % 7.02 C
1844 26-01-2016 09:35:00 8.4 C 91 % 7.02 C
1845 26-01-2016 09:40:00 8.6 C 91 % 7.22 C
1846 26-01-2016 09:45:00 8.6 C 90 % 7.06 C
1847 26-01-2016 09:50:00 8.7 C 90 % 7.15 C
1848 26-01-2016 09:55:00 8.8 C 90 % 7.25 C
1849 26-01-2016 10:00:00 8.9 C 89 % 7.19 C
1850 26-01-2016 10:05:00 8.9 C 89 % 7.19 C
Sensor: Nr:Datum:Temp:Feuchte:Taupunkt:
Aussen-T/F 1851 26-01-2016 10:10:00 9 C 89 % 7.29 C
1852 26-01-2016 10:15:00 9.1 C 89 % 7.39 C
1853 26-01-2016 10:20:00 9.2 C 88 % 7.32 C
1854 26-01-2016 10:25:00 9.2 C 88 % 7.32 C
1855 26-01-2016 10:30:00 9.3 C 88 % 7.42 C
1856 26-01-2016 10:35:00 9.3 C 87 % 7.25 C
1857 26-01-2016 10:40:00 9.3 C 88 % 7.42 C
1858 26-01-2016 10:45:00 9.2 C 88 % 7.32 C
1859 26-01-2016 10:50:00 9.2 C 88 % 7.32 C
1860 26-01-2016 10:55:00 9.2 C 89 % 7.48 C
1861 26-01-2016 11:00:00 9.3 C 90 % 7.75 C
1862 26-01-2016 11:05:00 9.3 C 89 % 7.58 C
1863 26-01-2016 11:10:00 9.4 C 88 % 7.52 C
1864 26-01-2016 11:15:00 9.6 C 88 % 7.71 C
1865 26-01-2016 11:20:00 9.8 C 88 % 7.91 C
1866 26-01-2016 11:25:00 9.9 C 87 % 7.84 C
1867 26-01-2016 11:30:00 10.1 C 87 % 8.04 C
1868 26-01-2016 11:35:00 10.2 C 87 % 8.14 C
1869 26-01-2016 11:40:00 10.3 C 87 % 8.23 C
1870 26-01-2016 11:45:00 10.4 C 86 % 8.16 C
1871 26-01-2016 11:50:00 10.6 C 86 % 8.36 C
1872 26-01-2016 11:55:00 10.6 C 86 % 8.36 C
1873 26-01-2016 12:00:00 10.6 C 86 % 8.36 C
1874 26-01-2016 12:05:00 10.7 C 86 % 8.46 C
1875 26-01-2016 12:10:00 10.7 C 86 % 8.46 C
Sensor: Nr:Datum:Temp:Feuchte:Taupunkt:
Aussen-T/F 1876 26-01-2016 12:15:00 10.8 C 86 % 8.56 C
1877 26-01-2016 12:20:00 10.8 C 86 % 8.56 C
1878 26-01-2016 12:25:00 10.9 C 86 % 8.65 C
1879 26-01-2016 12:30:00 11 C 85 % 8.58 C
1880 26-01-2016 12:35:00 11.1 C 85 % 8.68 C
1881 26-01-2016 12:40:00 11.1 C 85 % 8.68 C
1882 26-01-2016 12:45:00 11.1 C 85 % 8.68 C
1883 26-01-2016 12:50:00 11.1 C 85 % 8.68 C
1884 26-01-2016 12:55:00 11.1 C 85 % 8.68 C
1885 26-01-2016 13:00:00 11 C 85 % 8.58 C
1886 26-01-2016 13:05:00 11.1 C 86 % 8.85 C
1887 26-01-2016 13:10:00 11.1 C 85 % 8.68 C
1888 26-01-2016 13:15:00 11.1 C 86 % 8.85 C
1889 26-01-2016 13:20:00 11.1 C 86 % 8.85 C
1890 26-01-2016 13:25:00 11.1 C 86 % 8.85 C
1891 26-01-2016 13:30:00 11.2 C 86 % 8.95 C
1892 26-01-2016 13:35:00 11.2 C 86 % 8.95 C
1893 26-01-2016 13:40:00 11.2 C 86 % 8.95 C
1894 26-01-2016 13:45:00 11.2 C 85 % 8.77 C
1895 26-01-2016 13:50:00 11.3 C 86 % 9.05 C
1896 26-01-2016 13:55:00 11.3 C 86 % 9.05 C
1897 26-01-2016 14:00:00 11.4 C 85 % 8.97 C
1898 26-01-2016 14:05:00 11.5 C 85 % 9.07 C
1899 26-01-2016 14:10:00 11.6 C 85 % 9.17 C
1900 26-01-2016 14:15:00 11.6 C 85 % 9.17 C
Sensor: Nr:Datum:Temp:Feuchte:Taupunkt:
Aussen-T/F 1901 26-01-2016 14:20:00 11.6 C 85 % 9.17 C
1902 26-01-2016 14:25:00 11.6 C 85 % 9.17 C
1903 26-01-2016 14:30:00 11.6 C 85 % 9.17 C
1904 26-01-2016 14:35:00 11.6 C 85 % 9.17 C
1905 26-01-2016 14:40:00 11.6 C 85 % 9.17 C
1906 26-01-2016 14:45:00 11.6 C 85 % 9.17 C
1907 26-01-2016 14:50:00 11.6 C 85 % 9.17 C
1908 26-01-2016 14:55:00 11.6 C 85 % 9.17 C
1909 26-01-2016 15:00:00 11.6 C 85 % 9.17 C
1910 26-01-2016 15:05:00 11.6 C 85 % 9.17 C
1911 26-01-2016 15:10:00 11.6 C 85 % 9.17 C
1912 26-01-2016 15:15:00 11.5 C 85 % 9.07 C
1913 26-01-2016 15:20:00 11.5 C 85 % 9.07 C
1914 26-01-2016 15:25:00 11.4 C 85 % 8.97 C
1915 26-01-2016 15:30:00 11.4 C 85 % 8.97 C
1916 26-01-2016 15:35:00 11.5 C 85 % 9.07 C
1917 26-01-2016 15:40:00 11.5 C 85 % 9.07 C
1918 26-01-2016 15:45:00 11.5 C 85 % 9.07 C
1919 26-01-2016 15:50:00 11.5 C 85 % 9.07 C
1920 26-01-2016 15:55:00 11.5 C 85 % 9.07 C
1921 26-01-2016 16:00:00 11.4 C 85 % 8.97 C
1922 26-01-2016 16:05:00 11.4 C 85 % 8.97 C
1923 26-01-2016 16:10:00 11.3 C 85 % 8.87 C
1924 26-01-2016 16:15:00 11.3 C 85 % 8.87 C
1925 26-01-2016 16:20:00 11.2 C 85 % 8.77 C
Sensor: Nr:Datum:Temp:Feuchte:Taupunkt:
Aussen-T/F 1926 26-01-2016 16:25:00 11.2 C 85 % 8.77 C
1927 26-01-2016 16:30:00 11.1 C 85 % 8.68 C
1928 26-01-2016 16:35:00 11 C 84 % 8.4 C
1929 26-01-2016 16:40:00 10.9 C 84 % 8.31 C
1930 26-01-2016 16:45:00 10.9 C 84 % 8.31 C
1931 26-01-2016 16:50:00 10.8 C 84 % 8.21 C
1932 26-01-2016 16:55:00 10.8 C 84 % 8.21 C
1933 26-01-2016 17:00:00 10.7 C 84 % 8.11 C
1934 26-01-2016 17:05:00 10.7 C 83 % 7.93 C
1935 26-01-2016 17:10:00 10.6 C 83 % 7.84 C
1936 26-01-2016 17:15:00 10.6 C 83 % 7.84 C
1937 26-01-2016 17:20:00 10.5 C 83 % 7.74 C
1938 26-01-2016 17:25:00 10.4 C 83 % 7.64 C
1939 26-01-2016 17:30:00 10.3 C 83 % 7.54 C
1940 26-01-2016 17:35:00 10.2 C 83 % 7.45 C
1941 26-01-2016 17:40:00 10 C 84 % 7.43 C
1942 26-01-2016 17:45:00 10 C 84 % 7.43 C
1943 26-01-2016 17:50:00 9.9 C 84 % 7.33 C
1944 26-01-2016 17:55:00 9.9 C 84 % 7.33 C
1945 26-01-2016 18:00:00 9.9 C 84 % 7.33 C
1946 26-01-2016 18:05:00 10.1 C 83 % 7.35 C
1947 26-01-2016 18:10:00 10.1 C 83 % 7.35 C
1948 26-01-2016 18:15:00 10.1 C 83 % 7.35 C
1949 26-01-2016 18:20:00 9.9 C 83 % 7.15 C
1950 26-01-2016 18:25:00 9.9 C 83 % 7.15 C
Sensor: Nr:Datum:Temp:Feuchte:Taupunkt:
Aussen-T/F 1951 26-01-2016 18:30:00 9.8 C 83 % 7.05 C
1952 26-01-2016 18:35:00 9.8 C 83 % 7.05 C
1953 26-01-2016 18:40:00 9.9 C 82 % 6.98 C
1954 26-01-2016 18:45:00 9.9 C 82 % 6.98 C
1955 26-01-2016 18:50:00 9.8 C 82 % 6.88 C
1956 26-01-2016 18:55:00 9.8 C 82 % 6.88 C
1957 26-01-2016 19:00:00 9.9 C 82 % 6.98 C
1958 26-01-2016 19:05:00 9.9 C 82 % 6.98 C
1959 26-01-2016 19:10:00 9.9 C 82 % 6.98 C
1960 26-01-2016 19:15:00 9.8 C 82 % 6.88 C
1961 26-01-2016 19:20:00 9.7 C 83 % 6.96 C
1962 26-01-2016 19:25:00 9.6 C 83 % 6.86 C
1963 26-01-2016 19:30:00 9.5 C 83 % 6.76 C
1964 26-01-2016 19:35:00 9.4 C 83 % 6.66 C
1965 26-01-2016 19:40:00 9.2 C 84 % 6.64 C
1966 26-01-2016 19:45:00 9.1 C 84 % 6.54 C
1967 26-01-2016 19:50:00 8.9 C 85 % 6.52 C
1968 26-01-2016 19:55:00 8.8 C 85 % 6.42 C
1969 26-01-2016 20:00:00 8.8 C 86 % 6.59 C
1970 26-01-2016 20:05:00 8.8 C 86 % 6.59 C
1971 26-01-2016 20:10:00 8.8 C 86 % 6.59 C
1972 26-01-2016 20:15:00 8.9 C 86 % 6.69 C
1973 26-01-2016 20:20:00 9.1 C 86 % 6.89 C
1974 26-01-2016 20:25:00 9.2 C 85 % 6.81 C
1975 26-01-2016 20:30:00 9.3 C 85 % 6.91 C
Sensor: Nr:Datum:Temp:Feuchte:Taupunkt:
Aussen-T/F 1976 26-01-2016 20:35:00 9.4 C 85 % 7.01 C
1977 26-01-2016 20:40:00 9.4 C 84 % 6.84 C
1978 26-01-2016 20:45:00 9.4 C 84 % 6.84 C
1979 26-01-2016 20:50:00 9.4 C 84 % 6.84 C
1980 26-01-2016 20:55:00 9.6 C 84 % 7.03 C
1981 26-01-2016 21:00:00 9.6 C 84 % 7.03 C
1982 26-01-2016 21:05:00 9.7 C 83 % 6.96 C
1983 26-01-2016 21:10:00 9.8 C 82 % 6.88 C
1984 26-01-2016 21:15:00 9.9 C 82 % 6.98 C
1985 26-01-2016 21:20:00 9.9 C 82 % 6.98 C
1986 26-01-2016 21:25:00 10 C 82 % 7.07 C
1987 26-01-2016 21:30:00 10.1 C 82 % 7.17 C
1988 26-01-2016 21:35:00 10.1 C 82 % 7.17 C
1989 26-01-2016 21:40:00 10.1 C 81 % 6.99 C
1990 26-01-2016 21:45:00 10.1 C 81 % 6.99 C
1991 26-01-2016 21:50:00 10.1 C 81 % 6.99 C
1992 26-01-2016 21:55:00 10.1 C 81 % 6.99 C
1993 26-01-2016 22:00:00 10.1 C 81 % 6.99 C
1994 26-01-2016 22:05:00 10 C 81 % 6.89 C
1995 26-01-2016 22:10:00 10 C 81 % 6.89 C
1996 26-01-2016 22:15:00 10.1 C 81 % 6.99 C
1997 26-01-2016 22:20:00 10.1 C 81 % 6.99 C
1998 26-01-2016 22:25:00 10.1 C 82 % 7.17 C
1999 26-01-2016 22:30:00 10.1 C 81 % 6.99 C
2000 26-01-2016 22:35:00 10.2 C 81 % 7.09 C
Sensor: Nr:Datum:Temp:Feuchte:Taupunkt:
Aussen-T/F 2001 26-01-2016 22:40:00 10.3 C 81 % 7.19 C
2002 26-01-2016 22:45:00 10.3 C 81 % 7.19 C
2003 26-01-2016 22:50:00 10.2 C 81 % 7.09 C
2004 26-01-2016 22:55:00 10.2 C 82 % 7.27 C
2005 26-01-2016 23:00:00 10.3 C 82 % 7.37 C
2006 26-01-2016 23:05:00 10.3 C 82 % 7.37 C
2007 26-01-2016 23:10:00 10.3 C 82 % 7.37 C
2008 26-01-2016 23:15:00 10.3 C 82 % 7.37 C
2009 26-01-2016 23:20:00 10.3 C 82 % 7.37 C
2010 26-01-2016 23:25:00 10.3 C 82 % 7.37 C
2011 26-01-2016 23:30:00 10.3 C 82 % 7.37 C
2012 26-01-2016 23:35:00 10.3 C 82 % 7.37 C
2013 26-01-2016 23:40:00 10.3 C 82 % 7.37 C
2014 26-01-2016 23:45:00 10.3 C 82 % 7.37 C
2015 26-01-2016 23:50:00 10.4 C 82 % 7.46 C
2016 26-01-2016 23:55:00 10.4 C 82 % 7.46 C
2017 27-01-2016 00:00:00 10.4 C 82 % 7.46 C
2018 27-01-2016 00:05:00 10.4 C 82 % 7.46 C
2019 27-01-2016 00:10:00 10.4 C 82 % 7.46 C
2020 27-01-2016 00:15:00 10.4 C 82 % 7.46 C
2021 27-01-2016 00:20:00 10.4 C 82 % 7.46 C
2022 27-01-2016 00:25:00 10.3 C 83 % 7.54 C
2023 27-01-2016 00:30:00 10.3 C 83 % 7.54 C
2024 27-01-2016 00:35:00 10.3 C 83 % 7.54 C
2025 27-01-2016 00:40:00 10.2 C 83 % 7.45 C
Sensor: Nr:Datum:Temp:Feuchte:Taupunkt:
Aussen-T/F 2026 27-01-2016 00:45:00 10.2 C 83 % 7.45 C
2027 27-01-2016 00:50:00 10.2 C 83 % 7.45 C
2028 27-01-2016 00:55:00 10.2 C 83 % 7.45 C
2029 27-01-2016 01:00:00 10.2 C 83 % 7.45 C
2030 27-01-2016 01:05:00 10.2 C 83 % 7.45 C
2031 27-01-2016 01:10:00 10.2 C 83 % 7.45 C
2032 27-01-2016 01:15:00 10.2 C 83 % 7.45 C
2033 27-01-2016 01:20:00 10.2 C 82 % 7.27 C
2034 27-01-2016 01:25:00 10.2 C 83 % 7.45 C
2035 27-01-2016 01:30:00 10.2 C 82 % 7.27 C
2036 27-01-2016 01:35:00 10.2 C 82 % 7.27 C
2037 27-01-2016 01:40:00 10.2 C 82 % 7.27 C
2038 27-01-2016 01:45:00 10.3 C 82 % 7.37 C
2039 27-01-2016 01:50:00 10.3 C 82 % 7.37 C
2040 27-01-2016 01:55:00 10.3 C 82 % 7.37 C
2041 27-01-2016 02:00:00 10.2 C 82 % 7.27 C
2042 27-01-2016 02:05:00 10.2 C 82 % 7.27 C
2043 27-01-2016 02:10:00 10.2 C 82 % 7.27 C
2044 27-01-2016 02:15:00 10.3 C 82 % 7.37 C
2045 27-01-2016 02:20:00 10.3 C 82 % 7.37 C
2046 27-01-2016 02:25:00 10.4 C 81 % 7.28 C
2047 27-01-2016 02:30:00 10.4 C 81 % 7.28 C
2048 27-01-2016 02:35:00 10.4 C 81 % 7.28 C
2049 27-01-2016 02:40:00 10.4 C 81 % 7.28 C
2050 27-01-2016 02:45:00 10.4 C 82 % 7.46 C
Sensor: Nr:Datum:Temp:Feuchte:Taupunkt:
Aussen-T/F 2051 27-01-2016 02:50:00 10.4 C 82 % 7.46 C
2052 27-01-2016 02:55:00 10.4 C 82 % 7.46 C
2053 27-01-2016 03:00:00 10.4 C 82 % 7.46 C
2054 27-01-2016 03:05:00 10.4 C 82 % 7.46 C
2055 27-01-2016 03:10:00 10.4 C 82 % 7.46 C
2056 27-01-2016 03:15:00 10.4 C 82 % 7.46 C
2057 27-01-2016 03:20:00 10.4 C 82 % 7.46 C
2058 27-01-2016 03:25:00 10.4 C 82 % 7.46 C
2059 27-01-2016 03:30:00 10.4 C 82 % 7.46 C
2060 27-01-2016 03:35:00 10.3 C 82 % 7.37 C
2061 27-01-2016 03:40:00 10.3 C 82 % 7.37 C
2062 27-01-2016 03:45:00 10.3 C 83 % 7.54 C
2063 27-01-2016 03:50:00 10.3 C 83 % 7.54 C
2064 27-01-2016 03:55:00 10.2 C 83 % 7.45 C
2065 27-01-2016 04:00:00 10.2 C 83 % 7.45 C
2066 27-01-2016 04:05:00 10.2 C 83 % 7.45 C
2067 27-01-2016 04:10:00 10.2 C 83 % 7.45 C
2068 27-01-2016 04:15:00 10.2 C 83 % 7.45 C
2069 27-01-2016 04:20:00 10.2 C 83 % 7.45 C
2070 27-01-2016 04:25:00 10.2 C 83 % 7.45 C
2071 27-01-2016 04:30:00 10.2 C 82 % 7.27 C
2072 27-01-2016 04:35:00 10.2 C 83 % 7.45 C
2073 27-01-2016 04:40:00 10.2 C 83 % 7.45 C
2074 27-01-2016 04:45:00 10.2 C 83 % 7.45 C
2075 27-01-2016 04:50:00 10.2 C 82 % 7.27 C
Sensor: Nr:Datum:Temp:Feuchte:Taupunkt:
Aussen-T/F 2076 27-01-2016 04:55:00 10.2 C 83 % 7.45 C
2077 27-01-2016 05:00:00 10.2 C 82 % 7.27 C
2078 27-01-2016 05:05:00 10.2 C 82 % 7.27 C
2079 27-01-2016 05:10:00 10.2 C 83 % 7.45 C
2080 27-01-2016 05:15:00 10.2 C 83 % 7.45 C
2081 27-01-2016 05:20:00 10.2 C 83 % 7.45 C
2082 27-01-2016 05:25:00 10.2 C 82 % 7.27 C
2083 27-01-2016 05:30:00 10.2 C 82 % 7.27 C
2084 27-01-2016 05:35:00 10.2 C 82 % 7.27 C
2085 27-01-2016 05:40:00 10.2 C 82 % 7.27 C
2086 27-01-2016 05:45:00 10.2 C 82 % 7.27 C
2087 27-01-2016 05:50:00 10.2 C 82 % 7.27 C
2088 27-01-2016 05:55:00 10.2 C 82 % 7.27 C
2089 27-01-2016 06:00:00 10.2 C 82 % 7.27 C
2090 27-01-2016 06:05:00 10.2 C 82 % 7.27 C
2091 27-01-2016 06:10:00 10.2 C 81 % 7.09 C
2092 27-01-2016 06:15:00 10.2 C 81 % 7.09 C
2093 27-01-2016 06:20:00 10.2 C 81 % 7.09 C
2094 27-01-2016 06:25:00 10.1 C 81 % 6.99 C
2095 27-01-2016 06:30:00 10.1 C 81 % 6.99 C
2096 27-01-2016 06:35:00 10.1 C 81 % 6.99 C
2097 27-01-2016 06:40:00 10.1 C 81 % 6.99 C
2098 27-01-2016 06:45:00 10.1 C 81 % 6.99 C
2099 27-01-2016 06:50:00 10.1 C 81 % 6.99 C
2100 27-01-2016 06:55:00 10.1 C 80 % 6.81 C
Sensor: Nr:Datum:Temp:Feuchte:Taupunkt:
Aussen-T/F 2101 27-01-2016 07:00:00 10.1 C 80 % 6.81 C
2102 27-01-2016 07:05:00 10.1 C 80 % 6.81 C
2103 27-01-2016 07:10:00 10.1 C 80 % 6.81 C
2104 27-01-2016 07:15:00 10 C 80 % 6.71 C
2105 27-01-2016 07:20:00 10 C 80 % 6.71 C
2106 27-01-2016 07:25:00 9.9 C 80 % 6.62 C
2107 27-01-2016 07:30:00 9.9 C 80 % 6.62 C
2108 27-01-2016 07:35:00 9.9 C 80 % 6.62 C
2109 27-01-2016 07:40:00 9.9 C 80 % 6.62 C
2110 27-01-2016 07:45:00 9.9 C 80 % 6.62 C
2111 27-01-2016 07:50:00 9.9 C 80 % 6.62 C
2112 27-01-2016 07:55:00 9.9 C 79 % 6.43 C
2113 27-01-2016 08:00:00 9.9 C 79 % 6.43 C
2114 27-01-2016 08:05:00 9.9 C 79 % 6.43 C
2115 27-01-2016 08:10:00 10 C 78 % 6.35 C
2116 27-01-2016 08:15:00 10 C 78 % 6.35 C
2117 27-01-2016 08:20:00 9.9 C 78 % 6.25 C
2118 27-01-2016 08:25:00 9.9 C 78 % 6.25 C
2119 27-01-2016 08:30:00 10 C 78 % 6.35 C
2120 27-01-2016 08:35:00 9.9 C 78 % 6.25 C
2121 27-01-2016 08:40:00 9.9 C 78 % 6.25 C
2122 27-01-2016 08:45:00 10.1 C 77 % 6.26 C
2123 27-01-2016 08:50:00 10.2 C 77 % 6.35 C
2124 27-01-2016 08:55:00 10.3 C 76 % 6.26 C
2125 27-01-2016 09:00:00 10.3 C 76 % 6.26 C
Sensor: Nr:Datum:Temp:Feuchte:Taupunkt:
Aussen-T/F 2126 27-01-2016 09:05:00 10.4 C 75 % 6.17 C
2127 27-01-2016 09:10:00 10.5 C 76 % 6.45 C
2128 27-01-2016 09:15:00 10.6 C 75 % 6.36 C
2129 27-01-2016 09:20:00 10.6 C 74 % 6.17 C
2130 27-01-2016 09:25:00 10.7 C 74 % 6.26 C
2131 27-01-2016 09:30:00 10.8 C 73 % 6.16 C
2132 27-01-2016 09:35:00 10.8 C 73 % 6.16 C
2133 27-01-2016 09:40:00 10.8 C 72 % 5.96 C
2134 27-01-2016 09:45:00 10.8 C 72 % 5.96 C
2135 27-01-2016 09:50:00 10.8 C 71 % 5.76 C
2136 27-01-2016 09:55:00 10.8 C 72 % 5.96 C
2137 27-01-2016 10:00:00 10.8 C 71 % 5.76 C
2138 27-01-2016 10:05:00 10.8 C 71 % 5.76 C
2139 27-01-2016 10:10:00 10.8 C 71 % 5.76 C
2140 27-01-2016 10:15:00 10.8 C 71 % 5.76 C
2141 27-01-2016 10:20:00 10.8 C 70 % 5.56 C
2142 27-01-2016 10:25:00 10.8 C 70 % 5.56 C
2143 27-01-2016 10:30:00 10.8 C 70 % 5.56 C
2144 27-01-2016 10:35:00 10.8 C 70 % 5.56 C
2145 27-01-2016 10:40:00 10.9 C 70 % 5.65 C
2146 27-01-2016 10:45:00 10.8 C 70 % 5.56 C
2147 27-01-2016 10:50:00 10.9 C 70 % 5.65 C
2148 27-01-2016 10:55:00 10.9 C 70 % 5.65 C
2149 27-01-2016 11:00:00 10.8 C 71 % 5.76 C
2150 27-01-2016 11:05:00 10.8 C 71 % 5.76 C
Sensor: Nr:Datum:Temp:Feuchte:Taupunkt:
Aussen-T/F 2151 27-01-2016 11:10:00 10.8 C 71 % 5.76 C
2152 27-01-2016 11:15:00 10.8 C 71 % 5.76 C
2153 27-01-2016 11:20:00 10.9 C 71 % 5.86 C
2154 27-01-2016 11:25:00 10.9 C 71 % 5.86 C
2155 27-01-2016 11:30:00 10.9 C 71 % 5.86 C
2156 27-01-2016 11:35:00 11 C 70 % 5.75 C
2157 27-01-2016 11:40:00 11.1 C 70 % 5.84 C
2158 27-01-2016 11:45:00 11.2 C 70 % 5.94 C
2159 27-01-2016 11:50:00 11.2 C 70 % 5.94 C
2160 27-01-2016 11:55:00 11.2 C 70 % 5.94 C
2161 27-01-2016 12:00:00 11.2 C 70 % 5.94 C
2162 27-01-2016 12:05:00 11.2 C 70 % 5.94 C
2163 27-01-2016 12:10:00 11.2 C 70 % 5.94 C
2164 27-01-2016 12:15:00 11.3 C 70 % 6.03 C
2165 27-01-2016 12:20:00 11.3 C 70 % 6.03 C
2166 27-01-2016 12:25:00 11.3 C 70 % 6.03 C
2167 27-01-2016 12:30:00 11.4 C 70 % 6.13 C
2168 27-01-2016 12:35:00 11.4 C 70 % 6.13 C
2169 27-01-2016 12:40:00 11.5 C 69 % 6.02 C
2170 27-01-2016 12:45:00 11.5 C 69 % 6.02 C
2171 27-01-2016 12:50:00 11.5 C 70 % 6.23 C
2172 27-01-2016 12:55:00 11.6 C 69 % 6.11 C
2173 27-01-2016 13:00:00 11.6 C 69 % 6.11 C
2174 27-01-2016 13:05:00 11.7 C 70 % 6.42 C
2175 27-01-2016 13:10:00 11.7 C 70 % 6.42 C
Sensor: Nr:Datum:Temp:Feuchte:Taupunkt:
Aussen-T/F 2176 27-01-2016 13:15:00 11.7 C 70 % 6.42 C
2177 27-01-2016 13:20:00 11.7 C 70 % 6.42 C
2178 27-01-2016 13:25:00 11.8 C 70 % 6.51 C
2179 27-01-2016 13:30:00 11.8 C 70 % 6.51 C
2180 27-01-2016 13:35:00 11.9 C 70 % 6.61 C
2181 27-01-2016 13:40:00 11.9 C 69 % 6.4 C
2182 27-01-2016 13:45:00 12 C 70 % 6.71 C
2183 27-01-2016 13:50:00 12.1 C 70 % 6.8 C
2184 27-01-2016 13:55:00 12 C 69 % 6.5 C
2185 27-01-2016 14:00:00 12.1 C 69 % 6.59 C
2186 27-01-2016 14:05:00 12.1 C 69 % 6.59 C
2187 27-01-2016 14:10:00 12.2 C 69 % 6.69 C
2188 27-01-2016 14:15:00 12.2 C 69 % 6.69 C
2189 27-01-2016 14:20:00 12.2 C 69 % 6.69 C
2190 27-01-2016 14:25:00 12.3 C 68 % 6.57 C
2191 27-01-2016 14:30:00 12.3 C 69 % 6.78 C
2192 27-01-2016 14:35:00 12.4 C 68 % 6.67 C
2193 27-01-2016 14:40:00 12.4 C 68 % 6.67 C
2194 27-01-2016 14:45:00 12.5 C 67 % 6.55 C
2195 27-01-2016 14:50:00 12.5 C 67 % 6.55 C
2196 27-01-2016 14:55:00 12.5 C 67 % 6.55 C
2197 27-01-2016 15:00:00 12.6 C 66 % 6.42 C
2198 27-01-2016 15:05:00 12.6 C 66 % 6.42 C
2199 27-01-2016 15:10:00 12.6 C 65 % 6.2 C
2200 27-01-2016 15:15:00 12.6 C 64 % 5.98 C
Sensor: Nr:Datum:Temp:Feuchte:Taupunkt:
Aussen-T/F 2201 27-01-2016 15:20:00 12.6 C 63 % 5.75 C
2202 27-01-2016 15:25:00 12.7 C 63 % 5.85 C
2203 27-01-2016 15:30:00 12.7 C 63 % 5.85 C
2204 27-01-2016 15:35:00 12.7 C 63 % 5.85 C
2205 27-01-2016 15:40:00 12.7 C 62 % 5.62 C
2206 27-01-2016 15:45:00 12.7 C 62 % 5.62 C
2207 27-01-2016 15:50:00 12.7 C 62 % 5.62 C
2208 27-01-2016 15:55:00 12.7 C 61 % 5.38 C
2209 27-01-2016 16:00:00 12.7 C 62 % 5.62 C
2210 27-01-2016 16:05:00 12.7 C 61 % 5.38 C
2211 27-01-2016 16:10:00 12.7 C 61 % 5.38 C
2212 27-01-2016 16:15:00 12.7 C 61 % 5.38 C
2213 27-01-2016 16:20:00 12.7 C 61 % 5.38 C
2214 27-01-2016 16:25:00 12.7 C 60 % 5.14 C
2215 27-01-2016 16:30:00 12.7 C 60 % 5.14 C
2216 27-01-2016 16:35:00 12.7 C 60 % 5.14 C
2217 27-01-2016 16:40:00 12.7 C 61 % 5.38 C
2218 27-01-2016 16:45:00 12.7 C 60 % 5.14 C
2219 27-01-2016 16:50:00 12.7 C 59 % 4.9 C
2220 27-01-2016 16:55:00 12.7 C 60 % 5.14 C
2221 27-01-2016 17:00:00 12.7 C 59 % 4.9 C
2222 27-01-2016 17:05:00 12.7 C 59 % 4.9 C
2223 27-01-2016 17:10:00 12.8 C 59 % 5 C
2224 27-01-2016 17:15:00 12.8 C 59 % 5 C
2225 27-01-2016 17:20:00 12.9 C 59 % 5.09 C
Sensor: Nr:Datum:Temp:Feuchte:Taupunkt:
Aussen-T/F 2226 27-01-2016 17:25:00 12.8 C 59 % 5 C
2227 27-01-2016 17:30:00 12.9 C 59 % 5.09 C
2228 27-01-2016 17:35:00 12.9 C 59 % 5.09 C
2229 27-01-2016 17:40:00 12.8 C 59 % 5 C
2230 27-01-2016 17:45:00 12.9 C 59 % 5.09 C
2231 27-01-2016 17:50:00 12.8 C 59 % 5 C
2232 27-01-2016 17:55:00 12.9 C 59 % 5.09 C
2233 27-01-2016 18:00:00 12.9 C 59 % 5.09 C
2234 27-01-2016 18:05:00 12.9 C 59 % 5.09 C
2235 27-01-2016 18:10:00 12.9 C 59 % 5.09 C
2236 27-01-2016 18:15:00 12.9 C 59 % 5.09 C
2237 27-01-2016 18:20:00 12.9 C 59 % 5.09 C
2238 27-01-2016 18:25:00 12.9 C 59 % 5.09 C
2239 27-01-2016 18:30:00 12.9 C 59 % 5.09 C
2240 27-01-2016 18:35:00 12.9 C 59 % 5.09 C
2241 27-01-2016 18:40:00 12.9 C 59 % 5.09 C
2242 27-01-2016 18:45:00 12.9 C 58 % 4.85 C
2243 27-01-2016 18:50:00 13 C 59 % 5.19 C
2244 27-01-2016 18:55:00 13 C 58 % 4.94 C
2245 27-01-2016 19:00:00 13 C 58 % 4.94 C
2246 27-01-2016 19:05:00 13 C 58 % 4.94 C
2247 27-01-2016 19:10:00 13 C 58 % 4.94 C
2248 27-01-2016 19:15:00 12.9 C 57 % 4.6 C
2249 27-01-2016 19:20:00 12.9 C 57 % 4.6 C
2250 27-01-2016 19:25:00 13 C 57 % 4.69 C
Sensor: Nr:Datum:Temp:Feuchte:Taupunkt:
Aussen-T/F 2251 27-01-2016 19:30:00 12.9 C 56 % 4.35 C
2252 27-01-2016 19:35:00 12.9 C 57 % 4.6 C
2253 27-01-2016 19:40:00 12.9 C 57 % 4.6 C
2254 27-01-2016 19:45:00 12.9 C 57 % 4.6 C
2255 27-01-2016 19:50:00 12.8 C 57 % 4.5 C
2256 27-01-2016 19:55:00 12.8 C 56 % 4.25 C
2257 27-01-2016 20:00:00 12.8 C 57 % 4.5 C
2258 27-01-2016 20:05:00 12.7 C 57 % 4.41 C
2259 27-01-2016 20:10:00 12.7 C 57 % 4.41 C
2260 27-01-2016 20:15:00 12.8 C 56 % 4.25 C
2261 27-01-2016 20:20:00 12.8 C 57 % 4.5 C
2262 27-01-2016 20:25:00 12.9 C 57 % 4.6 C
2263 27-01-2016 20:30:00 12.9 C 57 % 4.6 C
2264 27-01-2016 20:35:00 12.9 C 57 % 4.6 C
2265 27-01-2016 20:40:00 12.9 C 57 % 4.6 C
2266 27-01-2016 20:45:00 12.9 C 57 % 4.6 C
2267 27-01-2016 20:50:00 12.9 C 57 % 4.6 C
2268 27-01-2016 20:55:00 12.8 C 58 % 4.75 C
2269 27-01-2016 21:00:00 12.8 C 58 % 4.75 C
2270 27-01-2016 21:05:00 12.9 C 58 % 4.85 C
2271 27-01-2016 21:10:00 12.8 C 59 % 5 C
2272 27-01-2016 21:15:00 12.8 C 59 % 5 C
2273 27-01-2016 21:20:00 12.7 C 59 % 4.9 C
2274 27-01-2016 21:25:00 12.7 C 60 % 5.14 C
2275 27-01-2016 21:30:00 12.7 C 60 % 5.14 C
Sensor: Nr:Datum:Temp:Feuchte:Taupunkt:
Aussen-T/F 2276 27-01-2016 21:35:00 12.7 C 60 % 5.14 C
2277 27-01-2016 21:40:00 12.7 C 60 % 5.14 C
2278 27-01-2016 21:45:00 12.7 C 60 % 5.14 C
2279 27-01-2016 21:50:00 12.7 C 60 % 5.14 C
2280 27-01-2016 21:55:00 12.6 C 60 % 5.05 C
2281 27-01-2016 22:00:00 12.7 C 60 % 5.14 C
2282 27-01-2016 22:05:00 12.8 C 61 % 5.48 C
2283 27-01-2016 22:10:00 12.8 C 60 % 5.24 C
2284 27-01-2016 22:15:00 12.8 C 60 % 5.24 C
2285 27-01-2016 22:20:00 12.8 C 61 % 5.48 C
2286 27-01-2016 22:25:00 12.8 C 61 % 5.48 C
2287 27-01-2016 22:30:00 12.8 C 61 % 5.48 C
2288 27-01-2016 22:35:00 12.8 C 61 % 5.48 C
2289 27-01-2016 22:40:00 12.8 C 61 % 5.48 C
2290 27-01-2016 22:45:00 12.8 C 62 % 5.71 C
2291 27-01-2016 22:50:00 12.8 C 61 % 5.48 C
2292 27-01-2016 22:55:00 12.8 C 61 % 5.48 C
2293 27-01-2016 23:00:00 12.8 C 61 % 5.48 C
2294 27-01-2016 23:05:00 12.8 C 61 % 5.48 C
2295 27-01-2016 23:10:00 12.7 C 61 % 5.38 C
2296 27-01-2016 23:15:00 12.7 C 61 % 5.38 C
2297 27-01-2016 23:20:00 12.7 C 62 % 5.62 C
2298 27-01-2016 23:25:00 12.7 C 62 % 5.62 C
2299 27-01-2016 23:30:00 12.7 C 62 % 5.62 C
2300 27-01-2016 23:35:00 12.6 C 62 % 5.52 C
Sensor: Nr:Datum:Temp:Feuchte:Taupunkt:
Aussen-T/F 2301 27-01-2016 23:40:00 12.6 C 62 % 5.52 C
2302 27-01-2016 23:45:00 12.7 C 62 % 5.62 C
2303 27-01-2016 23:50:00 12.7 C 62 % 5.62 C
2304 27-01-2016 23:55:00 12.7 C 62 % 5.62 C
2305 28-01-2016 00:00:00 12.7 C 62 % 5.62 C
2306 28-01-2016 00:05:00 12.6 C 62 % 5.52 C
2307 28-01-2016 00:10:00 12.5 C 63 % 5.66 C
2308 28-01-2016 00:15:00 12.5 C 63 % 5.66 C
2309 28-01-2016 00:20:00 12.5 C 63 % 5.66 C
2310 28-01-2016 00:25:00 12.5 C 63 % 5.66 C
2311 28-01-2016 00:30:00 12.6 C 63 % 5.75 C
2312 28-01-2016 00:35:00 12.6 C 63 % 5.75 C
2313 28-01-2016 00:40:00 12.6 C 63 % 5.75 C
2314 28-01-2016 00:45:00 12.6 C 63 % 5.75 C
2315 28-01-2016 00:50:00 12.6 C 64 % 5.98 C
2316 28-01-2016 00:55:00 12.6 C 65 % 6.2 C
2317 28-01-2016 01:00:00 12.6 C 65 % 6.2 C
2318 28-01-2016 01:05:00 12.5 C 65 % 6.11 C
2319 28-01-2016 01:10:00 12.5 C 66 % 6.33 C
2320 28-01-2016 01:15:00 12.4 C 66 % 6.23 C
2321 28-01-2016 01:20:00 12.4 C 66 % 6.23 C
2322 28-01-2016 01:25:00 12.4 C 67 % 6.45 C
2323 28-01-2016 01:30:00 12.3 C 67 % 6.36 C
2324 28-01-2016 01:35:00 12.3 C 68 % 6.57 C
2325 28-01-2016 01:40:00 12.2 C 69 % 6.69 C
Sensor: Nr:Datum:Temp:Feuchte:Taupunkt:
Aussen-T/F 2326 28-01-2016 01:45:00 12.2 C 70 % 6.9 C
2327 28-01-2016 01:50:00 12.2 C 70 % 6.9 C
2328 28-01-2016 01:55:00 12.1 C 71 % 7.01 C
2329 28-01-2016 02:00:00 12 C 72 % 7.12 C
2330 28-01-2016 02:05:00 11.9 C 73 % 7.22 C
2331 28-01-2016 02:10:00 11.8 C 74 % 7.32 C
2332 28-01-2016 02:15:00 11.7 C 75 % 7.42 C
2333 28-01-2016 02:20:00 11.6 C 76 % 7.52 C
2334 28-01-2016 02:25:00 11.5 C 78 % 7.8 C
2335 28-01-2016 02:30:00 11.3 C 79 % 7.8 C
2336 28-01-2016 02:35:00 11.2 C 80 % 7.88 C
2337 28-01-2016 02:40:00 11.1 C 80 % 7.79 C
2338 28-01-2016 02:45:00 11 C 82 % 8.05 C
2339 28-01-2016 02:50:00 10.9 C 82 % 7.95 C
2340 28-01-2016 02:55:00 10.8 C 83 % 8.03 C
2341 28-01-2016 03:00:00 10.8 C 84 % 8.21 C
2342 28-01-2016 03:05:00 10.8 C 84 % 8.21 C
2343 28-01-2016 03:10:00 10.8 C 84 % 8.21 C
2344 28-01-2016 03:15:00 10.7 C 85 % 8.28 C
2345 28-01-2016 03:20:00 10.7 C 86 % 8.46 C
2346 28-01-2016 03:25:00 10.6 C 87 % 8.53 C
2347 28-01-2016 03:30:00 10.6 C 88 % 8.7 C
2348 28-01-2016 03:35:00 10.5 C 88 % 8.6 C
2349 28-01-2016 03:40:00 10.4 C 89 % 8.67 C
2350 28-01-2016 03:45:00 10.4 C 90 % 8.83 C
Sensor: Nr:Datum:Temp:Feuchte:Taupunkt:
Aussen-T/F 2351 28-01-2016 03:50:00 10.4 C 90 % 8.83 C
2352 28-01-2016 03:55:00 10.3 C 91 % 8.9 C
2353 28-01-2016 04:00:00 10.3 C 91 % 8.9 C
2354 28-01-2016 04:05:00 10.3 C 92 % 9.06 C
2355 28-01-2016 04:10:00 10.2 C 92 % 8.96 C
2356 28-01-2016 04:15:00 10.2 C 93 % 9.12 C
2357 28-01-2016 04:20:00 10.2 C 93 % 9.12 C
2358 28-01-2016 04:25:00 10.2 C 93 % 9.12 C
2359 28-01-2016 04:30:00 10.2 C 93 % 9.12 C
2360 28-01-2016 04:35:00 10.2 C 93 % 9.12 C
2361 28-01-2016 04:40:00 10.2 C 93 % 9.12 C
2362 28-01-2016 04:45:00 10.2 C 93 % 9.12 C
2363 28-01-2016 04:50:00 10.2 C 94 % 9.28 C
2364 28-01-2016 04:55:00 10.2 C 94 % 9.28 C
2365 28-01-2016 05:00:00 10.2 C 94 % 9.28 C
2366 28-01-2016 05:05:00 10.1 C 94 % 9.18 C
2367 28-01-2016 05:10:00 10.1 C 94 % 9.18 C
2368 28-01-2016 05:15:00 10.1 C 94 % 9.18 C
2369 28-01-2016 05:20:00 10.1 C 94 % 9.18 C
2370 28-01-2016 05:25:00 10 C 94 % 9.08 C
2371 28-01-2016 05:30:00 9.9 C 94 % 8.98 C
2372 28-01-2016 05:35:00 9.9 C 94 % 8.98 C
2373 28-01-2016 05:40:00 9.9 C 94 % 8.98 C
2374 28-01-2016 05:45:00 9.8 C 94 % 8.88 C
2375 28-01-2016 05:50:00 9.7 C 93 % 8.62 C
Sensor: Nr:Datum:Temp:Feuchte:Taupunkt:
Aussen-T/F 2376 28-01-2016 05:55:00 9.3 C 92 % 8.07 C
2377 28-01-2016 06:00:00 8.9 C 92 % 7.67 C
2378 28-01-2016 06:05:00 8.7 C 92 % 7.47 C
2379 28-01-2016 06:10:00 8.6 C 92 % 7.38 C
2380 28-01-2016 06:15:00 8.5 C 92 % 7.28 C
2381 28-01-2016 06:20:00 8.4 C 92 % 7.18 C
2382 28-01-2016 06:25:00 8.4 C 92 % 7.18 C
2383 28-01-2016 06:30:00 8.3 C 93 % 7.24 C
2384 28-01-2016 06:35:00 8.3 C 93 % 7.24 C
2385 28-01-2016 06:40:00 8.3 C 92 % 7.08 C
2386 28-01-2016 06:45:00 8.3 C 93 % 7.24 C
2387 28-01-2016 06:50:00 8.2 C 93 % 7.14 C
2388 28-01-2016 06:55:00 8.1 C 93 % 7.04 C
2389 28-01-2016 07:00:00 8.1 C 93 % 7.04 C
2390 28-01-2016 07:05:00 8 C 93 % 6.94 C
2391 28-01-2016 07:10:00 7.9 C 93 % 6.84 C
2392 28-01-2016 07:15:00 7.8 C 93 % 6.74 C
2393 28-01-2016 07:20:00 7.7 C 93 % 6.64 C
2394 28-01-2016 07:25:00 7.7 C 93 % 6.64 C
2395 28-01-2016 07:30:00 7.6 C 93 % 6.54 C
2396 28-01-2016 07:35:00 7.6 C 93 % 6.54 C
2397 28-01-2016 07:40:00 7.5 C 92 % 6.29 C
2398 28-01-2016 07:45:00 7.5 C 92 % 6.29 C
2399 28-01-2016 07:50:00 7.6 C 91 % 6.23 C
2400 28-01-2016 07:55:00 7.6 C 91 % 6.23 C
Sensor: Nr:Datum:Temp:Feuchte:Taupunkt:
Aussen-T/F 2401 28-01-2016 08:00:00 7.7 C 90 % 6.17 C
2402 28-01-2016 08:05:00 7.7 C 89 % 6 C
2403 28-01-2016 08:10:00 7.7 C 89 % 6 C
2404 28-01-2016 08:15:00 7.6 C 90 % 6.07 C
2405 28-01-2016 08:20:00 7.4 C 90 % 5.87 C
2406 28-01-2016 08:25:00 7.3 C 89 % 5.61 C
2407 28-01-2016 08:30:00 7.4 C 89 % 5.71 C
2408 28-01-2016 08:35:00 7.3 C 89 % 5.61 C
2409 28-01-2016 08:40:00 7.3 C 89 % 5.61 C
2410 28-01-2016 08:45:00 7.3 C 90 % 5.77 C
2411 28-01-2016 08:50:00 7.2 C 91 % 5.83 C
2412 28-01-2016 08:55:00 7.2 C 91 % 5.83 C
2413 28-01-2016 09:00:00 7.1 C 91 % 5.73 C
2414 28-01-2016 09:05:00 7.1 C 91 % 5.73 C
2415 28-01-2016 09:10:00 7 C 91 % 5.63 C
2416 28-01-2016 09:15:00 7 C 92 % 5.79 C
2417 28-01-2016 09:20:00 7 C 92 % 5.79 C
2418 28-01-2016 09:25:00 7 C 91 % 5.63 C
2419 28-01-2016 09:30:00 7.1 C 91 % 5.73 C
2420 28-01-2016 09:35:00 7.2 C 91 % 5.83 C
2421 28-01-2016 09:40:00 7.2 C 91 % 5.83 C
2422 28-01-2016 09:45:00 7.2 C 89 % 5.51 C
2423 28-01-2016 09:50:00 7.3 C 88 % 5.45 C
2424 28-01-2016 09:55:00 7.4 C 87 % 5.38 C
2425 28-01-2016 10:00:00 7.6 C 87 % 5.58 C
Sensor: Nr:Datum:Temp:Feuchte:Taupunkt:
Aussen-T/F 2426 28-01-2016 10:05:00 7.7 C 86 % 5.51 C
2427 28-01-2016 10:10:00 7.7 C 86 % 5.51 C
2428 28-01-2016 10:15:00 7.8 C 86 % 5.61 C
2429 28-01-2016 10:20:00 7.8 C 86 % 5.61 C
2430 28-01-2016 10:25:00 7.8 C 87 % 5.78 C
2431 28-01-2016 10:30:00 7.7 C 88 % 5.84 C
2432 28-01-2016 10:35:00 7.7 C 89 % 6 C
2433 28-01-2016 10:40:00 7.7 C 88 % 5.84 C
2434 28-01-2016 10:45:00 7.7 C 88 % 5.84 C
2435 28-01-2016 10:50:00 7.8 C 87 % 5.78 C
2436 28-01-2016 10:55:00 7.9 C 86 % 5.71 C
2437 28-01-2016 11:00:00 8 C 86 % 5.81 C
2438 28-01-2016 11:05:00 8 C 86 % 5.81 C
2439 28-01-2016 11:10:00 8 C 84 % 5.47 C
2440 28-01-2016 11:15:00 8 C 83 % 5.29 C
2441 28-01-2016 11:20:00 8 C 82 % 5.12 C
2442 28-01-2016 11:25:00 8.1 C 83 % 5.39 C
2443 28-01-2016 11:30:00 8 C 82 % 5.12 C
2444 28-01-2016 11:35:00 8 C 81 % 4.94 C
2445 28-01-2016 11:40:00 8.1 C 80 % 4.86 C
2446 28-01-2016 11:45:00 8.3 C 80 % 5.06 C
2447 28-01-2016 11:50:00 8.4 C 79 % 4.98 C
2448 28-01-2016 11:55:00 8.5 C 77 % 4.71 C
2449 28-01-2016 12:00:00 8.6 C 78 % 4.99 C
2450 28-01-2016 12:05:00 8.6 C 79 % 5.17 C
Sensor: Nr:Datum:Temp:Feuchte:Taupunkt:
Aussen-T/F 2451 28-01-2016 12:10:00 8.6 C 78 % 4.99 C
2452 28-01-2016 12:15:00 8.6 C 77 % 4.8 C
2453 28-01-2016 12:20:00 8.5 C 76 % 4.52 C
2454 28-01-2016 12:25:00 8.4 C 76 % 4.42 C
2455 28-01-2016 12:30:00 8.4 C 75 % 4.23 C
2456 28-01-2016 12:35:00 8.4 C 76 % 4.42 C
2457 28-01-2016 12:40:00 8.4 C 76 % 4.42 C
2458 28-01-2016 12:45:00 8.4 C 78 % 4.79 C
2459 28-01-2016 12:50:00 8.4 C 78 % 4.79 C
2460 28-01-2016 12:55:00 8.4 C 78 % 4.79 C
2461 28-01-2016 13:00:00 8.4 C 77 % 4.61 C
2462 28-01-2016 13:05:00 8.4 C 78 % 4.79 C
2463 28-01-2016 13:10:00 8.3 C 76 % 4.33 C
2464 28-01-2016 13:15:00 8.3 C 77 % 4.51 C
2465 28-01-2016 13:20:00 8.3 C 76 % 4.33 C
2466 28-01-2016 13:25:00 8.3 C 76 % 4.33 C
2467 28-01-2016 13:30:00 8.3 C 76 % 4.33 C
2468 28-01-2016 13:35:00 8.3 C 75 % 4.14 C
2469 28-01-2016 13:40:00 8.3 C 76 % 4.33 C
2470 28-01-2016 13:45:00 8.3 C 75 % 4.14 C
2471 28-01-2016 13:50:00 8.3 C 75 % 4.14 C
2472 28-01-2016 13:55:00 8.3 C 75 % 4.14 C
2473 28-01-2016 14:00:00 8.3 C 75 % 4.14 C
2474 28-01-2016 14:05:00 8.4 C 77 % 4.61 C
2475 28-01-2016 14:10:00 8.3 C 74 % 3.95 C
Sensor: Nr:Datum:Temp:Feuchte:Taupunkt:
Aussen-T/F 2476 28-01-2016 14:15:00 8.3 C 75 % 4.14 C
2477 28-01-2016 14:20:00 8.3 C 74 % 3.95 C
2478 28-01-2016 14:25:00 8.3 C 77 % 4.51 C
2479 28-01-2016 14:30:00 8.3 C 75 % 4.14 C
2480 28-01-2016 14:35:00 8.3 C 76 % 4.33 C
2481 28-01-2016 14:40:00 8.3 C 78 % 4.7 C
2482 28-01-2016 14:45:00 8.2 C 78 % 4.6 C
2483 28-01-2016 14:50:00 8.2 C 78 % 4.6 C
2484 28-01-2016 14:55:00 8.2 C 80 % 4.96 C
2485 28-01-2016 15:00:00 8 C 81 % 4.94 C
2486 28-01-2016 15:05:00 7.8 C 82 % 4.92 C
2487 28-01-2016 15:10:00 7.7 C 83 % 5 C
2488 28-01-2016 15:15:00 7.5 C 84 % 4.98 C
2489 28-01-2016 15:20:00 7.3 C 85 % 4.95 C
2490 28-01-2016 15:25:00 7.2 C 86 % 5.02 C
2491 28-01-2016 15:30:00 7.1 C 86 % 4.92 C
2492 28-01-2016 15:35:00 7 C 86 % 4.82 C
2493 28-01-2016 15:40:00 6.9 C 86 % 4.72 C
2494 28-01-2016 15:45:00 6.8 C 87 % 4.79 C
2495 28-01-2016 15:50:00 6.7 C 87 % 4.69 C
2496 28-01-2016 15:55:00 6.7 C 88 % 4.86 C
2497 28-01-2016 16:00:00 6.6 C 88 % 4.76 C
2498 28-01-2016 16:05:00 6.6 C 88 % 4.76 C
2499 28-01-2016 16:10:00 6.5 C 88 % 4.66 C
2500 28-01-2016 16:15:00 6.5 C 89 % 4.82 C
Sensor: Nr:Datum:Temp:Feuchte:Taupunkt:
Aussen-T/F 2501 28-01-2016 16:20:00 6.5 C 88 % 4.66 C
2502 28-01-2016 16:25:00 6.5 C 88 % 4.66 C
2503 28-01-2016 16:30:00 6.5 C 88 % 4.66 C
2504 28-01-2016 16:35:00 6.4 C 88 % 4.56 C
2505 28-01-2016 16:40:00 6.3 C 87 % 4.3 C
2506 28-01-2016 16:45:00 6.3 C 87 % 4.3 C
2507 28-01-2016 16:50:00 6.2 C 88 % 4.36 C
2508 28-01-2016 16:55:00 6.1 C 87 % 4.1 C
2509 28-01-2016 17:00:00 6.1 C 88 % 4.27 C
2510 28-01-2016 17:05:00 5.9 C 88 % 4.07 C
2511 28-01-2016 17:10:00 5.8 C 88 % 3.97 C
2512 28-01-2016 17:15:00 5.8 C 88 % 3.97 C
2513 28-01-2016 17:20:00 5.7 C 88 % 3.87 C
2514 28-01-2016 17:25:00 5.6 C 88 % 3.77 C
2515 28-01-2016 17:30:00 5.4 C 88 % 3.58 C
2516 28-01-2016 17:35:00 5.3 C 89 % 3.64 C
2517 28-01-2016 17:40:00 5.2 C 89 % 3.54 C
2518 28-01-2016 17:45:00 5.2 C 89 % 3.54 C
2519 28-01-2016 17:50:00 5.1 C 89 % 3.44 C
2520 28-01-2016 17:55:00 5.1 C 89 % 3.44 C
2521 28-01-2016 18:00:00 5 C 90 % 3.5 C
2522 28-01-2016 18:05:00 4.9 C 89 % 3.24 C
2523 28-01-2016 18:10:00 4.8 C 90 % 3.3 C
2524 28-01-2016 18:15:00 4.7 C 90 % 3.2 C
2525 28-01-2016 18:20:00 4.6 C 90 % 3.1 C
Sensor: Nr:Datum:Temp:Feuchte:Taupunkt:
Aussen-T/F 2526 28-01-2016 18:25:00 4.5 C 91 % 3.16 C
2527 28-01-2016 18:30:00 4.4 C 91 % 3.06 C
2528 28-01-2016 18:35:00 4.4 C 91 % 3.06 C
2529 28-01-2016 18:40:00 4.3 C 91 % 2.96 C
2530 28-01-2016 18:45:00 4.3 C 91 % 2.96 C
2531 28-01-2016 18:50:00 4.2 C 91 % 2.87 C
2532 28-01-2016 18:55:00 4.2 C 91 % 2.87 C
2533 28-01-2016 19:00:00 4.1 C 91 % 2.77 C
2534 28-01-2016 19:05:00 4 C 92 % 2.82 C
2535 28-01-2016 19:10:00 3.9 C 92 % 2.72 C
2536 28-01-2016 19:15:00 3.9 C 92 % 2.72 C
2537 28-01-2016 19:20:00 3.8 C 92 % 2.62 C
2538 28-01-2016 19:25:00 3.8 C 92 % 2.62 C
2539 28-01-2016 19:30:00 3.8 C 93 % 2.77 C
2540 28-01-2016 19:35:00 3.8 C 93 % 2.77 C
2541 28-01-2016 19:40:00 3.8 C 93 % 2.77 C
2542 28-01-2016 19:45:00 3.8 C 92 % 2.62 C
2543 28-01-2016 19:50:00 3.7 C 92 % 2.52 C
2544 28-01-2016 19:55:00 3.7 C 92 % 2.52 C
2545 28-01-2016 20:00:00 3.6 C 92 % 2.42 C
2546 28-01-2016 20:05:00 3.6 C 93 % 2.58 C
2547 28-01-2016 20:10:00 3.6 C 93 % 2.58 C
2548 28-01-2016 20:15:00 3.5 C 93 % 2.48 C
2549 28-01-2016 20:20:00 3.5 C 93 % 2.48 C
2550 28-01-2016 20:25:00 3.5 C 93 % 2.48 C
Sensor: Nr:Datum:Temp:Feuchte:Taupunkt:
Aussen-T/F 2551 28-01-2016 20:30:00 3.4 C 93 % 2.38 C
2552 28-01-2016 20:35:00 3.4 C 93 % 2.38 C
2553 28-01-2016 20:40:00 3.4 C 93 % 2.38 C
2554 28-01-2016 20:45:00 3.3 C 93 % 2.28 C
2555 28-01-2016 20:50:00 3.2 C 92 % 2.03 C
2556 28-01-2016 20:55:00 3.2 C 93 % 2.18 C
2557 28-01-2016 21:00:00 3.2 C 93 % 2.18 C
2558 28-01-2016 21:05:00 3.2 C 93 % 2.18 C
2559 28-01-2016 21:10:00 3.2 C 93 % 2.18 C
2560 28-01-2016 21:15:00 3.2 C 93 % 2.18 C
2561 28-01-2016 21:20:00 3.2 C 93 % 2.18 C
2562 28-01-2016 21:25:00 3.2 C 93 % 2.18 C
2563 28-01-2016 21:30:00 3.1 C 93 % 2.08 C
2564 28-01-2016 21:35:00 3.1 C 93 % 2.08 C
2565 28-01-2016 21:40:00 3 C 93 % 1.98 C
2566 28-01-2016 21:45:00 2.9 C 93 % 1.88 C
2567 28-01-2016 21:50:00 2.8 C 93 % 1.78 C
2568 28-01-2016 21:55:00 2.7 C 93 % 1.68 C
2569 28-01-2016 22:00:00 2.7 C 93 % 1.68 C
2570 28-01-2016 22:05:00 2.7 C 94 % 1.83 C
2571 28-01-2016 22:10:00 2.6 C 94 % 1.73 C
2572 28-01-2016 22:15:00 2.5 C 93 % 1.49 C
2573 28-01-2016 22:20:00 2.4 C 94 % 1.54 C
2574 28-01-2016 22:25:00 2.3 C 94 % 1.44 C
2575 28-01-2016 22:30:00 2.2 C 94 % 1.34 C
Sensor: Nr:Datum:Temp:Feuchte:Taupunkt:
Aussen-T/F 2576 28-01-2016 22:35:00 2.1 C 94 % 1.24 C
2577 28-01-2016 22:40:00 2.1 C 94 % 1.24 C
2578 28-01-2016 22:45:00 2.1 C 94 % 1.24 C
2579 28-01-2016 22:50:00 2 C 94 % 1.14 C
2580 28-01-2016 22:55:00 1.9 C 94 % 1.04 C
2581 28-01-2016 23:00:00 1.9 C 94 % 1.04 C
2582 28-01-2016 23:05:00 1.8 C 94 % 0.94 C
2583 28-01-2016 23:10:00 1.7 C 94 % 0.84 C
2584 28-01-2016 23:15:00 1.7 C 94 % 0.84 C
2585 28-01-2016 23:20:00 1.7 C 94 % 0.84 C
2586 28-01-2016 23:25:00 1.7 C 95 % 0.99 C
2587 28-01-2016 23:30:00 1.7 C 95 % 0.99 C
2588 28-01-2016 23:35:00 1.7 C 95 % 0.99 C
2589 28-01-2016 23:40:00 1.6 C 95 % 0.89 C
2590 28-01-2016 23:45:00 1.6 C 95 % 0.89 C
2591 28-01-2016 23:50:00 1.7 C 95 % 0.99 C
2592 28-01-2016 23:55:00 1.7 C 95 % 0.99 C
2593 29-01-2016 00:00:00 1.6 C 95 % 0.89 C
2594 29-01-2016 00:05:00 1.6 C 95 % 0.89 C
2595 29-01-2016 00:10:00 1.6 C 95 % 0.89 C
2596 29-01-2016 00:15:00 1.6 C 95 % 0.89 C
2597 29-01-2016 00:20:00 1.6 C 95 % 0.89 C
2598 29-01-2016 00:25:00 1.6 C 95 % 0.89 C
2599 29-01-2016 00:30:00 1.7 C 95 % 0.99 C
2600 29-01-2016 00:35:00 1.7 C 95 % 0.99 C
Sensor: Nr:Datum:Temp:Feuchte:Taupunkt:
Aussen-T/F 2601 29-01-2016 00:40:00 1.6 C 95 % 0.89 C
2602 29-01-2016 00:45:00 1.4 C 95 % 0.69 C
2603 29-01-2016 00:50:00 1.3 C 95 % 0.59 C
2604 29-01-2016 00:55:00 1.3 C 95 % 0.59 C
2605 29-01-2016 01:00:00 1.3 C 95 % 0.59 C
2606 29-01-2016 01:05:00 1.3 C 95 % 0.59 C
2607 29-01-2016 01:10:00 1.2 C 95 % 0.49 C
2608 29-01-2016 01:15:00 1.1 C 95 % 0.39 C
2609 29-01-2016 01:20:00 1.2 C 95 % 0.49 C
2610 29-01-2016 01:25:00 1.1 C 95 % 0.39 C
2611 29-01-2016 01:30:00 1.2 C 95 % 0.49 C
2612 29-01-2016 01:35:00 1.2 C 95 % 0.49 C
2613 29-01-2016 01:40:00 1.3 C 96 % 0.73 C
2614 29-01-2016 01:45:00 1.3 C 96 % 0.73 C
2615 29-01-2016 01:50:00 1.2 C 95 % 0.49 C
2616 29-01-2016 01:55:00 0.9 C 95 % 0.19 C
2617 29-01-2016 02:00:00 0.8 C 95 % 0.09 C
2618 29-01-2016 02:05:00 0.8 C 95 % 0.09 C
2619 29-01-2016 02:10:00 0.7 C 95 % -0.01 C
2620 29-01-2016 02:15:00 0.7 C 95 % -0.01 C
2621 29-01-2016 02:20:00 0.7 C 95 % -0.01 C
2622 29-01-2016 02:25:00 0.7 C 95 % -0.01 C
2623 29-01-2016 02:30:00 0.7 C 95 % -0.01 C
2624 29-01-2016 02:35:00 0.5 C 95 % -0.21 C
2625 29-01-2016 02:40:00 0.3 C 95 % -0.4 C
Sensor: Nr:Datum:Temp:Feuchte:Taupunkt:
Aussen-T/F 2626 29-01-2016 02:45:00 0.2 C 95 % -0.5 C
2627 29-01-2016 02:50:00 0.1 C 95 % -0.6 C
2628 29-01-2016 02:55:00 0.2 C 95 % -0.5 C
2629 29-01-2016 03:00:00 0.3 C 95 % -0.4 C
2630 29-01-2016 03:05:00 0.4 C 96 % -0.16 C
2631 29-01-2016 03:10:00 0.5 C 96 % -0.06 C
2632 29-01-2016 03:15:00 0.6 C 96 % 0.04 C
2633 29-01-2016 03:20:00 0.9 C 96 % 0.34 C
2634 29-01-2016 03:25:00 1.2 C 96 % 0.63 C
2635 29-01-2016 03:30:00 1.5 C 96 % 0.93 C
2636 29-01-2016 03:35:00 1.7 C 96 % 1.13 C
2637 29-01-2016 03:40:00 1.9 C 97 % 1.48 C
2638 29-01-2016 03:45:00 1.9 C 96 % 1.33 C
2639 29-01-2016 03:50:00 1.9 C 96 % 1.33 C
2640 29-01-2016 03:55:00 1.9 C 96 % 1.33 C
2641 29-01-2016 04:00:00 1.9 C 96 % 1.33 C
2642 29-01-2016 04:05:00 2.1 C 96 % 1.53 C
2643 29-01-2016 04:10:00 2.1 C 96 % 1.53 C
2644 29-01-2016 04:15:00 2.1 C 96 % 1.53 C
2645 29-01-2016 04:20:00 2.1 C 95 % 1.38 C
2646 29-01-2016 04:25:00 2 C 95 % 1.29 C
2647 29-01-2016 04:30:00 2 C 95 % 1.29 C
2648 29-01-2016 04:35:00 1.9 C 95 % 1.19 C
2649 29-01-2016 04:40:00 1.8 C 94 % 0.94 C
2650 29-01-2016 04:45:00 1.6 C 94 % 0.74 C
Sensor: Nr:Datum:Temp:Feuchte:Taupunkt:
Aussen-T/F 2651 29-01-2016 04:50:00 1.4 C 94 % 0.54 C
2652 29-01-2016 04:55:00 1.4 C 95 % 0.69 C
2653 29-01-2016 05:00:00 1.5 C 95 % 0.79 C
2654 29-01-2016 05:05:00 1.7 C 95 % 0.99 C
2655 29-01-2016 05:10:00 1.9 C 95 % 1.19 C
2656 29-01-2016 05:15:00 2.2 C 95 % 1.48 C
2657 29-01-2016 05:20:00 2.2 C 95 % 1.48 C
2658 29-01-2016 05:25:00 2.2 C 95 % 1.48 C
2659 29-01-2016 05:30:00 2.1 C 94 % 1.24 C
2660 29-01-2016 05:35:00 2.2 C 94 % 1.34 C
2661 29-01-2016 05:40:00 2.3 C 95 % 1.58 C
2662 29-01-2016 05:45:00 2.4 C 94 % 1.54 C
2663 29-01-2016 05:50:00 2.5 C 94 % 1.63 C
2664 29-01-2016 05:55:00 2.6 C 94 % 1.73 C
2665 29-01-2016 06:00:00 2.7 C 94 % 1.83 C
2666 29-01-2016 06:05:00 2.9 C 93 % 1.88 C
2667 29-01-2016 06:10:00 3.1 C 93 % 2.08 C
2668 29-01-2016 06:15:00 3.1 C 92 % 1.93 C
2669 29-01-2016 06:20:00 3.1 C 92 % 1.93 C
2670 29-01-2016 06:25:00 3.1 C 92 % 1.93 C
2671 29-01-2016 06:30:00 3.1 C 92 % 1.93 C
2672 29-01-2016 06:35:00 3.2 C 91 % 1.88 C
2673 29-01-2016 06:40:00 3.3 C 91 % 1.98 C
2674 29-01-2016 06:45:00 3.3 C 91 % 1.98 C
2675 29-01-2016 06:50:00 3.3 C 90 % 1.82 C
Sensor: Nr:Datum:Temp:Feuchte:Taupunkt:
Aussen-T/F 2676 29-01-2016 06:55:00 3.2 C 90 % 1.72 C
2677 29-01-2016 07:00:00 3.1 C 91 % 1.78 C
2678 29-01-2016 07:05:00 3.1 C 91 % 1.78 C
2679 29-01-2016 07:10:00 3.1 C 91 % 1.78 C
2680 29-01-2016 07:15:00 3.1 C 91 % 1.78 C
2681 29-01-2016 07:20:00 3.1 C 91 % 1.78 C
2682 29-01-2016 07:25:00 3.1 C 91 % 1.78 C
2683 29-01-2016 07:30:00 3.2 C 91 % 1.88 C
2684 29-01-2016 07:35:00 3.2 C 91 % 1.88 C
2685 29-01-2016 07:40:00 3.2 C 91 % 1.88 C
2686 29-01-2016 07:45:00 3.3 C 91 % 1.98 C
2687 29-01-2016 07:50:00 3.3 C 90 % 1.82 C
2688 29-01-2016 07:55:00 3.3 C 91 % 1.98 C
2689 29-01-2016 08:00:00 3.4 C 90 % 1.92 C
2690 29-01-2016 08:05:00 3.5 C 90 % 2.02 C
2691 29-01-2016 08:10:00 3.5 C 90 % 2.02 C
2692 29-01-2016 08:15:00 3.6 C 90 % 2.12 C
2693 29-01-2016 08:20:00 3.6 C 90 % 2.12 C
2694 29-01-2016 08:25:00 3.6 C 90 % 2.12 C
2695 29-01-2016 08:30:00 3.6 C 90 % 2.12 C
2696 29-01-2016 08:35:00 3.6 C 90 % 2.12 C
2697 29-01-2016 08:40:00 3.7 C 90 % 2.22 C
2698 29-01-2016 08:45:00 3.7 C 89 % 2.06 C
2699 29-01-2016 08:50:00 3.8 C 90 % 2.31 C
2700 29-01-2016 08:55:00 3.8 C 90 % 2.31 C
Sensor: Nr:Datum:Temp:Feuchte:Taupunkt:
Aussen-T/F 2701 29-01-2016 09:00:00 4 C 90 % 2.51 C
2702 29-01-2016 09:05:00 4.1 C 89 % 2.45 C
2703 29-01-2016 09:10:00 4.2 C 89 % 2.55 C
2704 29-01-2016 09:15:00 4.4 C 88 % 2.59 C
2705 29-01-2016 09:20:00 4.4 C 88 % 2.59 C
2706 29-01-2016 09:25:00 4.6 C 88 % 2.79 C
2707 29-01-2016 09:30:00 4.6 C 87 % 2.63 C
2708 29-01-2016 09:35:00 4.7 C 87 % 2.73 C
2709 29-01-2016 09:40:00 4.7 C 87 % 2.73 C
2710 29-01-2016 09:45:00 4.8 C 87 % 2.82 C
2711 29-01-2016 09:50:00 4.8 C 87 % 2.82 C
2712 29-01-2016 09:55:00 4.9 C 87 % 2.92 C
2713 29-01-2016 10:00:00 4.9 C 87 % 2.92 C
2714 29-01-2016 10:05:00 5 C 87 % 3.02 C
2715 29-01-2016 10:10:00 5.1 C 87 % 3.12 C
2716 29-01-2016 10:15:00 5.2 C 86 % 3.05 C
2717 29-01-2016 10:20:00 5.2 C 86 % 3.05 C
2718 29-01-2016 10:25:00 5.3 C 86 % 3.15 C
2719 29-01-2016 10:30:00 5.4 C 86 % 3.25 C
2720 29-01-2016 10:35:00 5.5 C 86 % 3.35 C
2721 29-01-2016 10:40:00 5.6 C 85 % 3.28 C
2722 29-01-2016 10:45:00 5.7 C 85 % 3.38 C
2723 29-01-2016 10:50:00 5.7 C 85 % 3.38 C
2724 29-01-2016 10:55:00 5.6 C 85 % 3.28 C
2725 29-01-2016 11:00:00 5.6 C 85 % 3.28 C
Sensor: Nr:Datum:Temp:Feuchte:Taupunkt:
Aussen-T/F 2726 29-01-2016 11:05:00 5.6 C 85 % 3.28 C
2727 29-01-2016 11:10:00 5.7 C 84 % 3.21 C
2728 29-01-2016 11:15:00 5.7 C 85 % 3.38 C
2729 29-01-2016 11:20:00 5.7 C 85 % 3.38 C
2730 29-01-2016 11:25:00 5.8 C 85 % 3.48 C
2731 29-01-2016 11:30:00 5.8 C 85 % 3.48 C
2732 29-01-2016 11:35:00 5.9 C 84 % 3.41 C
2733 29-01-2016 11:40:00 5.9 C 84 % 3.41 C
2734 29-01-2016 11:45:00 5.9 C 84 % 3.41 C
2735 29-01-2016 11:50:00 5.9 C 84 % 3.41 C
2736 29-01-2016 11:55:00 5.9 C 84 % 3.41 C
2737 29-01-2016 12:00:00 6 C 84 % 3.51 C
2738 29-01-2016 12:05:00 6 C 84 % 3.51 C
2739 29-01-2016 12:10:00 6.1 C 84 % 3.61 C
2740 29-01-2016 12:15:00 6.2 C 83 % 3.53 C
2741 29-01-2016 12:20:00 6.3 C 83 % 3.63 C
2742 29-01-2016 12:25:00 6.4 C 83 % 3.73 C
2743 29-01-2016 12:30:00 6.5 C 83 % 3.83 C
2744 29-01-2016 12:35:00 6.7 C 83 % 4.02 C
2745 29-01-2016 12:40:00 6.8 C 82 % 3.95 C
2746 29-01-2016 12:45:00 7 C 81 % 3.97 C
2747 29-01-2016 12:50:00 7.2 C 81 % 4.16 C
2748 29-01-2016 12:55:00 7.4 C 80 % 4.18 C
2749 29-01-2016 13:00:00 7.6 C 80 % 4.38 C
2750 29-01-2016 13:05:00 7.7 C 79 % 4.3 C
Sensor: Nr:Datum:Temp:Feuchte:Taupunkt:
Aussen-T/F 2751 29-01-2016 13:10:00 7.7 C 79 % 4.3 C
2752 29-01-2016 13:15:00 7.8 C 79 % 4.39 C
2753 29-01-2016 13:20:00 7.9 C 79 % 4.49 C
2754 29-01-2016 13:25:00 8 C 78 % 4.41 C
2755 29-01-2016 13:30:00 8.1 C 78 % 4.5 C
2756 29-01-2016 13:35:00 8.1 C 79 % 4.68 C
2757 29-01-2016 13:40:00 8.1 C 78 % 4.5 C
2758 29-01-2016 13:45:00 8.1 C 79 % 4.68 C
2759 29-01-2016 13:50:00 8.1 C 78 % 4.5 C
2760 29-01-2016 13:55:00 8.1 C 79 % 4.68 C
2761 29-01-2016 14:00:00 8.2 C 79 % 4.78 C
2762 29-01-2016 14:05:00 8.2 C 78 % 4.6 C
2763 29-01-2016 14:10:00 8.2 C 78 % 4.6 C
2764 29-01-2016 14:15:00 8.2 C 79 % 4.78 C
2765 29-01-2016 14:20:00 8.2 C 78 % 4.6 C
2766 29-01-2016 14:25:00 8.3 C 78 % 4.7 C
2767 29-01-2016 14:30:00 8.3 C 78 % 4.7 C
2768 29-01-2016 14:35:00 8.4 C 78 % 4.79 C
2769 29-01-2016 14:40:00 8.4 C 78 % 4.79 C
2770 29-01-2016 14:45:00 8.5 C 78 % 4.89 C
2771 29-01-2016 14:50:00 8.5 C 77 % 4.71 C
2772 29-01-2016 14:55:00 8.5 C 78 % 4.89 C
2773 29-01-2016 15:00:00 8.6 C 78 % 4.99 C
2774 29-01-2016 15:05:00 8.6 C 78 % 4.99 C
2775 29-01-2016 15:10:00 8.6 C 78 % 4.99 C
Sensor: Nr:Datum:Temp:Feuchte:Taupunkt:
Aussen-T/F 2776 29-01-2016 15:15:00 8.6 C 78 % 4.99 C
2777 29-01-2016 15:20:00 8.6 C 78 % 4.99 C
2778 29-01-2016 15:25:00 8.6 C 78 % 4.99 C
2779 29-01-2016 15:30:00 8.7 C 78 % 5.08 C
2780 29-01-2016 15:35:00 8.7 C 78 % 5.08 C
2781 29-01-2016 15:40:00 8.7 C 78 % 5.08 C
2782 29-01-2016 15:45:00 8.7 C 78 % 5.08 C
2783 29-01-2016 15:50:00 8.7 C 78 % 5.08 C
2784 29-01-2016 15:55:00 8.8 C 78 % 5.18 C
2785 29-01-2016 16:00:00 8.8 C 78 % 5.18 C
2786 29-01-2016 16:05:00 8.9 C 78 % 5.28 C
2787 29-01-2016 16:10:00 8.9 C 78 % 5.28 C
2788 29-01-2016 16:15:00 8.9 C 78 % 5.28 C
2789 29-01-2016 16:20:00 8.9 C 77 % 5.09 C
2790 29-01-2016 16:25:00 9 C 77 % 5.19 C
2791 29-01-2016 16:30:00 9 C 77 % 5.19 C
2792 29-01-2016 16:35:00 9.1 C 77 % 5.29 C
2793 29-01-2016 16:40:00 9.1 C 77 % 5.29 C
2794 29-01-2016 16:45:00 9.1 C 77 % 5.29 C
2795 29-01-2016 16:50:00 9.1 C 77 % 5.29 C
2796 29-01-2016 16:55:00 9.1 C 77 % 5.29 C
2797 29-01-2016 17:00:00 9.1 C 77 % 5.29 C
2798 29-01-2016 17:05:00 9.1 C 77 % 5.29 C
2799 29-01-2016 17:10:00 9.1 C 77 % 5.29 C
2800 29-01-2016 17:15:00 9.1 C 77 % 5.29 C
Sensor: Nr:Datum:Temp:Feuchte:Taupunkt:
Aussen-T/F 2801 29-01-2016 17:20:00 9.1 C 78 % 5.47 C
2802 29-01-2016 17:25:00 9.1 C 78 % 5.47 C
2803 29-01-2016 17:30:00 9.1 C 78 % 5.47 C
2804 29-01-2016 17:35:00 9.1 C 78 % 5.47 C
2805 29-01-2016 17:40:00 9.1 C 78 % 5.47 C
2806 29-01-2016 17:45:00 9.1 C 78 % 5.47 C
2807 29-01-2016 17:50:00 9.1 C 78 % 5.47 C
2808 29-01-2016 17:55:00 9.1 C 78 % 5.47 C
2809 29-01-2016 18:00:00 9.1 C 78 % 5.47 C
2810 29-01-2016 18:05:00 9.1 C 78 % 5.47 C
2811 29-01-2016 18:10:00 9.1 C 78 % 5.47 C
2812 29-01-2016 18:15:00 9.1 C 78 % 5.47 C
2813 29-01-2016 18:20:00 9.1 C 78 % 5.47 C
2814 29-01-2016 18:25:00 9.1 C 79 % 5.66 C
2815 29-01-2016 18:30:00 9 C 79 % 5.56 C
2816 29-01-2016 18:35:00 8.9 C 79 % 5.46 C
2817 29-01-2016 18:40:00 8.9 C 79 % 5.46 C
2818 29-01-2016 18:45:00 8.9 C 79 % 5.46 C
2819 29-01-2016 18:50:00 8.9 C 79 % 5.46 C
2820 29-01-2016 18:55:00 8.9 C 80 % 5.64 C
2821 29-01-2016 19:00:00 8.9 C 80 % 5.64 C
2822 29-01-2016 19:05:00 8.9 C 80 % 5.64 C
2823 29-01-2016 19:10:00 8.8 C 80 % 5.55 C
2824 29-01-2016 19:15:00 8.8 C 80 % 5.55 C
2825 29-01-2016 19:20:00 8.8 C 80 % 5.55 C
Sensor: Nr:Datum:Temp:Feuchte:Taupunkt:
Aussen-T/F 2826 29-01-2016 19:25:00 8.8 C 80 % 5.55 C
2827 29-01-2016 19:30:00 8.8 C 80 % 5.55 C
2828 29-01-2016 19:35:00 8.8 C 80 % 5.55 C
2829 29-01-2016 19:40:00 8.8 C 80 % 5.55 C
2830 29-01-2016 19:45:00 8.8 C 80 % 5.55 C
2831 29-01-2016 19:50:00 8.8 C 81 % 5.72 C
2832 29-01-2016 19:55:00 8.8 C 80 % 5.55 C
2833 29-01-2016 20:00:00 8.8 C 81 % 5.72 C
2834 29-01-2016 20:05:00 8.8 C 81 % 5.72 C
2835 29-01-2016 20:10:00 8.7 C 81 % 5.63 C
2836 29-01-2016 20:15:00 8.7 C 81 % 5.63 C
2837 29-01-2016 20:20:00 8.7 C 81 % 5.63 C
2838 29-01-2016 20:25:00 8.7 C 82 % 5.8 C
2839 29-01-2016 20:30:00 8.7 C 82 % 5.8 C
2840 29-01-2016 20:35:00 8.7 C 82 % 5.8 C
2841 29-01-2016 20:40:00 8.7 C 82 % 5.8 C
2842 29-01-2016 20:45:00 8.7 C 82 % 5.8 C
2843 29-01-2016 20:50:00 8.7 C 82 % 5.8 C
2844 29-01-2016 20:55:00 8.6 C 82 % 5.71 C
2845 29-01-2016 21:00:00 8.6 C 83 % 5.88 C
2846 29-01-2016 21:05:00 8.6 C 83 % 5.88 C
2847 29-01-2016 21:10:00 8.6 C 83 % 5.88 C
2848 29-01-2016 21:15:00 8.5 C 83 % 5.78 C
2849 29-01-2016 21:20:00 8.5 C 83 % 5.78 C
2850 29-01-2016 21:25:00 8.5 C 84 % 5.96 C
Sensor: Nr:Datum:Temp:Feuchte:Taupunkt:
Aussen-T/F 2851 29-01-2016 21:30:00 8.5 C 84 % 5.96 C
2852 29-01-2016 21:35:00 8.4 C 84 % 5.86 C
2853 29-01-2016 21:40:00 8.4 C 84 % 5.86 C
2854 29-01-2016 21:45:00 8.4 C 84 % 5.86 C
2855 29-01-2016 21:50:00 8.4 C 84 % 5.86 C
2856 29-01-2016 21:55:00 8.4 C 84 % 5.86 C
2857 29-01-2016 22:00:00 8.4 C 84 % 5.86 C
2858 29-01-2016 22:05:00 8.4 C 84 % 5.86 C
2859 29-01-2016 22:10:00 8.4 C 84 % 5.86 C
2860 29-01-2016 22:15:00 8.4 C 84 % 5.86 C
2861 29-01-2016 22:20:00 8.4 C 84 % 5.86 C
2862 29-01-2016 22:25:00 8.4 C 84 % 5.86 C
2863 29-01-2016 22:30:00 8.4 C 84 % 5.86 C
2864 29-01-2016 22:35:00 8.4 C 84 % 5.86 C
2865 29-01-2016 22:40:00 8.4 C 84 % 5.86 C
2866 29-01-2016 22:45:00 8.4 C 84 % 5.86 C
2867 29-01-2016 22:50:00 8.4 C 84 % 5.86 C
2868 29-01-2016 22:55:00 8.4 C 84 % 5.86 C
2869 29-01-2016 23:00:00 8.4 C 84 % 5.86 C
2870 29-01-2016 23:05:00 8.4 C 84 % 5.86 C
2871 29-01-2016 23:10:00 8.4 C 84 % 5.86 C
2872 29-01-2016 23:15:00 8.4 C 84 % 5.86 C
2873 29-01-2016 23:20:00 8.4 C 84 % 5.86 C
2874 29-01-2016 23:25:00 8.4 C 84 % 5.86 C
2875 29-01-2016 23:30:00 8.4 C 84 % 5.86 C
Sensor: Nr:Datum:Temp:Feuchte:Taupunkt:
Aussen-T/F 2876 29-01-2016 23:35:00 8.5 C 84 % 5.96 C
2877 29-01-2016 23:40:00 8.5 C 84 % 5.96 C
2878 29-01-2016 23:45:00 8.5 C 84 % 5.96 C
2879 29-01-2016 23:50:00 8.5 C 84 % 5.96 C
2880 29-01-2016 23:55:00 8.5 C 84 % 5.96 C
2881 30-01-2016 00:00:00 8.5 C 84 % 5.96 C
2882 30-01-2016 00:05:00 8.5 C 84 % 5.96 C
2883 30-01-2016 00:10:00 8.5 C 84 % 5.96 C
2884 30-01-2016 00:15:00 8.5 C 85 % 6.13 C
2885 30-01-2016 00:20:00 8.5 C 85 % 6.13 C
2886 30-01-2016 00:25:00 8.5 C 85 % 6.13 C
2887 30-01-2016 00:30:00 8.5 C 85 % 6.13 C
2888 30-01-2016 00:35:00 8.5 C 85 % 6.13 C
2889 30-01-2016 00:40:00 8.4 C 85 % 6.03 C
2890 30-01-2016 00:45:00 8.4 C 85 % 6.03 C
2891 30-01-2016 00:50:00 8.4 C 85 % 6.03 C
2892 30-01-2016 00:55:00 8.4 C 85 % 6.03 C
2893 30-01-2016 01:00:00 8.4 C 85 % 6.03 C
2894 30-01-2016 01:05:00 8.4 C 85 % 6.03 C
2895 30-01-2016 01:10:00 8.4 C 85 % 6.03 C
2896 30-01-2016 01:15:00 8.4 C 85 % 6.03 C
2897 30-01-2016 01:20:00 8.4 C 85 % 6.03 C
2898 30-01-2016 01:25:00 8.4 C 85 % 6.03 C
2899 30-01-2016 01:30:00 8.4 C 85 % 6.03 C
2900 30-01-2016 01:35:00 8.4 C 86 % 6.2 C
Sensor: Nr:Datum:Temp:Feuchte:Taupunkt:
Aussen-T/F 2901 30-01-2016 01:40:00 8.4 C 86 % 6.2 C
2902 30-01-2016 01:45:00 8.4 C 86 % 6.2 C
2903 30-01-2016 01:50:00 8.4 C 86 % 6.2 C
2904 30-01-2016 01:55:00 8.4 C 86 % 6.2 C
2905 30-01-2016 02:00:00 8.4 C 86 % 6.2 C
2906 30-01-2016 02:05:00 8.4 C 86 % 6.2 C
2907 30-01-2016 02:10:00 8.5 C 86 % 6.3 C
2908 30-01-2016 02:15:00 8.5 C 86 % 6.3 C
2909 30-01-2016 02:20:00 8.5 C 86 % 6.3 C
2910 30-01-2016 02:25:00 8.4 C 86 % 6.2 C
2911 30-01-2016 02:30:00 8.4 C 86 % 6.2 C
2912 30-01-2016 02:35:00 8.4 C 86 % 6.2 C
2913 30-01-2016 02:40:00 8.4 C 86 % 6.2 C
2914 30-01-2016 02:45:00 8.5 C 86 % 6.3 C
2915 30-01-2016 02:50:00 8.5 C 86 % 6.3 C
2916 30-01-2016 02:55:00 8.6 C 86 % 6.39 C
2917 30-01-2016 03:00:00 8.7 C 86 % 6.49 C
2918 30-01-2016 03:05:00 8.7 C 86 % 6.49 C
2919 30-01-2016 03:10:00 8.6 C 85 % 6.23 C
2920 30-01-2016 03:15:00 8.7 C 85 % 6.32 C
2921 30-01-2016 03:20:00 8.7 C 85 % 6.32 C
2922 30-01-2016 03:25:00 8.7 C 85 % 6.32 C
2923 30-01-2016 03:30:00 8.7 C 86 % 6.49 C
2924 30-01-2016 03:35:00 8.6 C 86 % 6.39 C
2925 30-01-2016 03:40:00 8.7 C 86 % 6.49 C
Sensor: Nr:Datum:Temp:Feuchte:Taupunkt:
Aussen-T/F 2926 30-01-2016 03:45:00 8.7 C 85 % 6.32 C
2927 30-01-2016 03:50:00 8.7 C 85 % 6.32 C
2928 30-01-2016 03:55:00 8.7 C 85 % 6.32 C
2929 30-01-2016 04:00:00 8.8 C 85 % 6.42 C
2930 30-01-2016 04:05:00 8.8 C 85 % 6.42 C
2931 30-01-2016 04:10:00 8.8 C 84 % 6.25 C
2932 30-01-2016 04:15:00 8.8 C 84 % 6.25 C
2933 30-01-2016 04:20:00 8.9 C 84 % 6.35 C
2934 30-01-2016 04:25:00 8.9 C 84 % 6.35 C
2935 30-01-2016 04:30:00 8.9 C 83 % 6.17 C
2936 30-01-2016 04:35:00 8.9 C 83 % 6.17 C
2937 30-01-2016 04:40:00 9 C 83 % 6.27 C
2938 30-01-2016 04:45:00 9.1 C 83 % 6.37 C
2939 30-01-2016 04:50:00 9.1 C 82 % 6.19 C
2940 30-01-2016 04:55:00 9.1 C 82 % 6.19 C
2941 30-01-2016 05:00:00 9.1 C 82 % 6.19 C
2942 30-01-2016 05:05:00 9.1 C 82 % 6.19 C
2943 30-01-2016 05:10:00 9.2 C 82 % 6.29 C
2944 30-01-2016 05:15:00 9.2 C 82 % 6.29 C
2945 30-01-2016 05:20:00 9.2 C 81 % 6.11 C
2946 30-01-2016 05:25:00 9.2 C 81 % 6.11 C
2947 30-01-2016 05:30:00 9.2 C 82 % 6.29 C
2948 30-01-2016 05:35:00 9.2 C 82 % 6.29 C
2949 30-01-2016 05:40:00 9.2 C 81 % 6.11 C
2950 30-01-2016 05:45:00 9.1 C 82 % 6.19 C
Sensor: Nr:Datum:Temp:Feuchte:Taupunkt:
Aussen-T/F 2951 30-01-2016 05:50:00 9.1 C 82 % 6.19 C
2952 30-01-2016 05:55:00 9.1 C 81 % 6.02 C
2953 30-01-2016 06:00:00 9.1 C 81 % 6.02 C
2954 30-01-2016 06:05:00 9.2 C 81 % 6.11 C
2955 30-01-2016 06:10:00 9.2 C 81 % 6.11 C
2956 30-01-2016 06:15:00 9.2 C 81 % 6.11 C
2957 30-01-2016 06:20:00 9.2 C 81 % 6.11 C
2958 30-01-2016 06:25:00 9.2 C 81 % 6.11 C
2959 30-01-2016 06:30:00 9.2 C 81 % 6.11 C
2960 30-01-2016 06:35:00 9.2 C 81 % 6.11 C
2961 30-01-2016 06:40:00 9.2 C 81 % 6.11 C
2962 30-01-2016 06:45:00 9.2 C 81 % 6.11 C
2963 30-01-2016 06:50:00 9.2 C 81 % 6.11 C
2964 30-01-2016 06:55:00 9.2 C 81 % 6.11 C
2965 30-01-2016 07:00:00 9.2 C 81 % 6.11 C
2966 30-01-2016 07:05:00 9.2 C 81 % 6.11 C
2967 30-01-2016 07:10:00 9.2 C 81 % 6.11 C
2968 30-01-2016 07:15:00 9.2 C 80 % 5.94 C
2969 30-01-2016 07:20:00 9.2 C 81 % 6.11 C
2970 30-01-2016 07:25:00 9.2 C 81 % 6.11 C
2971 30-01-2016 07:30:00 9.1 C 81 % 6.02 C
2972 30-01-2016 07:35:00 9.1 C 81 % 6.02 C
2973 30-01-2016 07:40:00 9 C 81 % 5.92 C
2974 30-01-2016 07:45:00 8.9 C 82 % 6 C
2975 30-01-2016 07:50:00 8.9 C 82 % 6 C
Sensor: Nr:Datum:Temp:Feuchte:Taupunkt:
Aussen-T/F 2976 30-01-2016 07:55:00 8.9 C 82 % 6 C
2977 30-01-2016 08:00:00 8.9 C 82 % 6 C
2978 30-01-2016 08:05:00 9 C 82 % 6.1 C
2979 30-01-2016 08:10:00 9 C 82 % 6.1 C
2980 30-01-2016 08:15:00 8.9 C 82 % 6 C
2981 30-01-2016 08:20:00 8.9 C 83 % 6.17 C
2982 30-01-2016 08:25:00 8.9 C 83 % 6.17 C
2983 30-01-2016 08:30:00 8.8 C 83 % 6.08 C
2984 30-01-2016 08:35:00 8.9 C 83 % 6.17 C
2985 30-01-2016 08:40:00 8.8 C 83 % 6.08 C
2986 30-01-2016 08:45:00 8.8 C 83 % 6.08 C
2987 30-01-2016 08:50:00 8.8 C 83 % 6.08 C
2988 30-01-2016 08:55:00 8.8 C 83 % 6.08 C
2989 30-01-2016 09:00:00 8.8 C 84 % 6.25 C
2990 30-01-2016 09:05:00 8.7 C 83 % 5.98 C
2991 30-01-2016 09:10:00 8.7 C 84 % 6.15 C
2992 30-01-2016 09:15:00 8.7 C 84 % 6.15 C
2993 30-01-2016 09:20:00 8.7 C 84 % 6.15 C
2994 30-01-2016 09:25:00 8.6 C 84 % 6.05 C
2995 30-01-2016 09:30:00 8.6 C 85 % 6.23 C
2996 30-01-2016 09:35:00 8.5 C 85 % 6.13 C
2997 30-01-2016 09:40:00 8.4 C 86 % 6.2 C
2998 30-01-2016 09:45:00 8.4 C 86 % 6.2 C
2999 30-01-2016 09:50:00 8.4 C 86 % 6.2 C
3000 30-01-2016 09:55:00 8.2 C 87 % 6.17 C
Sensor: Nr:Datum:Temp:Feuchte:Taupunkt:
Aussen-T/F 3001 30-01-2016 10:00:00 8.2 C 87 % 6.17 C
3002 30-01-2016 10:05:00 8.2 C 87 % 6.17 C
3003 30-01-2016 10:10:00 8.2 C 87 % 6.17 C
3004 30-01-2016 10:15:00 8.2 C 87 % 6.17 C
3005 30-01-2016 10:25:00 8.1 C 87 % 6.07 C
3006 30-01-2016 11:15:00 8.1 C 86 % 5.9 C
3007 30-01-2016 11:20:00 8.1 C 86 % 5.9 C
3008 30-01-2016 11:25:00 8.1 C 86 % 5.9 C
3009 30-01-2016 11:30:00 8.2 C 86 % 6 C
3010 30-01-2016 11:35:00 8.2 C 86 % 6 C
3011 30-01-2016 11:40:00 8.2 C 86 % 6 C
3012 30-01-2016 11:45:00 8.2 C 86 % 6 C
3013 30-01-2016 11:50:00 8.2 C 85 % 5.83 C
3014 30-01-2016 11:55:00 8.3 C 85 % 5.93 C
3015 30-01-2016 12:00:00 8.3 C 85 % 5.93 C
3016 30-01-2016 12:05:00 8.4 C 85 % 6.03 C
3017 30-01-2016 12:10:00 8.4 C 84 % 5.86 C
3018 30-01-2016 12:15:00 8.3 C 85 % 5.93 C
3019 30-01-2016 12:20:00 8.3 C 85 % 5.93 C
3020 30-01-2016 12:25:00 8.3 C 86 % 6.1 C
3021 30-01-2016 12:30:00 8.2 C 87 % 6.17 C
3022 30-01-2016 12:35:00 8.1 C 87 % 6.07 C
3023 30-01-2016 12:40:00 8 C 87 % 5.97 C
3024 30-01-2016 12:45:00 7.9 C 88 % 6.04 C
3025 30-01-2016 12:50:00 7.9 C 89 % 6.2 C
Sensor: Nr:Datum:Temp:Feuchte:Taupunkt:
Aussen-T/F 3026 30-01-2016 12:55:00 7.9 C 89 % 6.2 C
3027 30-01-2016 13:00:00 7.9 C 89 % 6.2 C
3028 30-01-2016 13:05:00 7.9 C 89 % 6.2 C
3029 30-01-2016 13:10:00 7.9 C 89 % 6.2 C
3030 30-01-2016 13:15:00 7.9 C 89 % 6.2 C
3031 30-01-2016 13:20:00 8 C 89 % 6.3 C
3032 30-01-2016 13:25:00 8.1 C 88 % 6.24 C
3033 30-01-2016 13:30:00 8.2 C 88 % 6.33 C
3034 30-01-2016 13:35:00 8.2 C 88 % 6.33 C
3035 30-01-2016 13:40:00 8.3 C 87 % 6.27 C
3036 30-01-2016 13:45:00 8.3 C 87 % 6.27 C
3037 30-01-2016 13:50:00 8.3 C 86 % 6.1 C
3038 30-01-2016 13:55:00 8.3 C 86 % 6.1 C
3039 30-01-2016 14:00:00 8.3 C 86 % 6.1 C
3040 30-01-2016 14:05:00 8.2 C 87 % 6.17 C
3041 30-01-2016 14:10:00 8.2 C 87 % 6.17 C
3042 30-01-2016 14:15:00 8.1 C 88 % 6.24 C
3043 30-01-2016 14:20:00 8 C 88 % 6.14 C
3044 30-01-2016 14:25:00 7.9 C 88 % 6.04 C
3045 30-01-2016 14:30:00 7.9 C 88 % 6.04 C
3046 30-01-2016 14:35:00 7.8 C 89 % 6.1 C
3047 30-01-2016 14:40:00 7.8 C 89 % 6.1 C
3048 30-01-2016 14:45:00 7.8 C 89 % 6.1 C
3049 30-01-2016 14:50:00 7.8 C 89 % 6.1 C
3050 30-01-2016 14:55:00 7.7 C 89 % 6 C
Sensor: Nr:Datum:Temp:Feuchte:Taupunkt:
Aussen-T/F 3051 30-01-2016 15:00:00 7.7 C 89 % 6 C
3052 30-01-2016 15:05:00 7.7 C 89 % 6 C
3053 30-01-2016 15:10:00 7.7 C 89 % 6 C
3054 30-01-2016 15:15:00 7.7 C 90 % 6.17 C
3055 30-01-2016 15:20:00 7.7 C 90 % 6.17 C
3056 30-01-2016 15:25:00 7.6 C 90 % 6.07 C
3057 30-01-2016 15:30:00 7.6 C 91 % 6.23 C
3058 30-01-2016 15:35:00 7.6 C 91 % 6.23 C
3059 30-01-2016 15:40:00 7.6 C 91 % 6.23 C
3060 30-01-2016 15:45:00 7.6 C 91 % 6.23 C
3061 30-01-2016 15:50:00 7.6 C 91 % 6.23 C
3062 30-01-2016 15:55:00 7.5 C 91 % 6.13 C
3063 30-01-2016 16:00:00 7.5 C 92 % 6.29 C
3064 30-01-2016 16:05:00 7.5 C 92 % 6.29 C
3065 30-01-2016 16:10:00 7.4 C 92 % 6.19 C
3066 30-01-2016 16:15:00 7.4 C 92 % 6.19 C
3067 30-01-2016 16:20:00 7.4 C 92 % 6.19 C
3068 30-01-2016 16:25:00 7.3 C 93 % 6.25 C
3069 30-01-2016 16:30:00 7.3 C 92 % 6.09 C
3070 30-01-2016 16:35:00 7.3 C 92 % 6.09 C
3071 30-01-2016 16:40:00 7.3 C 93 % 6.25 C
3072 30-01-2016 16:45:00 7.2 C 93 % 6.15 C
3073 30-01-2016 16:50:00 7.2 C 93 % 6.15 C
3074 30-01-2016 16:55:00 7.1 C 93 % 6.05 C
3075 30-01-2016 17:00:00 7.1 C 93 % 6.05 C
Sensor: Nr:Datum:Temp:Feuchte:Taupunkt:
Aussen-T/F 3076 30-01-2016 17:05:00 7.1 C 93 % 6.05 C
3077 30-01-2016 17:10:00 6.9 C 93 % 5.85 C
3078 30-01-2016 17:15:00 6.9 C 93 % 5.85 C
3079 30-01-2016 17:20:00 6.8 C 93 % 5.75 C
3080 30-01-2016 17:25:00 6.8 C 92 % 5.59 C
3081 30-01-2016 17:30:00 6.7 C 92 % 5.49 C
3082 30-01-2016 17:35:00 6.7 C 92 % 5.49 C
3083 30-01-2016 17:40:00 6.7 C 92 % 5.49 C
3084 30-01-2016 17:45:00 6.6 C 92 % 5.4 C
3085 30-01-2016 17:50:00 6.6 C 91 % 5.24 C
3086 30-01-2016 17:55:00 6.6 C 91 % 5.24 C
3087 30-01-2016 18:00:00 6.6 C 91 % 5.24 C
3088 30-01-2016 18:05:00 6.6 C 91 % 5.24 C
3089 30-01-2016 18:10:00 6.6 C 91 % 5.24 C
3090 30-01-2016 18:15:00 6.5 C 90 % 4.98 C
3091 30-01-2016 18:20:00 6.4 C 90 % 4.88 C
3092 30-01-2016 18:25:00 6.4 C 90 % 4.88 C
3093 30-01-2016 18:30:00 6.4 C 90 % 4.88 C
3094 30-01-2016 18:35:00 6.3 C 91 % 4.94 C
3095 30-01-2016 18:40:00 6.3 C 90 % 4.78 C
3096 30-01-2016 18:45:00 6.3 C 90 % 4.78 C
3097 30-01-2016 18:50:00 6.3 C 90 % 4.78 C
3098 30-01-2016 18:55:00 6.2 C 90 % 4.69 C
3099 30-01-2016 19:00:00 6.2 C 90 % 4.69 C
3100 30-01-2016 19:05:00 6.2 C 90 % 4.69 C
Sensor: Nr:Datum:Temp:Feuchte:Taupunkt:
Aussen-T/F 3101 30-01-2016 19:10:00 6.2 C 89 % 4.53 C
3102 30-01-2016 19:15:00 6.2 C 89 % 4.53 C
3103 30-01-2016 19:20:00 6.2 C 89 % 4.53 C
3104 30-01-2016 19:25:00 6.1 C 89 % 4.43 C
3105 30-01-2016 19:30:00 6.1 C 89 % 4.43 C
3106 30-01-2016 19:35:00 6 C 88 % 4.17 C
3107 30-01-2016 19:40:00 5.9 C 88 % 4.07 C
3108 30-01-2016 19:45:00 5.8 C 89 % 4.13 C
3109 30-01-2016 19:50:00 5.8 C 88 % 3.97 C
3110 30-01-2016 19:55:00 5.8 C 88 % 3.97 C
3111 30-01-2016 20:00:00 5.8 C 88 % 3.97 C
3112 30-01-2016 20:05:00 5.8 C 88 % 3.97 C
3113 30-01-2016 20:10:00 5.8 C 89 % 4.13 C
3114 30-01-2016 20:15:00 5.8 C 89 % 4.13 C
3115 30-01-2016 20:20:00 5.8 C 89 % 4.13 C
3116 30-01-2016 20:25:00 5.8 C 89 % 4.13 C
3117 30-01-2016 20:30:00 5.7 C 88 % 3.87 C
3118 30-01-2016 20:35:00 5.7 C 88 % 3.87 C
3119 30-01-2016 20:40:00 5.6 C 88 % 3.77 C
3120 30-01-2016 20:45:00 5.5 C 88 % 3.67 C
3121 30-01-2016 20:50:00 5.5 C 88 % 3.67 C
3122 30-01-2016 20:55:00 5.6 C 87 % 3.61 C
3123 30-01-2016 21:00:00 5.6 C 87 % 3.61 C
3124 30-01-2016 21:05:00 5.6 C 86 % 3.45 C
3125 30-01-2016 21:10:00 5.7 C 85 % 3.38 C
Sensor: Nr:Datum:Temp:Feuchte:Taupunkt:
Aussen-T/F 3126 30-01-2016 21:15:00 5.3 C 85 % 2.99 C
3127 30-01-2016 21:20:00 4.8 C 87 % 2.82 C
3128 30-01-2016 21:25:00 4.4 C 88 % 2.59 C
3129 30-01-2016 21:30:00 4.1 C 89 % 2.45 C
3130 30-01-2016 21:35:00 3.9 C 91 % 2.57 C
3131 30-01-2016 21:40:00 3.9 C 91 % 2.57 C
3132 30-01-2016 21:45:00 3.9 C 92 % 2.72 C
3133 30-01-2016 21:50:00 3.8 C 92 % 2.62 C
3134 30-01-2016 21:55:00 3.8 C 93 % 2.77 C
3135 30-01-2016 22:00:00 3.7 C 93 % 2.68 C
3136 30-01-2016 22:05:00 3.7 C 93 % 2.68 C
3137 30-01-2016 22:10:00 3.6 C 92 % 2.42 C
3138 30-01-2016 22:15:00 3.6 C 92 % 2.42 C
3139 30-01-2016 22:20:00 3.4 C 92 % 2.23 C
3140 30-01-2016 22:25:00 3.3 C 91 % 1.98 C
3141 30-01-2016 22:30:00 3.3 C 90 % 1.82 C
3142 30-01-2016 22:35:00 3.3 C 90 % 1.82 C
3143 30-01-2016 22:40:00 3.2 C 90 % 1.72 C
3144 30-01-2016 22:45:00 3.2 C 91 % 1.88 C
3145 30-01-2016 22:50:00 3.1 C 91 % 1.78 C
3146 30-01-2016 22:55:00 3 C 90 % 1.52 C
3147 30-01-2016 23:00:00 3 C 90 % 1.52 C
3148 30-01-2016 23:05:00 3 C 90 % 1.52 C
3149 30-01-2016 23:10:00 2.9 C 90 % 1.43 C
3150 30-01-2016 23:15:00 2.9 C 90 % 1.43 C
Sensor: Nr:Datum:Temp:Feuchte:Taupunkt:
Aussen-T/F 3151 30-01-2016 23:20:00 2.8 C 90 % 1.33 C
3152 30-01-2016 23:25:00 2.7 C 91 % 1.38 C
3153 30-01-2016 23:30:00 2.6 C 91 % 1.28 C
3154 30-01-2016 23:35:00 2.5 C 91 % 1.18 C
3155 30-01-2016 23:40:00 2.4 C 92 % 1.24 C
3156 30-01-2016 23:45:00 2.5 C 92 % 1.34 C
3157 30-01-2016 23:50:00 2.5 C 93 % 1.49 C
3158 30-01-2016 23:55:00 2.5 C 93 % 1.49 C
3159 31-01-2016 00:00:00 2.5 C 93 % 1.49 C
3160 31-01-2016 00:05:00 2.5 C 93 % 1.49 C
3161 31-01-2016 00:10:00 2.4 C 93 % 1.39 C
3162 31-01-2016 00:15:00 2.4 C 93 % 1.39 C
3163 31-01-2016 00:20:00 2.3 C 93 % 1.29 C
3164 31-01-2016 00:25:00 2.3 C 93 % 1.29 C
3165 31-01-2016 00:30:00 2.3 C 94 % 1.44 C
3166 31-01-2016 00:35:00 2.4 C 94 % 1.54 C
3167 31-01-2016 00:40:00 2.4 C 94 % 1.54 C
3168 31-01-2016 00:45:00 2.4 C 94 % 1.54 C
3169 31-01-2016 00:50:00 2.5 C 94 % 1.63 C
3170 31-01-2016 00:55:00 2.6 C 94 % 1.73 C
3171 31-01-2016 01:00:00 2.6 C 94 % 1.73 C
3172 31-01-2016 01:05:00 2.7 C 94 % 1.83 C
3173 31-01-2016 01:10:00 2.7 C 93 % 1.68 C
3174 31-01-2016 01:15:00 2.8 C 93 % 1.78 C
3175 31-01-2016 01:20:00 2.8 C 93 % 1.78 C
Sensor: Nr:Datum:Temp:Feuchte:Taupunkt:
Aussen-T/F 3176 31-01-2016 01:25:00 2.9 C 93 % 1.88 C
3177 31-01-2016 01:30:00 2.9 C 93 % 1.88 C
3178 31-01-2016 01:35:00 2.9 C 92 % 1.73 C
3179 31-01-2016 01:40:00 3.1 C 92 % 1.93 C
3180 31-01-2016 01:45:00 3.1 C 92 % 1.93 C
3181 31-01-2016 01:50:00 3.1 C 92 % 1.93 C
3182 31-01-2016 01:55:00 3.2 C 92 % 2.03 C
3183 31-01-2016 02:00:00 3.2 C 91 % 1.88 C
3184 31-01-2016 02:05:00 3.2 C 91 % 1.88 C
3185 31-01-2016 02:10:00 3.2 C 91 % 1.88 C
3186 31-01-2016 02:15:00 3.2 C 91 % 1.88 C
3187 31-01-2016 02:20:00 3.2 C 91 % 1.88 C
3188 31-01-2016 02:25:00 3.2 C 91 % 1.88 C
3189 31-01-2016 02:30:00 3.2 C 91 % 1.88 C
3190 31-01-2016 02:35:00 3.2 C 91 % 1.88 C
3191 31-01-2016 02:40:00 3.2 C 91 % 1.88 C
3192 31-01-2016 02:45:00 3.3 C 92 % 2.13 C
3193 31-01-2016 02:50:00 3.3 C 91 % 1.98 C
3194 31-01-2016 02:55:00 3.3 C 91 % 1.98 C
3195 31-01-2016 03:00:00 3.2 C 91 % 1.88 C
3196 31-01-2016 03:05:00 3.2 C 92 % 2.03 C
3197 31-01-2016 03:10:00 3.2 C 92 % 2.03 C
3198 31-01-2016 03:15:00 3.3 C 92 % 2.13 C
3199 31-01-2016 03:20:00 3.4 C 92 % 2.23 C
3200 31-01-2016 03:25:00 3.6 C 92 % 2.42 C
Sensor: Nr:Datum:Temp:Feuchte:Taupunkt:
Aussen-T/F 3201 31-01-2016 03:30:00 3.7 C 92 % 2.52 C
3202 31-01-2016 03:35:00 3.7 C 91 % 2.37 C
3203 31-01-2016 03:40:00 3.7 C 91 % 2.37 C
3204 31-01-2016 03:45:00 3.8 C 91 % 2.47 C
3205 31-01-2016 03:50:00 3.8 C 91 % 2.47 C
3206 31-01-2016 03:55:00 3.9 C 91 % 2.57 C
3207 31-01-2016 04:00:00 3.9 C 91 % 2.57 C
3208 31-01-2016 04:05:00 4.1 C 91 % 2.77 C
3209 31-01-2016 04:10:00 4.2 C 91 % 2.87 C
3210 31-01-2016 04:15:00 4.2 C 91 % 2.87 C
3211 31-01-2016 04:20:00 4.2 C 91 % 2.87 C
3212 31-01-2016 04:25:00 4.2 C 91 % 2.87 C
3213 31-01-2016 04:30:00 4.2 C 91 % 2.87 C
3214 31-01-2016 04:35:00 4.2 C 90 % 2.71 C
3215 31-01-2016 04:40:00 4.2 C 90 % 2.71 C
3216 31-01-2016 04:45:00 4.2 C 90 % 2.71 C
3217 31-01-2016 04:50:00 4.2 C 90 % 2.71 C
3218 31-01-2016 04:55:00 4.2 C 91 % 2.87 C
3219 31-01-2016 05:00:00 4.2 C 91 % 2.87 C
3220 31-01-2016 05:05:00 4.2 C 91 % 2.87 C
3221 31-01-2016 05:10:00 4.2 C 91 % 2.87 C
3222 31-01-2016 05:15:00 4.2 C 91 % 2.87 C
3223 31-01-2016 05:20:00 4.2 C 91 % 2.87 C
3224 31-01-2016 05:25:00 4.2 C 91 % 2.87 C
3225 31-01-2016 05:30:00 4.2 C 91 % 2.87 C
Sensor: Nr:Datum:Temp:Feuchte:Taupunkt:
Aussen-T/F 3226 31-01-2016 05:35:00 4.2 C 91 % 2.87 C
3227 31-01-2016 05:40:00 4.2 C 91 % 2.87 C
3228 31-01-2016 05:45:00 4.2 C 91 % 2.87 C
3229 31-01-2016 05:50:00 4.3 C 91 % 2.96 C
3230 31-01-2016 05:55:00 4.4 C 90 % 2.91 C
3231 31-01-2016 06:00:00 4.4 C 90 % 2.91 C
3232 31-01-2016 06:05:00 4.4 C 90 % 2.91 C
3233 31-01-2016 06:10:00 4.4 C 90 % 2.91 C
3234 31-01-2016 06:15:00 4.4 C 90 % 2.91 C
3235 31-01-2016 06:20:00 4.4 C 90 % 2.91 C
3236 31-01-2016 06:25:00 4.3 C 90 % 2.81 C
3237 31-01-2016 06:30:00 4.3 C 90 % 2.81 C
3238 31-01-2016 06:35:00 4.2 C 90 % 2.71 C
3239 31-01-2016 06:40:00 4.2 C 91 % 2.87 C
3240 31-01-2016 06:45:00 4.2 C 91 % 2.87 C
3241 31-01-2016 06:50:00 4.2 C 91 % 2.87 C
3242 31-01-2016 06:55:00 4.2 C 91 % 2.87 C
3243 31-01-2016 07:00:00 4.1 C 91 % 2.77 C
3244 31-01-2016 07:05:00 4 C 91 % 2.67 C
3245 31-01-2016 07:10:00 3.9 C 91 % 2.57 C
3246 31-01-2016 07:15:00 3.9 C 91 % 2.57 C
3247 31-01-2016 07:20:00 3.8 C 91 % 2.47 C
3248 31-01-2016 07:25:00 3.8 C 91 % 2.47 C
3249 31-01-2016 07:30:00 3.8 C 92 % 2.62 C
3250 31-01-2016 07:35:00 3.8 C 92 % 2.62 C
Sensor: Nr:Datum:Temp:Feuchte:Taupunkt:
Aussen-T/F 3251 31-01-2016 07:40:00 3.7 C 92 % 2.52 C
3252 31-01-2016 07:45:00 3.7 C 92 % 2.52 C
3253 31-01-2016 07:50:00 3.7 C 92 % 2.52 C
3254 31-01-2016 07:55:00 3.7 C 92 % 2.52 C
3255 31-01-2016 08:00:00 3.7 C 92 % 2.52 C
3256 31-01-2016 08:05:00 3.6 C 92 % 2.42 C
3257 31-01-2016 08:10:00 3.7 C 92 % 2.52 C
3258 31-01-2016 08:15:00 3.7 C 92 % 2.52 C
3259 31-01-2016 08:20:00 3.8 C 92 % 2.62 C
3260 31-01-2016 08:25:00 3.8 C 92 % 2.62 C
3261 31-01-2016 08:30:00 3.8 C 92 % 2.62 C
3262 31-01-2016 08:35:00 3.9 C 92 % 2.72 C
3263 31-01-2016 08:40:00 4 C 92 % 2.82 C
3264 31-01-2016 08:45:00 4.1 C 92 % 2.92 C
3265 31-01-2016 08:50:00 4.2 C 92 % 3.02 C
3266 31-01-2016 08:55:00 4.3 C 92 % 3.12 C
3267 31-01-2016 09:00:00 4.3 C 92 % 3.12 C
3268 31-01-2016 09:05:00 4.4 C 92 % 3.22 C
3269 31-01-2016 09:10:00 4.5 C 92 % 3.32 C
3270 31-01-2016 09:15:00 4.7 C 91 % 3.36 C
3271 31-01-2016 09:20:00 4.9 C 90 % 3.4 C
3272 31-01-2016 09:25:00 5 C 90 % 3.5 C
3273 31-01-2016 09:30:00 5.1 C 89 % 3.44 C
3274 31-01-2016 09:35:00 5.2 C 88 % 3.38 C
3275 31-01-2016 09:40:00 5.2 C 88 % 3.38 C
Sensor: Nr:Datum:Temp:Feuchte:Taupunkt:
Aussen-T/F 3276 31-01-2016 09:45:00 5.3 C 88 % 3.48 C
3277 31-01-2016 09:50:00 5.4 C 88 % 3.58 C
3278 31-01-2016 09:55:00 5.4 C 88 % 3.58 C
3279 31-01-2016 10:00:00 5.5 C 87 % 3.51 C
3280 31-01-2016 10:05:00 5.5 C 87 % 3.51 C
3281 31-01-2016 10:10:00 5.6 C 87 % 3.61 C
3282 31-01-2016 10:15:00 5.6 C 87 % 3.61 C
3283 31-01-2016 10:20:00 5.6 C 87 % 3.61 C
3284 31-01-2016 10:25:00 5.7 C 87 % 3.71 C
3285 31-01-2016 10:30:00 5.7 C 87 % 3.71 C
3286 31-01-2016 10:35:00 5.8 C 87 % 3.81 C
3287 31-01-2016 10:40:00 5.8 C 86 % 3.64 C
3288 31-01-2016 10:45:00 5.8 C 86 % 3.64 C
3289 31-01-2016 10:50:00 5.9 C 86 % 3.74 C
3290 31-01-2016 10:55:00 5.9 C 86 % 3.74 C
3291 31-01-2016 11:00:00 5.9 C 86 % 3.74 C
3292 31-01-2016 11:05:00 5.9 C 86 % 3.74 C
3293 31-01-2016 11:10:00 6 C 87 % 4 C
3294 31-01-2016 11:15:00 6.1 C 86 % 3.94 C
3295 31-01-2016 11:20:00 6.1 C 86 % 3.94 C
3296 31-01-2016 11:25:00 6.2 C 86 % 4.04 C
3297 31-01-2016 11:30:00 6.2 C 86 % 4.04 C
3298 31-01-2016 11:35:00 6.2 C 86 % 4.04 C
3299 31-01-2016 11:40:00 6.3 C 86 % 4.14 C
3300 31-01-2016 11:45:00 6.3 C 86 % 4.14 C
Sensor: Nr:Datum:Temp:Feuchte:Taupunkt:
Aussen-T/F 3301 31-01-2016 11:50:00 6.4 C 86 % 4.23 C
3302 31-01-2016 11:55:00 6.5 C 86 % 4.33 C
3303 31-01-2016 12:00:00 6.6 C 86 % 4.43 C
3304 31-01-2016 12:05:00 6.6 C 86 % 4.43 C
3305 31-01-2016 12:10:00 6.7 C 85 % 4.36 C
3306 31-01-2016 12:15:00 6.8 C 86 % 4.63 C
3307 31-01-2016 12:20:00 6.9 C 86 % 4.72 C
3308 31-01-2016 12:25:00 6.9 C 85 % 4.56 C
3309 31-01-2016 12:30:00 7.1 C 85 % 4.75 C
3310 31-01-2016 12:35:00 7.1 C 85 % 4.75 C
3311 31-01-2016 12:40:00 7.2 C 85 % 4.85 C
3312 31-01-2016 12:45:00 7.2 C 85 % 4.85 C
3313 31-01-2016 12:50:00 7.3 C 85 % 4.95 C
3314 31-01-2016 12:55:00 7.3 C 85 % 4.95 C
3315 31-01-2016 13:00:00 7.4 C 85 % 5.05 C
3316 31-01-2016 13:05:00 7.4 C 85 % 5.05 C
3317 31-01-2016 13:10:00 7.5 C 85 % 5.15 C
3318 31-01-2016 13:15:00 7.6 C 84 % 5.07 C
3319 31-01-2016 13:20:00 7.6 C 84 % 5.07 C
3320 31-01-2016 13:25:00 7.6 C 84 % 5.07 C
3321 31-01-2016 13:30:00 7.6 C 84 % 5.07 C
3322 31-01-2016 13:35:00 7.6 C 84 % 5.07 C
3323 31-01-2016 13:40:00 7.6 C 84 % 5.07 C
3324 31-01-2016 13:45:00 7.6 C 84 % 5.07 C
3325 31-01-2016 13:50:00 7.6 C 84 % 5.07 C
Sensor: Nr:Datum:Temp:Feuchte:Taupunkt:
Aussen-T/F 3326 31-01-2016 13:55:00 7.6 C 84 % 5.07 C
3327 31-01-2016 14:00:00 7.6 C 84 % 5.07 C
3328 31-01-2016 14:05:00 7.6 C 84 % 5.07 C
3329 31-01-2016 14:10:00 7.6 C 84 % 5.07 C
3330 31-01-2016 14:15:00 7.6 C 84 % 5.07 C
3331 31-01-2016 14:20:00 7.6 C 84 % 5.07 C
3332 31-01-2016 14:25:00 7.6 C 84 % 5.07 C
3333 31-01-2016 14:30:00 7.6 C 84 % 5.07 C
3334 31-01-2016 14:35:00 7.6 C 84 % 5.07 C
3335 31-01-2016 14:40:00 7.6 C 84 % 5.07 C
3336 31-01-2016 14:45:00 7.6 C 84 % 5.07 C
3337 31-01-2016 14:50:00 7.6 C 84 % 5.07 C
3338 31-01-2016 14:55:00 7.6 C 84 % 5.07 C
3339 31-01-2016 15:00:00 7.6 C 85 % 5.24 C
3340 31-01-2016 15:05:00 7.6 C 85 % 5.24 C
3341 31-01-2016 15:10:00 7.6 C 85 % 5.24 C
3342 31-01-2016 15:15:00 7.6 C 85 % 5.24 C
3343 31-01-2016 15:20:00 7.6 C 85 % 5.24 C
3344 31-01-2016 15:25:00 7.6 C 85 % 5.24 C
3345 31-01-2016 15:30:00 7.6 C 85 % 5.24 C
3346 31-01-2016 15:35:00 7.6 C 85 % 5.24 C
3347 31-01-2016 15:40:00 7.7 C 85 % 5.34 C
3348 31-01-2016 15:45:00 7.7 C 86 % 5.51 C
3349 31-01-2016 15:50:00 7.7 C 86 % 5.51 C
3350 31-01-2016 15:55:00 7.7 C 86 % 5.51 C
Sensor: Nr:Datum:Temp:Feuchte:Taupunkt:
Aussen-T/F 3351 31-01-2016 16:00:00 7.7 C 86 % 5.51 C
3352 31-01-2016 16:05:00 7.7 C 86 % 5.51 C
3353 31-01-2016 16:10:00 7.7 C 86 % 5.51 C
3354 31-01-2016 16:15:00 7.7 C 86 % 5.51 C
3355 31-01-2016 16:20:00 7.7 C 86 % 5.51 C
3356 31-01-2016 16:25:00 7.7 C 86 % 5.51 C
3357 31-01-2016 16:30:00 7.8 C 86 % 5.61 C
3358 31-01-2016 16:35:00 7.8 C 86 % 5.61 C
3359 31-01-2016 16:40:00 7.8 C 86 % 5.61 C
3360 31-01-2016 16:45:00 7.8 C 86 % 5.61 C
3361 31-01-2016 16:50:00 7.8 C 86 % 5.61 C
3362 31-01-2016 16:55:00 7.8 C 86 % 5.61 C
3363 31-01-2016 17:00:00 7.8 C 86 % 5.61 C
3364 31-01-2016 17:05:00 7.8 C 87 % 5.78 C
3365 31-01-2016 17:10:00 7.8 C 87 % 5.78 C
3366 31-01-2016 17:15:00 7.9 C 87 % 5.87 C
3367 31-01-2016 17:20:00 7.9 C 87 % 5.87 C
3368 31-01-2016 17:25:00 7.8 C 87 % 5.78 C
3369 31-01-2016 17:30:00 7.8 C 88 % 5.94 C
3370 31-01-2016 17:35:00 7.8 C 88 % 5.94 C
3371 31-01-2016 17:40:00 7.8 C 88 % 5.94 C
3372 31-01-2016 17:45:00 7.9 C 88 % 6.04 C
3373 31-01-2016 17:50:00 7.9 C 88 % 6.04 C
3374 31-01-2016 17:55:00 8 C 88 % 6.14 C
3375 31-01-2016 18:00:00 8.1 C 88 % 6.24 C
Sensor: Nr:Datum:Temp:Feuchte:Taupunkt:
Aussen-T/F 3376 31-01-2016 18:05:00 8.1 C 88 % 6.24 C
3377 31-01-2016 18:10:00 8.1 C 88 % 6.24 C
3378 31-01-2016 18:15:00 8.2 C 88 % 6.33 C
3379 31-01-2016 18:20:00 8.2 C 88 % 6.33 C
3380 31-01-2016 18:25:00 8.2 C 88 % 6.33 C
3381 31-01-2016 18:30:00 8.2 C 88 % 6.33 C
3382 31-01-2016 18:35:00 8.3 C 88 % 6.43 C
3383 31-01-2016 18:40:00 8.3 C 89 % 6.6 C
3384 31-01-2016 18:45:00 8.4 C 89 % 6.7 C
3385 31-01-2016 18:50:00 8.4 C 89 % 6.7 C
3386 31-01-2016 18:55:00 8.5 C 89 % 6.79 C
3387 31-01-2016 19:00:00 8.6 C 89 % 6.89 C
3388 31-01-2016 19:05:00 8.6 C 89 % 6.89 C
3389 31-01-2016 19:10:00 8.6 C 89 % 6.89 C
3390 31-01-2016 19:15:00 8.6 C 90 % 7.06 C
3391 31-01-2016 19:20:00 8.6 C 90 % 7.06 C
3392 31-01-2016 19:25:00 8.7 C 90 % 7.15 C
3393 31-01-2016 19:30:00 8.7 C 90 % 7.15 C
3394 31-01-2016 19:35:00 8.7 C 90 % 7.15 C
3395 31-01-2016 19:40:00 8.8 C 90 % 7.25 C
3396 31-01-2016 19:45:00 8.8 C 90 % 7.25 C
3397 31-01-2016 19:50:00 8.9 C 90 % 7.35 C
3398 31-01-2016 19:55:00 8.9 C 90 % 7.35 C
3399 31-01-2016 20:00:00 8.9 C 90 % 7.35 C
3400 31-01-2016 20:05:00 8.9 C 90 % 7.35 C
Sensor: Nr:Datum:Temp:Feuchte:Taupunkt:
Aussen-T/F 3401 31-01-2016 20:10:00 8.9 C 90 % 7.35 C
3402 31-01-2016 20:15:00 9 C 90 % 7.45 C
3403 31-01-2016 20:20:00 9 C 91 % 7.61 C
3404 31-01-2016 20:25:00 9.1 C 91 % 7.71 C
3405 31-01-2016 20:30:00 9.1 C 91 % 7.71 C
3406 31-01-2016 20:35:00 9.2 C 91 % 7.81 C
3407 31-01-2016 20:40:00 9.2 C 91 % 7.81 C
3408 31-01-2016 20:45:00 9.3 C 91 % 7.91 C
3409 31-01-2016 20:50:00 9.3 C 91 % 7.91 C
3410 31-01-2016 20:55:00 9.4 C 91 % 8.01 C
3411 31-01-2016 21:00:00 9.4 C 91 % 8.01 C
3412 31-01-2016 21:05:00 9.6 C 91 % 8.21 C
3413 31-01-2016 21:10:00 9.6 C 91 % 8.21 C
3414 31-01-2016 21:15:00 9.7 C 91 % 8.3 C
3415 31-01-2016 21:20:00 9.7 C 91 % 8.3 C
3416 31-01-2016 21:25:00 9.8 C 91 % 8.4 C
3417 31-01-2016 21:30:00 9.9 C 91 % 8.5 C
3418 31-01-2016 21:35:00 10.1 C 91 % 8.7 C
3419 31-01-2016 21:40:00 10.1 C 91 % 8.7 C
3420 31-01-2016 21:45:00 10.1 C 92 % 8.86 C
3421 31-01-2016 21:50:00 10.1 C 92 % 8.86 C
3422 31-01-2016 21:55:00 10.1 C 92 % 8.86 C
3423 31-01-2016 22:00:00 10.1 C 92 % 8.86 C
3424 31-01-2016 22:05:00 10.1 C 92 % 8.86 C
3425 31-01-2016 22:10:00 10.1 C 92 % 8.86 C
Sensor: Nr:Datum:Temp:Feuchte:Taupunkt:
Aussen-T/F 3426 31-01-2016 22:15:00 10.2 C 92 % 8.96 C
3427 31-01-2016 22:20:00 10.2 C 92 % 8.96 C
3428 31-01-2016 22:25:00 10.3 C 93 % 9.22 C
3429 31-01-2016 22:30:00 10.3 C 93 % 9.22 C
3430 31-01-2016 22:35:00 10.3 C 93 % 9.22 C
3431 31-01-2016 22:40:00 10.4 C 93 % 9.32 C
3432 31-01-2016 22:45:00 10.4 C 93 % 9.32 C
3433 31-01-2016 22:50:00 10.4 C 93 % 9.32 C
3434 31-01-2016 22:55:00 10.4 C 93 % 9.32 C
3435 31-01-2016 23:00:00 10.4 C 94 % 9.48 C
3436 31-01-2016 23:05:00 10.4 C 94 % 9.48 C
3437 31-01-2016 23:10:00 10.6 C 94 % 9.68 C
3438 31-01-2016 23:15:00 10.6 C 94 % 9.68 C
3439 31-01-2016 23:20:00 10.7 C 94 % 9.77 C
3440 31-01-2016 23:25:00 10.8 C 94 % 9.87 C
3441 31-01-2016 23:30:00 10.8 C 94 % 9.87 C
3442 31-01-2016 23:35:00 10.9 C 94 % 9.97 C
3443 31-01-2016 23:40:00 11 C 93 % 9.91 C
3444 31-01-2016 23:45:00 11.1 C 93 % 10.01 C
3445 31-01-2016 23:50:00 11.2 C 93 % 10.11 C
3446 31-01-2016 23:55:00 11.2 C 93 % 10.11 C
3447 01-02-2016 00:00:00 11.2 C 93 % 10.11 C
3448 01-02-2016 00:05:00 11.3 C 93 % 10.21 C
3449 01-02-2016 00:10:00 11.3 C 93 % 10.21 C
3450 01-02-2016 00:15:00 11.3 C 93 % 10.21 C
Sensor: Nr:Datum:Temp:Feuchte:Taupunkt:
Aussen-T/F 3451 01-02-2016 00:20:00 11.4 C 93 % 10.31 C
3452 01-02-2016 00:25:00 11.4 C 93 % 10.31 C
3453 01-02-2016 00:30:00 11.3 C 93 % 10.21 C
3454 01-02-2016 00:35:00 11.3 C 93 % 10.21 C
3455 01-02-2016 00:40:00 11.3 C 93 % 10.21 C
3456 01-02-2016 00:45:00 11.3 C 93 % 10.21 C
3457 01-02-2016 00:50:00 11.3 C 94 % 10.37 C
3458 01-02-2016 00:55:00 11.3 C 94 % 10.37 C
3459 01-02-2016 01:00:00 11.4 C 94 % 10.47 C
3460 01-02-2016 01:05:00 11.4 C 94 % 10.47 C
3461 01-02-2016 01:10:00 11.4 C 94 % 10.47 C
3462 01-02-2016 01:15:00 11.4 C 94 % 10.47 C
3463 01-02-2016 01:20:00 11.4 C 94 % 10.47 C
3464 01-02-2016 01:25:00 11.4 C 94 % 10.47 C
3465 01-02-2016 01:30:00 11.5 C 94 % 10.57 C
3466 01-02-2016 01:35:00 11.5 C 94 % 10.57 C
3467 01-02-2016 01:40:00 11.5 C 94 % 10.57 C
3468 01-02-2016 01:45:00 11.5 C 94 % 10.57 C
3469 01-02-2016 01:50:00 11.5 C 94 % 10.57 C
3470 01-02-2016 01:55:00 11.6 C 94 % 10.67 C
3471 01-02-2016 02:00:00 11.6 C 94 % 10.67 C
3472 01-02-2016 02:05:00 11.6 C 94 % 10.67 C
3473 01-02-2016 02:10:00 11.6 C 94 % 10.67 C
3474 01-02-2016 02:15:00 11.6 C 94 % 10.67 C
3475 01-02-2016 02:20:00 11.7 C 94 % 10.77 C
Sensor: Nr:Datum:Temp:Feuchte:Taupunkt:
Aussen-T/F 3476 01-02-2016 02:25:00 11.7 C 94 % 10.77 C
3477 01-02-2016 02:30:00 11.8 C 93 % 10.71 C
3478 01-02-2016 02:35:00 11.9 C 93 % 10.81 C
3479 01-02-2016 02:40:00 11.9 C 93 % 10.81 C
3480 01-02-2016 02:45:00 11.9 C 93 % 10.81 C
3481 01-02-2016 02:50:00 11.9 C 92 % 10.64 C
3482 01-02-2016 02:55:00 12 C 92 % 10.74 C
3483 01-02-2016 03:00:00 12.1 C 92 % 10.84 C
3484 01-02-2016 03:05:00 12.1 C 92 % 10.84 C
3485 01-02-2016 03:10:00 12.1 C 91 % 10.68 C
3486 01-02-2016 03:15:00 12.1 C 91 % 10.68 C
3487 01-02-2016 03:20:00 12.2 C 91 % 10.78 C
3488 01-02-2016 03:25:00 12.3 C 90 % 10.71 C
3489 01-02-2016 03:30:00 12.3 C 90 % 10.71 C
3490 01-02-2016 03:35:00 12.4 C 89 % 10.64 C
3491 01-02-2016 03:40:00 12.6 C 89 % 10.84 C
3492 01-02-2016 03:45:00 12.6 C 89 % 10.84 C
3493 01-02-2016 03:50:00 12.6 C 88 % 10.67 C
3494 01-02-2016 03:55:00 12.6 C 87 % 10.5 C
3495 01-02-2016 04:00:00 12.7 C 87 % 10.59 C
3496 01-02-2016 04:05:00 12.7 C 87 % 10.59 C
3497 01-02-2016 04:10:00 12.7 C 87 % 10.59 C
3498 01-02-2016 04:15:00 12.7 C 87 % 10.59 C
3499 01-02-2016 04:20:00 12.8 C 86 % 10.52 C
3500 01-02-2016 04:25:00 12.8 C 86 % 10.52 C
Sensor: Nr:Datum:Temp:Feuchte:Taupunkt:
Aussen-T/F 3501 01-02-2016 04:30:00 12.8 C 86 % 10.52 C
3502 01-02-2016 04:35:00 12.8 C 85 % 10.34 C
3503 01-02-2016 04:40:00 12.8 C 85 % 10.34 C
3504 01-02-2016 04:45:00 12.8 C 85 % 10.34 C
3505 01-02-2016 04:50:00 12.8 C 85 % 10.34 C
3506 01-02-2016 04:55:00 12.8 C 85 % 10.34 C
3507 01-02-2016 05:00:00 12.8 C 85 % 10.34 C
3508 01-02-2016 05:05:00 12.7 C 85 % 10.25 C
3509 01-02-2016 05:10:00 12.7 C 85 % 10.25 C
3510 01-02-2016 05:15:00 12.7 C 86 % 10.42 C
3511 01-02-2016 05:20:00 12.6 C 86 % 10.32 C
3512 01-02-2016 05:25:00 12.6 C 86 % 10.32 C
3513 01-02-2016 05:30:00 12.5 C 87 % 10.4 C
3514 01-02-2016 05:35:00 12.4 C 87 % 10.3 C
3515 01-02-2016 05:40:00 12.4 C 87 % 10.3 C
3516 01-02-2016 05:45:00 12.4 C 87 % 10.3 C
3517 01-02-2016 05:50:00 12.3 C 87 % 10.2 C
3518 01-02-2016 05:55:00 12.3 C 87 % 10.2 C
3519 01-02-2016 06:00:00 12.3 C 87 % 10.2 C
3520 01-02-2016 06:05:00 12.2 C 87 % 10.1 C
3521 01-02-2016 06:10:00 12.2 C 88 % 10.27 C
3522 01-02-2016 06:15:00 12.2 C 88 % 10.27 C
3523 01-02-2016 06:20:00 12.2 C 88 % 10.27 C
3524 01-02-2016 06:25:00 12.2 C 88 % 10.27 C
3525 01-02-2016 06:30:00 12.2 C 88 % 10.27 C
Sensor: Nr:Datum:Temp:Feuchte:Taupunkt:
Aussen-T/F 3526 01-02-2016 06:35:00 12.2 C 88 % 10.27 C
3527 01-02-2016 06:40:00 12.1 C 88 % 10.17 C
3528 01-02-2016 06:45:00 12.1 C 88 % 10.17 C
3529 01-02-2016 06:50:00 12.1 C 88 % 10.17 C
3530 01-02-2016 06:55:00 12.1 C 88 % 10.17 C
3531 01-02-2016 07:00:00 12.1 C 88 % 10.17 C
3532 01-02-2016 07:05:00 12.1 C 88 % 10.17 C
3533 01-02-2016 07:10:00 12.1 C 87 % 10 C
3534 01-02-2016 07:15:00 12.1 C 87 % 10 C
3535 01-02-2016 07:20:00 12.2 C 87 % 10.1 C
3536 01-02-2016 07:25:00 12.2 C 87 % 10.1 C
3537 01-02-2016 07:30:00 12.1 C 87 % 10 C
3538 01-02-2016 07:35:00 12.1 C 87 % 10 C
3539 01-02-2016 07:40:00 12.1 C 87 % 10 C
3540 01-02-2016 07:45:00 12.1 C 87 % 10 C
3541 01-02-2016 07:50:00 12.1 C 87 % 10 C
3542 01-02-2016 07:55:00 12.1 C 87 % 10 C
3543 01-02-2016 08:00:00 12.1 C 87 % 10 C
3544 01-02-2016 08:05:00 12.1 C 87 % 10 C
3545 01-02-2016 08:10:00 12.2 C 87 % 10.1 C
3546 01-02-2016 08:15:00 12.1 C 87 % 10 C
3547 01-02-2016 08:20:00 12.1 C 87 % 10 C
3548 01-02-2016 08:25:00 12.1 C 87 % 10 C
3549 01-02-2016 08:30:00 12.1 C 87 % 10 C
3550 01-02-2016 08:35:00 12.1 C 87 % 10 C
Sensor: Nr:Datum:Temp:Feuchte:Taupunkt:
Aussen-T/F 3551 01-02-2016 08:40:00 12.1 C 88 % 10.17 C
3552 01-02-2016 08:45:00 12 C 88 % 10.08 C
3553 01-02-2016 08:50:00 12 C 88 % 10.08 C
3554 01-02-2016 08:55:00 12 C 88 % 10.08 C
3555 01-02-2016 09:00:00 11.9 C 88 % 9.98 C
3556 01-02-2016 09:05:00 11.9 C 88 % 9.98 C
3557 01-02-2016 09:10:00 11.9 C 89 % 10.15 C
3558 01-02-2016 09:15:00 11.9 C 89 % 10.15 C
3559 01-02-2016 09:20:00 11.9 C 89 % 10.15 C
3560 01-02-2016 09:25:00 11.9 C 89 % 10.15 C
3561 01-02-2016 09:30:00 11.9 C 89 % 10.15 C
3562 01-02-2016 09:35:00 12 C 89 % 10.25 C
3563 01-02-2016 09:40:00 12 C 89 % 10.25 C
3564 01-02-2016 09:45:00 12 C 89 % 10.25 C
3565 01-02-2016 09:50:00 12.1 C 88 % 10.17 C
3566 01-02-2016 09:55:00 12.1 C 88 % 10.17 C
3567 01-02-2016 10:00:00 12.1 C 88 % 10.17 C
3568 01-02-2016 10:05:00 12.2 C 88 % 10.27 C
3569 01-02-2016 10:10:00 12.2 C 88 % 10.27 C
3570 01-02-2016 10:15:00 12.3 C 88 % 10.37 C
3571 01-02-2016 10:20:00 12.4 C 87 % 10.3 C
3572 01-02-2016 10:25:00 12.6 C 87 % 10.5 C
3573 01-02-2016 10:30:00 12.7 C 86 % 10.42 C
3574 01-02-2016 10:35:00 12.7 C 86 % 10.42 C
3575 01-02-2016 10:40:00 12.6 C 86 % 10.32 C
Sensor: Nr:Datum:Temp:Feuchte:Taupunkt:
Aussen-T/F 3576 01-02-2016 10:45:00 12.6 C 86 % 10.32 C
3577 01-02-2016 10:50:00 12.5 C 86 % 10.22 C
3578 01-02-2016 10:55:00 12.5 C 86 % 10.22 C
3579 01-02-2016 11:00:00 12.5 C 86 % 10.22 C
3580 01-02-2016 11:05:00 12.6 C 86 % 10.32 C
3581 01-02-2016 11:10:00 12.6 C 86 % 10.32 C
3582 01-02-2016 11:15:00 12.6 C 86 % 10.32 C
3583 01-02-2016 11:20:00 12.6 C 86 % 10.32 C
3584 01-02-2016 11:25:00 12.5 C 87 % 10.4 C
3585 01-02-2016 11:30:00 12.4 C 87 % 10.3 C
3586 01-02-2016 11:35:00 12.3 C 87 % 10.2 C
3587 01-02-2016 11:40:00 12.3 C 86 % 10.03 C
3588 01-02-2016 11:45:00 12.3 C 86 % 10.03 C
3589 01-02-2016 11:50:00 12.4 C 85 % 9.95 C
3590 01-02-2016 11:55:00 12.6 C 84 % 9.97 C
3591 01-02-2016 12:00:00 12.6 C 84 % 9.97 C
3592 01-02-2016 12:05:00 12.6 C 84 % 9.97 C
3593 01-02-2016 12:10:00 12.5 C 84 % 9.87 C
3594 01-02-2016 12:15:00 12.4 C 84 % 9.78 C
3595 01-02-2016 12:20:00 12.4 C 84 % 9.78 C
3596 01-02-2016 12:25:00 12.4 C 84 % 9.78 C
3597 01-02-2016 12:30:00 12.4 C 84 % 9.78 C
3598 01-02-2016 12:35:00 12.4 C 84 % 9.78 C
3599 01-02-2016 12:40:00 12.4 C 84 % 9.78 C
3600 01-02-2016 12:45:00 12.3 C 84 % 9.68 C
Sensor: Nr:Datum:Temp:Feuchte:Taupunkt:
Aussen-T/F 3601 01-02-2016 12:50:00 12.3 C 84 % 9.68 C
3602 01-02-2016 12:55:00 12.3 C 83 % 9.5 C
3603 01-02-2016 13:00:00 12.3 C 83 % 9.5 C
3604 01-02-2016 13:05:00 12.3 C 83 % 9.5 C
3605 01-02-2016 13:10:00 12.3 C 82 % 9.32 C
3606 01-02-2016 13:15:00 12.3 C 82 % 9.32 C
3607 01-02-2016 13:20:00 12.3 C 82 % 9.32 C
3608 01-02-2016 13:25:00 12.2 C 82 % 9.22 C
3609 01-02-2016 13:30:00 12.2 C 82 % 9.22 C
3610 01-02-2016 13:35:00 12.2 C 82 % 9.22 C
3611 01-02-2016 13:40:00 12.1 C 82 % 9.12 C
3612 01-02-2016 13:45:00 12.1 C 81 % 8.94 C
3613 01-02-2016 13:50:00 12 C 81 % 8.84 C
3614 01-02-2016 13:55:00 11.9 C 80 % 8.56 C
3615 01-02-2016 14:00:00 11.9 C 80 % 8.56 C
3616 01-02-2016 14:05:00 11.9 C 80 % 8.56 C
3617 01-02-2016 14:10:00 11.8 C 80 % 8.47 C
3618 01-02-2016 14:15:00 11.8 C 80 % 8.47 C
3619 01-02-2016 14:20:00 11.8 C 80 % 8.47 C
3620 01-02-2016 14:25:00 11.7 C 79 % 8.18 C
3621 01-02-2016 14:30:00 11.7 C 80 % 8.37 C
3622 01-02-2016 14:35:00 11.7 C 79 % 8.18 C
3623 01-02-2016 14:40:00 11.7 C 79 % 8.18 C
3624 01-02-2016 14:45:00 11.7 C 78 % 8 C
3625 01-02-2016 14:50:00 11.7 C 79 % 8.18 C
Sensor: Nr:Datum:Temp:Feuchte:Taupunkt:
Aussen-T/F 3626 01-02-2016 14:55:00 11.7 C 77 % 7.81 C
3627 01-02-2016 15:00:00 11.8 C 78 % 8.09 C
3628 01-02-2016 15:05:00 11.8 C 77 % 7.9 C
3629 01-02-2016 15:10:00 11.8 C 77 % 7.9 C
3630 01-02-2016 15:15:00 11.8 C 78 % 8.09 C
3631 01-02-2016 15:20:00 11.8 C 78 % 8.09 C
3632 01-02-2016 15:25:00 11.7 C 78 % 8 C
3633 01-02-2016 15:30:00 11.7 C 78 % 8 C
3634 01-02-2016 15:35:00 11.7 C 78 % 8 C
3635 01-02-2016 15:40:00 11.7 C 78 % 8 C
3636 01-02-2016 15:45:00 11.8 C 78 % 8.09 C
3637 01-02-2016 15:50:00 11.8 C 78 % 8.09 C
3638 01-02-2016 15:55:00 11.7 C 78 % 8 C
3639 01-02-2016 16:00:00 11.7 C 78 % 8 C
3640 01-02-2016 16:05:00 11.7 C 78 % 8 C
3641 01-02-2016 16:10:00 11.8 C 78 % 8.09 C
3642 01-02-2016 16:15:00 11.8 C 78 % 8.09 C
3643 01-02-2016 16:20:00 11.8 C 77 % 7.9 C
3644 01-02-2016 16:25:00 11.8 C 77 % 7.9 C
3645 01-02-2016 16:30:00 11.8 C 76 % 7.71 C
3646 01-02-2016 16:35:00 11.8 C 77 % 7.9 C
3647 01-02-2016 16:40:00 11.8 C 77 % 7.9 C
3648 01-02-2016 16:45:00 11.8 C 77 % 7.9 C
3649 01-02-2016 16:50:00 11.7 C 77 % 7.81 C
3650 01-02-2016 16:55:00 11.7 C 77 % 7.81 C
Sensor: Nr:Datum:Temp:Feuchte:Taupunkt:
Aussen-T/F 3651 01-02-2016 17:00:00 11.7 C 77 % 7.81 C
3652 01-02-2016 17:05:00 11.7 C 78 % 8 C
3653 01-02-2016 17:10:00 11.6 C 78 % 7.9 C
3654 01-02-2016 17:15:00 11.6 C 78 % 7.9 C
3655 01-02-2016 17:20:00 11.7 C 77 % 7.81 C
3656 01-02-2016 17:25:00 11.7 C 77 % 7.81 C
3657 01-02-2016 17:30:00 11.7 C 77 % 7.81 C
3658 01-02-2016 17:35:00 11.7 C 77 % 7.81 C
3659 01-02-2016 17:40:00 11.7 C 77 % 7.81 C
3660 01-02-2016 17:45:00 11.7 C 78 % 8 C
3661 01-02-2016 17:50:00 11.7 C 77 % 7.81 C
3662 01-02-2016 17:55:00 11.7 C 77 % 7.81 C
3663 01-02-2016 18:00:00 11.7 C 77 % 7.81 C
3664 01-02-2016 18:05:00 11.7 C 78 % 8 C
3665 01-02-2016 18:10:00 11.6 C 77 % 7.71 C
3666 01-02-2016 18:15:00 11.7 C 77 % 7.81 C
3667 01-02-2016 18:20:00 11.7 C 77 % 7.81 C
3668 01-02-2016 18:25:00 11.7 C 77 % 7.81 C
3669 01-02-2016 18:30:00 11.7 C 77 % 7.81 C
3670 01-02-2016 18:35:00 11.7 C 77 % 7.81 C
3671 01-02-2016 18:40:00 11.7 C 78 % 8 C
3672 01-02-2016 18:45:00 11.7 C 77 % 7.81 C
3673 01-02-2016 18:50:00 11.7 C 77 % 7.81 C
3674 01-02-2016 18:55:00 11.7 C 78 % 8 C
3675 01-02-2016 19:00:00 11.7 C 78 % 8 C
Sensor: Nr:Datum:Temp:Feuchte:Taupunkt:
Aussen-T/F 3676 01-02-2016 19:05:00 11.7 C 78 % 8 C
3677 01-02-2016 19:10:00 11.7 C 78 % 8 C
3678 01-02-2016 19:15:00 11.7 C 79 % 8.18 C
3679 01-02-2016 19:20:00 11.7 C 79 % 8.18 C
3680 01-02-2016 19:25:00 11.7 C 79 % 8.18 C
3681 01-02-2016 19:30:00 11.7 C 79 % 8.18 C
3682 01-02-2016 19:35:00 11.7 C 79 % 8.18 C
3683 01-02-2016 19:40:00 11.7 C 79 % 8.18 C
3684 01-02-2016 19:45:00 11.7 C 79 % 8.18 C
3685 01-02-2016 19:50:00 11.7 C 79 % 8.18 C
3686 01-02-2016 19:55:00 11.6 C 79 % 8.09 C
3687 01-02-2016 20:00:00 11.6 C 79 % 8.09 C
3688 01-02-2016 20:05:00 11.6 C 79 % 8.09 C
3689 01-02-2016 20:10:00 11.6 C 79 % 8.09 C
3690 01-02-2016 20:15:00 11.5 C 79 % 7.99 C
3691 01-02-2016 20:20:00 11.5 C 79 % 7.99 C
3692 01-02-2016 20:25:00 11.6 C 79 % 8.09 C
3693 01-02-2016 20:30:00 11.6 C 78 % 7.9 C
3694 01-02-2016 20:35:00 11.6 C 78 % 7.9 C
3695 01-02-2016 20:40:00 11.6 C 78 % 7.9 C
3696 01-02-2016 20:45:00 11.7 C 78 % 8 C
3697 01-02-2016 20:50:00 11.7 C 78 % 8 C
3698 01-02-2016 20:55:00 11.8 C 78 % 8.09 C
3699 01-02-2016 21:00:00 11.8 C 78 % 8.09 C
3700 01-02-2016 21:05:00 11.8 C 78 % 8.09 C
Sensor: Nr:Datum:Temp:Feuchte:Taupunkt:
Aussen-T/F 3701 01-02-2016 21:10:00 11.9 C 78 % 8.19 C
3702 01-02-2016 21:15:00 11.9 C 78 % 8.19 C
3703 01-02-2016 21:20:00 11.8 C 78 % 8.09 C
3704 01-02-2016 21:25:00 11.8 C 78 % 8.09 C
3705 01-02-2016 21:30:00 11.8 C 78 % 8.09 C
3706 01-02-2016 21:35:00 11.8 C 79 % 8.28 C
3707 01-02-2016 21:40:00 11.8 C 79 % 8.28 C
3708 01-02-2016 21:45:00 11.7 C 79 % 8.18 C
3709 01-02-2016 21:50:00 11.7 C 79 % 8.18 C
3710 01-02-2016 21:55:00 11.7 C 80 % 8.37 C
3711 01-02-2016 22:00:00 11.7 C 80 % 8.37 C
3712 01-02-2016 22:05:00 11.7 C 80 % 8.37 C
3713 01-02-2016 22:10:00 11.6 C 81 % 8.45 C
3714 01-02-2016 22:15:00 11.6 C 81 % 8.45 C
3715 01-02-2016 22:20:00 11.5 C 81 % 8.36 C
3716 01-02-2016 22:25:00 11.5 C 82 % 8.54 C
3717 01-02-2016 22:30:00 11.4 C 82 % 8.44 C
3718 01-02-2016 22:35:00 11.4 C 82 % 8.44 C
3719 01-02-2016 22:40:00 11.3 C 83 % 8.52 C
3720 01-02-2016 22:45:00 11.3 C 83 % 8.52 C
3721 01-02-2016 22:50:00 11.3 C 84 % 8.7 C
3722 01-02-2016 22:55:00 11.2 C 84 % 8.6 C
3723 01-02-2016 23:00:00 11.2 C 85 % 8.77 C
3724 01-02-2016 23:05:00 11.1 C 85 % 8.68 C
3725 01-02-2016 23:10:00 11 C 86 % 8.75 C
Sensor: Nr:Datum:Temp:Feuchte:Taupunkt:
Aussen-T/F 3726 01-02-2016 23:15:00 10.9 C 86 % 8.65 C
3727 01-02-2016 23:20:00 10.9 C 87 % 8.82 C
3728 01-02-2016 23:25:00 10.9 C 87 % 8.82 C
3729 01-02-2016 23:30:00 10.9 C 87 % 8.82 C
3730 01-02-2016 23:35:00 10.9 C 87 % 8.82 C
3731 01-02-2016 23:40:00 10.8 C 88 % 8.89 C
3732 01-02-2016 23:45:00 10.8 C 88 % 8.89 C
3733 01-02-2016 23:50:00 10.8 C 88 % 8.89 C
3734 01-02-2016 23:55:00 10.8 C 88 % 8.89 C
3735 02-02-2016 00:00:00 10.8 C 88 % 8.89 C
3736 02-02-2016 00:05:00 10.8 C 88 % 8.89 C
3737 02-02-2016 00:10:00 10.8 C 88 % 8.89 C
3738 02-02-2016 00:15:00 10.8 C 88 % 8.89 C
3739 02-02-2016 00:20:00 10.8 C 88 % 8.89 C
3740 02-02-2016 00:25:00 10.8 C 88 % 8.89 C
3741 02-02-2016 00:30:00 10.8 C 88 % 8.89 C
3742 02-02-2016 00:35:00 10.8 C 88 % 8.89 C
3743 02-02-2016 00:40:00 10.8 C 88 % 8.89 C
3744 02-02-2016 00:45:00 10.9 C 88 % 8.99 C
3745 02-02-2016 00:50:00 10.9 C 88 % 8.99 C
3746 02-02-2016 00:55:00 10.9 C 88 % 8.99 C
3747 02-02-2016 01:00:00 10.9 C 88 % 8.99 C
3748 02-02-2016 01:05:00 10.9 C 88 % 8.99 C
3749 02-02-2016 01:10:00 10.9 C 88 % 8.99 C
3750 02-02-2016 01:15:00 11 C 87 % 8.92 C
Sensor: Nr:Datum:Temp:Feuchte:Taupunkt:
Aussen-T/F 3751 02-02-2016 01:20:00 11.1 C 87 % 9.02 C
3752 02-02-2016 01:25:00 11.1 C 87 % 9.02 C
3753 02-02-2016 01:30:00 11.1 C 87 % 9.02 C
3754 02-02-2016 01:35:00 11.1 C 87 % 9.02 C
3755 02-02-2016 01:40:00 11.1 C 87 % 9.02 C
3756 02-02-2016 01:45:00 11.1 C 87 % 9.02 C
3757 02-02-2016 01:50:00 11.1 C 87 % 9.02 C
3758 02-02-2016 01:55:00 11.1 C 87 % 9.02 C
3759 02-02-2016 02:00:00 11.2 C 87 % 9.12 C
3760 02-02-2016 02:05:00 11.2 C 87 % 9.12 C
3761 02-02-2016 02:10:00 11.2 C 86 % 8.95 C
3762 02-02-2016 02:15:00 11.3 C 86 % 9.05 C
3763 02-02-2016 02:20:00 11.3 C 86 % 9.05 C
3764 02-02-2016 02:25:00 11.3 C 86 % 9.05 C
3765 02-02-2016 02:30:00 11.3 C 86 % 9.05 C
3766 02-02-2016 02:35:00 11.3 C 86 % 9.05 C
3767 02-02-2016 02:40:00 11.3 C 86 % 9.05 C
3768 02-02-2016 02:45:00 11.4 C 86 % 9.14 C
3769 02-02-2016 02:50:00 11.4 C 86 % 9.14 C
3770 02-02-2016 02:55:00 11.4 C 86 % 9.14 C
3771 02-02-2016 03:00:00 11.4 C 86 % 9.14 C
3772 02-02-2016 03:05:00 11.4 C 86 % 9.14 C
3773 02-02-2016 03:10:00 11.4 C 86 % 9.14 C
3774 02-02-2016 03:15:00 11.4 C 86 % 9.14 C
3775 02-02-2016 03:20:00 11.3 C 86 % 9.05 C
Sensor: Nr:Datum:Temp:Feuchte:Taupunkt:
Aussen-T/F 3776 02-02-2016 03:25:00 11.3 C 86 % 9.05 C
3777 02-02-2016 03:30:00 11.3 C 86 % 9.05 C
3778 02-02-2016 03:35:00 11.3 C 86 % 9.05 C
3779 02-02-2016 03:40:00 11.3 C 86 % 9.05 C
3780 02-02-2016 03:45:00 11.3 C 86 % 9.05 C
3781 02-02-2016 03:50:00 11.3 C 86 % 9.05 C
3782 02-02-2016 03:55:00 11.3 C 86 % 9.05 C
3783 02-02-2016 04:00:00 11.3 C 86 % 9.05 C
3784 02-02-2016 04:05:00 11.3 C 86 % 9.05 C
3785 02-02-2016 04:10:00 11.4 C 86 % 9.14 C
3786 02-02-2016 04:15:00 11.4 C 86 % 9.14 C
3787 02-02-2016 04:20:00 11.4 C 86 % 9.14 C
3788 02-02-2016 04:25:00 11.4 C 86 % 9.14 C
3789 02-02-2016 04:30:00 11.4 C 86 % 9.14 C
3790 02-02-2016 04:35:00 11.4 C 85 % 8.97 C
3791 02-02-2016 04:40:00 11.4 C 85 % 8.97 C
3792 02-02-2016 04:45:00 11.4 C 85 % 8.97 C
3793 02-02-2016 04:50:00 11.4 C 86 % 9.14 C
3794 02-02-2016 04:55:00 11.4 C 86 % 9.14 C
3795 02-02-2016 05:00:00 11.4 C 86 % 9.14 C
3796 02-02-2016 05:05:00 11.3 C 86 % 9.05 C
3797 02-02-2016 05:10:00 11.4 C 86 % 9.14 C
3798 02-02-2016 05:15:00 11.4 C 86 % 9.14 C
3799 02-02-2016 05:20:00 11.4 C 85 % 8.97 C
3800 02-02-2016 05:25:00 11.4 C 85 % 8.97 C
Sensor: Nr:Datum:Temp:Feuchte:Taupunkt:
Aussen-T/F 3801 02-02-2016 05:30:00 11.4 C 85 % 8.97 C
3802 02-02-2016 05:35:00 11.4 C 85 % 8.97 C
3803 02-02-2016 05:40:00 11.4 C 85 % 8.97 C
3804 02-02-2016 05:45:00 11.5 C 85 % 9.07 C
3805 02-02-2016 05:50:00 11.5 C 85 % 9.07 C
3806 02-02-2016 05:55:00 11.6 C 85 % 9.17 C
3807 02-02-2016 06:00:00 11.6 C 85 % 9.17 C
3808 02-02-2016 06:05:00 11.6 C 85 % 9.17 C
3809 02-02-2016 06:10:00 11.6 C 85 % 9.17 C
3810 02-02-2016 06:15:00 11.6 C 85 % 9.17 C
3811 02-02-2016 06:20:00 11.5 C 85 % 9.07 C
3812 02-02-2016 06:25:00 11.4 C 86 % 9.14 C
3813 02-02-2016 06:30:00 11.4 C 86 % 9.14 C
3814 02-02-2016 06:35:00 11.3 C 86 % 9.05 C
3815 02-02-2016 06:40:00 11.3 C 86 % 9.05 C
3816 02-02-2016 06:45:00 11.3 C 86 % 9.05 C
3817 02-02-2016 06:50:00 11.3 C 86 % 9.05 C
3818 02-02-2016 06:55:00 11.3 C 86 % 9.05 C
3819 02-02-2016 07:00:00 11.3 C 87 % 9.22 C
3820 02-02-2016 07:05:00 11.2 C 87 % 9.12 C
3821 02-02-2016 07:10:00 11.3 C 86 % 9.05 C
3822 02-02-2016 07:15:00 11.3 C 86 % 9.05 C
3823 02-02-2016 07:20:00 11.3 C 86 % 9.05 C
3824 02-02-2016 07:25:00 11.3 C 86 % 9.05 C
3825 02-02-2016 07:30:00 11.3 C 86 % 9.05 C
Sensor: Nr:Datum:Temp:Feuchte:Taupunkt:
Aussen-T/F 3826 02-02-2016 07:35:00 11.4 C 85 % 8.97 C
3827 02-02-2016 07:40:00 11.4 C 85 % 8.97 C
3828 02-02-2016 07:45:00 11.4 C 85 % 8.97 C
3829 02-02-2016 07:50:00 11.4 C 85 % 8.97 C
3830 02-02-2016 07:55:00 11.5 C 85 % 9.07 C
3831 02-02-2016 08:00:00 11.5 C 85 % 9.07 C
3832 02-02-2016 08:05:00 11.5 C 85 % 9.07 C
3833 02-02-2016 08:10:00 11.5 C 85 % 9.07 C
3834 02-02-2016 08:15:00 11.5 C 85 % 9.07 C
3835 02-02-2016 08:20:00 11.5 C 85 % 9.07 C
3836 02-02-2016 08:25:00 11.5 C 85 % 9.07 C
3837 02-02-2016 08:30:00 11.5 C 85 % 9.07 C
3838 02-02-2016 08:35:00 11.6 C 85 % 9.17 C
3839 02-02-2016 08:40:00 11.6 C 84 % 8.99 C
3840 02-02-2016 08:45:00 11.6 C 84 % 8.99 C
3841 02-02-2016 08:50:00 11.6 C 84 % 8.99 C
3842 02-02-2016 08:55:00 11.7 C 84 % 9.09 C
3843 02-02-2016 09:00:00 11.7 C 84 % 9.09 C
3844 02-02-2016 09:05:00 11.7 C 84 % 9.09 C
3845 02-02-2016 09:10:00 11.7 C 84 % 9.09 C
3846 02-02-2016 09:15:00 11.7 C 84 % 9.09 C
3847 02-02-2016 09:20:00 11.7 C 84 % 9.09 C
3848 02-02-2016 09:25:00 11.8 C 84 % 9.19 C
3849 02-02-2016 09:30:00 11.8 C 84 % 9.19 C
3850 02-02-2016 09:35:00 11.8 C 84 % 9.19 C
Sensor: Nr:Datum:Temp:Feuchte:Taupunkt:
Aussen-T/F 3851 02-02-2016 09:40:00 11.8 C 84 % 9.19 C
3852 02-02-2016 09:45:00 11.7 C 84 % 9.09 C
3853 02-02-2016 09:50:00 11.7 C 84 % 9.09 C
3854 02-02-2016 09:55:00 11.7 C 84 % 9.09 C
3855 02-02-2016 10:00:00 11.7 C 84 % 9.09 C
3856 02-02-2016 10:05:00 11.8 C 84 % 9.19 C
3857 02-02-2016 10:10:00 11.7 C 84 % 9.09 C
3858 02-02-2016 10:15:00 11.7 C 85 % 9.27 C
3859 02-02-2016 10:20:00 11.7 C 85 % 9.27 C
3860 02-02-2016 10:25:00 11.7 C 85 % 9.27 C
3861 02-02-2016 10:30:00 11.7 C 85 % 9.27 C
3862 02-02-2016 10:35:00 11.7 C 85 % 9.27 C
3863 02-02-2016 10:40:00 11.7 C 86 % 9.44 C
3864 02-02-2016 10:45:00 11.7 C 86 % 9.44 C
3865 02-02-2016 10:50:00 11.7 C 86 % 9.44 C
3866 02-02-2016 10:55:00 11.8 C 86 % 9.54 C
3867 02-02-2016 11:00:00 11.9 C 85 % 9.46 C
3868 02-02-2016 11:05:00 11.9 C 85 % 9.46 C
3869 02-02-2016 11:10:00 11.9 C 85 % 9.46 C
3870 02-02-2016 11:15:00 12 C 85 % 9.56 C
3871 02-02-2016 11:20:00 12 C 85 % 9.56 C
3872 02-02-2016 11:25:00 12 C 85 % 9.56 C
3873 02-02-2016 11:30:00 12 C 85 % 9.56 C
3874 02-02-2016 11:35:00 12.1 C 85 % 9.66 C
3875 02-02-2016 11:40:00 12.1 C 85 % 9.66 C
Sensor: Nr:Datum:Temp:Feuchte:Taupunkt:
Aussen-T/F 3876 02-02-2016 11:45:00 12 C 85 % 9.56 C
3877 02-02-2016 11:50:00 12 C 85 % 9.56 C
3878 02-02-2016 11:55:00 12 C 85 % 9.56 C
3879 02-02-2016 12:00:00 12.1 C 85 % 9.66 C
3880 02-02-2016 12:05:00 12.1 C 85 % 9.66 C
3881 02-02-2016 12:10:00 12.2 C 85 % 9.76 C
3882 02-02-2016 12:15:00 12.3 C 84 % 9.68 C
3883 02-02-2016 12:20:00 12.3 C 84 % 9.68 C
3884 02-02-2016 12:25:00 12.3 C 84 % 9.68 C
3885 02-02-2016 12:30:00 12.4 C 84 % 9.78 C
3886 02-02-2016 12:35:00 12.5 C 83 % 9.69 C
3887 02-02-2016 12:40:00 12.6 C 83 % 9.79 C
3888 02-02-2016 12:45:00 12.6 C 82 % 9.61 C
3889 02-02-2016 12:50:00 12.5 C 82 % 9.51 C
3890 02-02-2016 12:55:00 12.4 C 82 % 9.42 C
3891 02-02-2016 13:00:00 12.4 C 83 % 9.6 C
3892 02-02-2016 13:05:00 12.4 C 83 % 9.6 C
3893 02-02-2016 13:10:00 12.4 C 83 % 9.6 C
3894 02-02-2016 13:15:00 12.3 C 83 % 9.5 C
3895 02-02-2016 13:20:00 12.3 C 83 % 9.5 C
3896 02-02-2016 13:25:00 12.3 C 83 % 9.5 C
3897 02-02-2016 13:30:00 12.3 C 84 % 9.68 C
3898 02-02-2